<?xml version="1.0" encoding="UTF-8" standalone="no" ?>
<gpx xmlns="http://www.topografix.com/GPX/1/1" xmlns:xsi="http://www.w3.org/2001/XMLSchema-instance" xsi:schemaLocation="http://www.topografix.com/GPX/1/1 http://www.topografix.com/GPX/1/1/gpx.xsd" version="1.1" creator="VisuGPX - https://www.visugpx.com">
  <metadata>
    <name>Thoras - 33km</name>
    <desc><![CDATA[fait le 12/04/2025  Rally des Cavaliers du Gévaudan]]></desc>
  </metadata>
  <trk>
    <name><![CDATA[Thoras - 33km_1]]></name>
    <extensions>
      <line xmlns="http://www.topografix.com/GPX/gpx_style/0/2">
        <color>0000FF</color>
        <width>4</width>
        <dasharray>20</dasharray>
      </line>
    </extensions>
    <trkseg>
      <trkpt lat="44.86291" lon="3.56386">
        <ele>1077.78</ele>
        <time>2025-04-12T15:15:24Z</time>
      </trkpt>
      <trkpt lat="44.86291" lon="3.56386">
        <ele>1078.26</ele>
        <time>2025-04-12T15:15:06Z</time>
      </trkpt>
      <trkpt lat="44.86293" lon="3.56385">
        <ele>1079.7</ele>
        <time>2025-04-12T15:14:47Z</time>
      </trkpt>
      <trkpt lat="44.86291" lon="3.56384">
        <ele>1080.66</ele>
        <time>2025-04-12T15:14:26Z</time>
      </trkpt>
      <trkpt lat="44.86291" lon="3.56387">
        <ele>1080.66</ele>
        <time>2025-04-12T15:14:10Z</time>
      </trkpt>
      <trkpt lat="44.86293" lon="3.56385">
        <ele>1079.7</ele>
        <time>2025-04-12T15:13:53Z</time>
      </trkpt>
      <trkpt lat="44.86293" lon="3.56385">
        <ele>1079.7</ele>
        <time>2025-04-12T15:13:40Z</time>
      </trkpt>
      <trkpt lat="44.8629" lon="3.56387">
        <ele>1077.78</ele>
        <time>2025-04-12T15:13:17Z</time>
      </trkpt>
      <trkpt lat="44.86289" lon="3.56388">
        <ele>1077.29</ele>
        <time>2025-04-12T15:13:04Z</time>
      </trkpt>
      <trkpt lat="44.86291" lon="3.56385">
        <ele>1077.29</ele>
        <time>2025-04-12T15:12:48Z</time>
      </trkpt>
      <trkpt lat="44.86292" lon="3.56386">
        <ele>1078.26</ele>
        <time>2025-04-12T15:12:36Z</time>
      </trkpt>
      <trkpt lat="44.86294" lon="3.56389">
        <ele>1080.18</ele>
        <time>2025-04-12T15:12:21Z</time>
      </trkpt>
      <trkpt lat="44.86297" lon="3.56388">
        <ele>1082.1</ele>
        <time>2025-04-12T15:12:03Z</time>
      </trkpt>
      <trkpt lat="44.86295" lon="3.56384">
        <ele>1079.7</ele>
        <time>2025-04-12T15:11:41Z</time>
      </trkpt>
      <trkpt lat="44.86293" lon="3.56387">
        <ele>1077.29</ele>
        <time>2025-04-12T15:11:19Z</time>
      </trkpt>
      <trkpt lat="44.86289" lon="3.56387">
        <ele>1077.29</ele>
        <time>2025-04-12T15:11:05Z</time>
      </trkpt>
      <trkpt lat="44.86289" lon="3.56387">
        <ele>1075.85</ele>
        <time>2025-04-12T15:10:47Z</time>
      </trkpt>
      <trkpt lat="44.8629" lon="3.56387">
        <ele>1074.89</ele>
        <time>2025-04-12T15:10:26Z</time>
      </trkpt>
      <trkpt lat="44.86291" lon="3.56388">
        <ele>1074.89</ele>
        <time>2025-04-12T15:10:05Z</time>
      </trkpt>
      <trkpt lat="44.86293" lon="3.5639">
        <ele>1075.37</ele>
        <time>2025-04-12T15:09:46Z</time>
      </trkpt>
      <trkpt lat="44.86295" lon="3.56389">
        <ele>1076.81</ele>
        <time>2025-04-12T15:09:28Z</time>
      </trkpt>
      <trkpt lat="44.86296" lon="3.56388">
        <ele>1077.78</ele>
        <time>2025-04-12T15:09:11Z</time>
      </trkpt>
      <trkpt lat="44.86295" lon="3.56388">
        <ele>1078.74</ele>
        <time>2025-04-12T15:08:52Z</time>
      </trkpt>
      <trkpt lat="44.86296" lon="3.56389">
        <ele>1081.62</ele>
        <time>2025-04-12T15:08:32Z</time>
      </trkpt>
      <trkpt lat="44.86294" lon="3.56388">
        <ele>1082.1</ele>
        <time>2025-04-12T15:08:14Z</time>
      </trkpt>
      <trkpt lat="44.86293" lon="3.56385">
        <ele>1082.1</ele>
        <time>2025-04-12T15:07:50Z</time>
      </trkpt>
      <trkpt lat="44.86284" lon="3.56381">
        <ele>1080.66</ele>
        <time>2025-04-12T15:07:37Z</time>
      </trkpt>
      <trkpt lat="44.86273" lon="3.56374">
        <ele>1077.78</ele>
        <time>2025-04-12T15:07:23Z</time>
      </trkpt>
      <trkpt lat="44.86252" lon="3.56362">
        <ele>1078.74</ele>
        <time>2025-04-12T15:07:04Z</time>
      </trkpt>
      <trkpt lat="44.86233" lon="3.56349">
        <ele>1081.62</ele>
        <time>2025-04-12T15:06:47Z</time>
      </trkpt>
      <trkpt lat="44.86212" lon="3.56328">
        <ele>1082.58</ele>
        <time>2025-04-12T15:06:26Z</time>
      </trkpt>
      <trkpt lat="44.86192" lon="3.56308">
        <ele>1084.99</ele>
        <time>2025-04-12T15:06:09Z</time>
      </trkpt>
      <trkpt lat="44.86175" lon="3.56296">
        <ele>1085.95</ele>
        <time>2025-04-12T15:05:52Z</time>
      </trkpt>
      <trkpt lat="44.86153" lon="3.5629">
        <ele>1087.87</ele>
        <time>2025-04-12T15:05:35Z</time>
      </trkpt>
      <trkpt lat="44.8613" lon="3.5628">
        <ele>1089.79</ele>
        <time>2025-04-12T15:05:13Z</time>
      </trkpt>
      <trkpt lat="44.86108" lon="3.56261">
        <ele>1092.68</ele>
        <time>2025-04-12T15:04:55Z</time>
      </trkpt>
      <trkpt lat="44.86087" lon="3.56243">
        <ele>1095.08</ele>
        <time>2025-04-12T15:04:37Z</time>
      </trkpt>
      <trkpt lat="44.86066" lon="3.56231">
        <ele>1097.48</ele>
        <time>2025-04-12T15:04:17Z</time>
      </trkpt>
      <trkpt lat="44.86045" lon="3.56218">
        <ele>1097.48</ele>
        <time>2025-04-12T15:03:57Z</time>
      </trkpt>
      <trkpt lat="44.86043" lon="3.56219">
        <ele>1097</ele>
        <time>2025-04-12T15:03:39Z</time>
      </trkpt>
      <trkpt lat="44.86041" lon="3.56221">
        <ele>1097.48</ele>
        <time>2025-04-12T15:03:25Z</time>
      </trkpt>
      <trkpt lat="44.86018" lon="3.56218">
        <ele>1100.37</ele>
        <time>2025-04-12T15:03:10Z</time>
      </trkpt>
      <trkpt lat="44.85992" lon="3.56214">
        <ele>1106.13</ele>
        <time>2025-04-12T15:02:54Z</time>
      </trkpt>
      <trkpt lat="44.85966" lon="3.5621">
        <ele>1113.34</ele>
        <time>2025-04-12T15:02:37Z</time>
      </trkpt>
      <trkpt lat="44.85943" lon="3.56207">
        <ele>1122</ele>
        <time>2025-04-12T15:02:22Z</time>
      </trkpt>
      <trkpt lat="44.85942" lon="3.56207">
        <ele>1122</ele>
        <time>2025-04-12T15:02:21Z</time>
      </trkpt>
      <trkpt lat="44.85922" lon="3.56207">
        <ele>1124.88</ele>
        <time>2025-04-12T15:02:07Z</time>
      </trkpt>
      <trkpt lat="44.85903" lon="3.5621">
        <ele>1128.73</ele>
        <time>2025-04-12T15:01:52Z</time>
      </trkpt>
      <trkpt lat="44.85878" lon="3.56202">
        <ele>1134.49</ele>
        <time>2025-04-12T15:01:35Z</time>
      </trkpt>
      <trkpt lat="44.85853" lon="3.56181">
        <ele>1139.78</ele>
        <time>2025-04-12T15:01:17Z</time>
      </trkpt>
      <trkpt lat="44.8583" lon="3.56159">
        <ele>1152.76</ele>
        <time>2025-04-12T15:01:00Z</time>
      </trkpt>
      <trkpt lat="44.85811" lon="3.56144">
        <ele>1159.97</ele>
        <time>2025-04-12T15:00:44Z</time>
      </trkpt>
      <trkpt lat="44.8579" lon="3.56116">
        <ele>1169.1</ele>
        <time>2025-04-12T15:00:29Z</time>
      </trkpt>
      <trkpt lat="44.85749" lon="3.56067">
        <ele>1193.61</ele>
        <time>2025-04-12T15:00:08Z</time>
      </trkpt>
      <trkpt lat="44.85731" lon="3.56048">
        <ele>1198.42</ele>
        <time>2025-04-12T14:59:52Z</time>
      </trkpt>
      <trkpt lat="44.85709" lon="3.56038">
        <ele>1199.86</ele>
        <time>2025-04-12T14:59:36Z</time>
      </trkpt>
      <trkpt lat="44.85694" lon="3.56031">
        <ele>1197.94</ele>
        <time>2025-04-12T14:59:21Z</time>
      </trkpt>
      <trkpt lat="44.85671" lon="3.56022">
        <ele>1203.23</ele>
        <time>2025-04-12T14:59:06Z</time>
      </trkpt>
      <trkpt lat="44.85639" lon="3.55999">
        <ele>1206.11</ele>
        <time>2025-04-12T14:58:45Z</time>
      </trkpt>
      <trkpt lat="44.85614" lon="3.55979">
        <ele>1202.75</ele>
        <time>2025-04-12T14:58:24Z</time>
      </trkpt>
      <trkpt lat="44.85594" lon="3.55959">
        <ele>1199.38</ele>
        <time>2025-04-12T14:58:07Z</time>
      </trkpt>
      <trkpt lat="44.85575" lon="3.55947">
        <ele>1196.5</ele>
        <time>2025-04-12T14:57:49Z</time>
      </trkpt>
      <trkpt lat="44.85552" lon="3.55937">
        <ele>1195.06</ele>
        <time>2025-04-12T14:57:29Z</time>
      </trkpt>
      <trkpt lat="44.85531" lon="3.55926">
        <ele>1192.17</ele>
        <time>2025-04-12T14:57:12Z</time>
      </trkpt>
      <trkpt lat="44.85512" lon="3.55919">
        <ele>1189.29</ele>
        <time>2025-04-12T14:56:56Z</time>
      </trkpt>
      <trkpt lat="44.85483" lon="3.55897">
        <ele>1188.33</ele>
        <time>2025-04-12T14:56:36Z</time>
      </trkpt>
      <trkpt lat="44.85459" lon="3.55884">
        <ele>1185.44</ele>
        <time>2025-04-12T14:56:16Z</time>
      </trkpt>
      <trkpt lat="44.8543" lon="3.55876">
        <ele>1178.23</ele>
        <time>2025-04-12T14:55:51Z</time>
      </trkpt>
      <trkpt lat="44.85396" lon="3.55852">
        <ele>1174.87</ele>
        <time>2025-04-12T14:55:26Z</time>
      </trkpt>
      <trkpt lat="44.85373" lon="3.55819">
        <ele>1172.95</ele>
        <time>2025-04-12T14:55:04Z</time>
      </trkpt>
      <trkpt lat="44.85351" lon="3.55788">
        <ele>1171.5</ele>
        <time>2025-04-12T14:54:45Z</time>
      </trkpt>
      <trkpt lat="44.85327" lon="3.55748">
        <ele>1168.62</ele>
        <time>2025-04-12T14:54:21Z</time>
      </trkpt>
      <trkpt lat="44.85309" lon="3.55712">
        <ele>1167.66</ele>
        <time>2025-04-12T14:54:01Z</time>
      </trkpt>
      <trkpt lat="44.85286" lon="3.55677">
        <ele>1165.74</ele>
        <time>2025-04-12T14:53:40Z</time>
      </trkpt>
      <trkpt lat="44.85259" lon="3.55651">
        <ele>1164.29</ele>
        <time>2025-04-12T14:53:20Z</time>
      </trkpt>
      <trkpt lat="44.85233" lon="3.55627">
        <ele>1161.89</ele>
        <time>2025-04-12T14:53:01Z</time>
      </trkpt>
      <trkpt lat="44.85205" lon="3.55597">
        <ele>1160.45</ele>
        <time>2025-04-12T14:52:41Z</time>
      </trkpt>
      <trkpt lat="44.85178" lon="3.55568">
        <ele>1159.49</ele>
        <time>2025-04-12T14:52:22Z</time>
      </trkpt>
      <trkpt lat="44.8515" lon="3.55545">
        <ele>1158.53</ele>
        <time>2025-04-12T14:52:03Z</time>
      </trkpt>
      <trkpt lat="44.85129" lon="3.55522">
        <ele>1157.56</ele>
        <time>2025-04-12T14:51:47Z</time>
      </trkpt>
      <trkpt lat="44.85101" lon="3.55513">
        <ele>1158.53</ele>
        <time>2025-04-12T14:51:30Z</time>
      </trkpt>
      <trkpt lat="44.85078" lon="3.55499">
        <ele>1158.53</ele>
        <time>2025-04-12T14:51:17Z</time>
      </trkpt>
      <trkpt lat="44.85079" lon="3.55465">
        <ele>1159.97</ele>
        <time>2025-04-12T14:51:03Z</time>
      </trkpt>
      <trkpt lat="44.85068" lon="3.55422">
        <ele>1160.93</ele>
        <time>2025-04-12T14:50:42Z</time>
      </trkpt>
      <trkpt lat="44.85054" lon="3.55382">
        <ele>1161.89</ele>
        <time>2025-04-12T14:50:22Z</time>
      </trkpt>
      <trkpt lat="44.85042" lon="3.55343">
        <ele>1165.26</ele>
        <time>2025-04-12T14:50:04Z</time>
      </trkpt>
      <trkpt lat="44.85031" lon="3.55315">
        <ele>1169.1</ele>
        <time>2025-04-12T14:49:50Z</time>
      </trkpt>
      <trkpt lat="44.85019" lon="3.55284">
        <ele>1171.5</ele>
        <time>2025-04-12T14:49:35Z</time>
      </trkpt>
      <trkpt lat="44.85004" lon="3.55248">
        <ele>1174.87</ele>
        <time>2025-04-12T14:49:18Z</time>
      </trkpt>
      <trkpt lat="44.8499" lon="3.55214">
        <ele>1177.27</ele>
        <time>2025-04-12T14:49:01Z</time>
      </trkpt>
      <trkpt lat="44.84977" lon="3.55182">
        <ele>1180.64</ele>
        <time>2025-04-12T14:48:46Z</time>
      </trkpt>
      <trkpt lat="44.84961" lon="3.55147">
        <ele>1185.44</ele>
        <time>2025-04-12T14:48:29Z</time>
      </trkpt>
      <trkpt lat="44.8496" lon="3.55145">
        <ele>1185.44</ele>
        <time>2025-04-12T14:48:28Z</time>
      </trkpt>
      <trkpt lat="44.84959" lon="3.55143">
        <ele>1185.44</ele>
        <time>2025-04-12T14:48:27Z</time>
      </trkpt>
      <trkpt lat="44.84958" lon="3.55141">
        <ele>1185.92</ele>
        <time>2025-04-12T14:48:26Z</time>
      </trkpt>
      <trkpt lat="44.84957" lon="3.55139">
        <ele>1186.4</ele>
        <time>2025-04-12T14:48:25Z</time>
      </trkpt>
      <trkpt lat="44.84953" lon="3.55134">
        <ele>1186.4</ele>
        <time>2025-04-12T14:48:21Z</time>
      </trkpt>
      <trkpt lat="44.84939" lon="3.551">
        <ele>1188.81</ele>
        <time>2025-04-12T14:48:05Z</time>
      </trkpt>
      <trkpt lat="44.84922" lon="3.55062">
        <ele>1191.69</ele>
        <time>2025-04-12T14:47:46Z</time>
      </trkpt>
      <trkpt lat="44.84911" lon="3.55017">
        <ele>1194.58</ele>
        <time>2025-04-12T14:47:25Z</time>
      </trkpt>
      <trkpt lat="44.84905" lon="3.54977">
        <ele>1199.38</ele>
        <time>2025-04-12T14:47:09Z</time>
      </trkpt>
      <trkpt lat="44.84896" lon="3.54924">
        <ele>1207.07</ele>
        <time>2025-04-12T14:46:49Z</time>
      </trkpt>
      <trkpt lat="44.84895" lon="3.54883">
        <ele>1206.59</ele>
        <time>2025-04-12T14:46:32Z</time>
      </trkpt>
      <trkpt lat="44.849" lon="3.5485">
        <ele>1201.3</ele>
        <time>2025-04-12T14:46:14Z</time>
      </trkpt>
      <trkpt lat="44.84905" lon="3.54823">
        <ele>1200.82</ele>
        <time>2025-04-12T14:45:59Z</time>
      </trkpt>
      <trkpt lat="44.84906" lon="3.54822">
        <ele>1201.3</ele>
        <time>2025-04-12T14:45:58Z</time>
      </trkpt>
      <trkpt lat="44.84908" lon="3.54822">
        <ele>1202.27</ele>
        <time>2025-04-12T14:45:57Z</time>
      </trkpt>
      <trkpt lat="44.84918" lon="3.54825">
        <ele>1200.82</ele>
        <time>2025-04-12T14:45:51Z</time>
      </trkpt>
      <trkpt lat="44.84933" lon="3.54834">
        <ele>1197.46</ele>
        <time>2025-04-12T14:45:41Z</time>
      </trkpt>
      <trkpt lat="44.84934" lon="3.54835">
        <ele>1197.46</ele>
        <time>2025-04-12T14:45:40Z</time>
      </trkpt>
      <trkpt lat="44.84936" lon="3.54835">
        <ele>1196.98</ele>
        <time>2025-04-12T14:45:39Z</time>
      </trkpt>
      <trkpt lat="44.84937" lon="3.54835">
        <ele>1196.98</ele>
        <time>2025-04-12T14:45:38Z</time>
      </trkpt>
      <trkpt lat="44.84939" lon="3.54835">
        <ele>1196.98</ele>
        <time>2025-04-12T14:45:37Z</time>
      </trkpt>
      <trkpt lat="44.8494" lon="3.54835">
        <ele>1196.98</ele>
        <time>2025-04-12T14:45:36Z</time>
      </trkpt>
      <trkpt lat="44.84942" lon="3.54834">
        <ele>1196.98</ele>
        <time>2025-04-12T14:45:35Z</time>
      </trkpt>
      <trkpt lat="44.84944" lon="3.54834">
        <ele>1196.98</ele>
        <time>2025-04-12T14:45:34Z</time>
      </trkpt>
      <trkpt lat="44.84962" lon="3.54828">
        <ele>1198.42</ele>
        <time>2025-04-12T14:45:22Z</time>
      </trkpt>
      <trkpt lat="44.84982" lon="3.54816">
        <ele>1202.27</ele>
        <time>2025-04-12T14:45:07Z</time>
      </trkpt>
      <trkpt lat="44.84983" lon="3.54816">
        <ele>1202.27</ele>
        <time>2025-04-12T14:45:06Z</time>
      </trkpt>
      <trkpt lat="44.84988" lon="3.54802">
        <ele>1202.75</ele>
        <time>2025-04-12T14:44:56Z</time>
      </trkpt>
      <trkpt lat="44.84989" lon="3.54801">
        <ele>1202.75</ele>
        <time>2025-04-12T14:44:55Z</time>
      </trkpt>
      <trkpt lat="44.8499" lon="3.54799">
        <ele>1202.75</ele>
        <time>2025-04-12T14:44:54Z</time>
      </trkpt>
      <trkpt lat="44.84994" lon="3.54779">
        <ele>1203.23</ele>
        <time>2025-04-12T14:44:42Z</time>
      </trkpt>
      <trkpt lat="44.85018" lon="3.54756">
        <ele>1204.19</ele>
        <time>2025-04-12T14:44:23Z</time>
      </trkpt>
      <trkpt lat="44.85034" lon="3.54727">
        <ele>1204.19</ele>
        <time>2025-04-12T14:44:03Z</time>
      </trkpt>
      <trkpt lat="44.85049" lon="3.54695">
        <ele>1205.15</ele>
        <time>2025-04-12T14:43:45Z</time>
      </trkpt>
      <trkpt lat="44.8505" lon="3.54693">
        <ele>1205.15</ele>
        <time>2025-04-12T14:43:44Z</time>
      </trkpt>
      <trkpt lat="44.85051" lon="3.54691">
        <ele>1205.15</ele>
        <time>2025-04-12T14:43:43Z</time>
      </trkpt>
      <trkpt lat="44.85072" lon="3.54667">
        <ele>1208.03</ele>
        <time>2025-04-12T14:43:25Z</time>
      </trkpt>
      <trkpt lat="44.85086" lon="3.54638">
        <ele>1205.63</ele>
        <time>2025-04-12T14:43:06Z</time>
      </trkpt>
      <trkpt lat="44.85096" lon="3.54605">
        <ele>1202.75</ele>
        <time>2025-04-12T14:42:48Z</time>
      </trkpt>
      <trkpt lat="44.85109" lon="3.54562">
        <ele>1199.38</ele>
        <time>2025-04-12T14:42:29Z</time>
      </trkpt>
      <trkpt lat="44.85116" lon="3.54526">
        <ele>1196.02</ele>
        <time>2025-04-12T14:42:14Z</time>
      </trkpt>
      <trkpt lat="44.85127" lon="3.54483">
        <ele>1193.61</ele>
        <time>2025-04-12T14:41:56Z</time>
      </trkpt>
      <trkpt lat="44.85144" lon="3.54446">
        <ele>1192.17</ele>
        <time>2025-04-12T14:41:37Z</time>
      </trkpt>
      <trkpt lat="44.85161" lon="3.54417">
        <ele>1191.69</ele>
        <time>2025-04-12T14:41:21Z</time>
      </trkpt>
      <trkpt lat="44.85185" lon="3.54394">
        <ele>1191.21</ele>
        <time>2025-04-12T14:41:03Z</time>
      </trkpt>
      <trkpt lat="44.85208" lon="3.5436">
        <ele>1191.21</ele>
        <time>2025-04-12T14:40:43Z</time>
      </trkpt>
      <trkpt lat="44.85226" lon="3.54331">
        <ele>1190.73</ele>
        <time>2025-04-12T14:40:26Z</time>
      </trkpt>
      <trkpt lat="44.85248" lon="3.54304">
        <ele>1191.21</ele>
        <time>2025-04-12T14:40:09Z</time>
      </trkpt>
      <trkpt lat="44.85268" lon="3.54277">
        <ele>1192.65</ele>
        <time>2025-04-12T14:39:53Z</time>
      </trkpt>
      <trkpt lat="44.85294" lon="3.5427">
        <ele>1193.61</ele>
        <time>2025-04-12T14:39:36Z</time>
      </trkpt>
      <trkpt lat="44.85326" lon="3.54258">
        <ele>1193.61</ele>
        <time>2025-04-12T14:39:15Z</time>
      </trkpt>
      <trkpt lat="44.8535" lon="3.54237">
        <ele>1195.54</ele>
        <time>2025-04-12T14:38:57Z</time>
      </trkpt>
      <trkpt lat="44.85374" lon="3.54209">
        <ele>1199.86</ele>
        <time>2025-04-12T14:38:38Z</time>
      </trkpt>
      <trkpt lat="44.85405" lon="3.54176">
        <ele>1202.75</ele>
        <time>2025-04-12T14:38:14Z</time>
      </trkpt>
      <trkpt lat="44.8543" lon="3.5415">
        <ele>1202.75</ele>
        <time>2025-04-12T14:37:55Z</time>
      </trkpt>
      <trkpt lat="44.85449" lon="3.54128">
        <ele>1199.38</ele>
        <time>2025-04-12T14:37:39Z</time>
      </trkpt>
      <trkpt lat="44.85478" lon="3.5412">
        <ele>1197.46</ele>
        <time>2025-04-12T14:37:21Z</time>
      </trkpt>
      <trkpt lat="44.85508" lon="3.5413">
        <ele>1196.98</ele>
        <time>2025-04-12T14:37:04Z</time>
      </trkpt>
      <trkpt lat="44.85535" lon="3.54149">
        <ele>1197.46</ele>
        <time>2025-04-12T14:36:47Z</time>
      </trkpt>
      <trkpt lat="44.8556" lon="3.54165">
        <ele>1198.9</ele>
        <time>2025-04-12T14:36:32Z</time>
      </trkpt>
      <trkpt lat="44.85589" lon="3.54175">
        <ele>1201.3</ele>
        <time>2025-04-12T14:36:16Z</time>
      </trkpt>
      <trkpt lat="44.85603" lon="3.5418">
        <ele>1205.63</ele>
        <time>2025-04-12T14:36:00Z</time>
      </trkpt>
      <trkpt lat="44.8563" lon="3.5418">
        <ele>1213.8</ele>
        <time>2025-04-12T14:35:43Z</time>
      </trkpt>
      <trkpt lat="44.85643" lon="3.54179">
        <ele>1215.24</ele>
        <time>2025-04-12T14:35:35Z</time>
      </trkpt>
      <trkpt lat="44.85645" lon="3.54178">
        <ele>1215.24</ele>
        <time>2025-04-12T14:35:34Z</time>
      </trkpt>
      <trkpt lat="44.85657" lon="3.54167">
        <ele>1216.21</ele>
        <time>2025-04-12T14:35:30Z</time>
      </trkpt>
      <trkpt lat="44.85679" lon="3.54138">
        <ele>1211.88</ele>
        <time>2025-04-12T14:35:15Z</time>
      </trkpt>
      <trkpt lat="44.85684" lon="3.54119">
        <ele>1201.79</ele>
        <time>2025-04-12T14:35:04Z</time>
      </trkpt>
      <trkpt lat="44.85684" lon="3.54116">
        <ele>1200.82</ele>
        <time>2025-04-12T14:35:03Z</time>
      </trkpt>
      <trkpt lat="44.85685" lon="3.54113">
        <ele>1199.86</ele>
        <time>2025-04-12T14:35:02Z</time>
      </trkpt>
      <trkpt lat="44.85686" lon="3.5411">
        <ele>1200.82</ele>
        <time>2025-04-12T14:35:01Z</time>
      </trkpt>
      <trkpt lat="44.8569" lon="3.54104">
        <ele>1200.82</ele>
        <time>2025-04-12T14:34:59Z</time>
      </trkpt>
      <trkpt lat="44.85692" lon="3.54101">
        <ele>1199.86</ele>
        <time>2025-04-12T14:34:58Z</time>
      </trkpt>
      <trkpt lat="44.85693" lon="3.54099">
        <ele>1198.9</ele>
        <time>2025-04-12T14:34:57Z</time>
      </trkpt>
      <trkpt lat="44.85704" lon="3.54079">
        <ele>1189.77</ele>
        <time>2025-04-12T14:34:44Z</time>
      </trkpt>
      <trkpt lat="44.8572" lon="3.54058">
        <ele>1180.64</ele>
        <time>2025-04-12T14:34:29Z</time>
      </trkpt>
      <trkpt lat="44.85733" lon="3.54039">
        <ele>1174.39</ele>
        <time>2025-04-12T14:34:14Z</time>
      </trkpt>
      <trkpt lat="44.85746" lon="3.53996">
        <ele>1173.91</ele>
        <time>2025-04-12T14:34:03Z</time>
      </trkpt>
      <trkpt lat="44.85758" lon="3.5396">
        <ele>1171.5</ele>
        <time>2025-04-12T14:33:57Z</time>
      </trkpt>
      <trkpt lat="44.85761" lon="3.53954">
        <ele>1171.02</ele>
        <time>2025-04-12T14:33:56Z</time>
      </trkpt>
      <trkpt lat="44.85782" lon="3.53904">
        <ele>1168.14</ele>
        <time>2025-04-12T14:33:49Z</time>
      </trkpt>
      <trkpt lat="44.85824" lon="3.53838">
        <ele>1166.7</ele>
        <time>2025-04-12T14:33:35Z</time>
      </trkpt>
      <trkpt lat="44.85827" lon="3.53834">
        <ele>1166.7</ele>
        <time>2025-04-12T14:33:34Z</time>
      </trkpt>
      <trkpt lat="44.85842" lon="3.53818">
        <ele>1167.18</ele>
        <time>2025-04-12T14:33:30Z</time>
      </trkpt>
      <trkpt lat="44.85845" lon="3.53814">
        <ele>1167.66</ele>
        <time>2025-04-12T14:33:29Z</time>
      </trkpt>
      <trkpt lat="44.85856" lon="3.53803">
        <ele>1167.66</ele>
        <time>2025-04-12T14:33:26Z</time>
      </trkpt>
      <trkpt lat="44.85882" lon="3.53774">
        <ele>1170.06</ele>
        <time>2025-04-12T14:33:19Z</time>
      </trkpt>
      <trkpt lat="44.85886" lon="3.53771">
        <ele>1170.54</ele>
        <time>2025-04-12T14:33:18Z</time>
      </trkpt>
      <trkpt lat="44.85902" lon="3.53755">
        <ele>1171.02</ele>
        <time>2025-04-12T14:33:14Z</time>
      </trkpt>
      <trkpt lat="44.85955" lon="3.53702">
        <ele>1171.98</ele>
        <time>2025-04-12T14:33:01Z</time>
      </trkpt>
      <trkpt lat="44.85959" lon="3.53699">
        <ele>1171.98</ele>
        <time>2025-04-12T14:33:00Z</time>
      </trkpt>
      <trkpt lat="44.85973" lon="3.53692">
        <ele>1171.02</ele>
        <time>2025-04-12T14:32:57Z</time>
      </trkpt>
      <trkpt lat="44.85989" lon="3.53688">
        <ele>1170.06</ele>
        <time>2025-04-12T14:32:54Z</time>
      </trkpt>
      <trkpt lat="44.85994" lon="3.53686">
        <ele>1169.1</ele>
        <time>2025-04-12T14:32:53Z</time>
      </trkpt>
      <trkpt lat="44.85999" lon="3.53685">
        <ele>1169.1</ele>
        <time>2025-04-12T14:32:52Z</time>
      </trkpt>
      <trkpt lat="44.86005" lon="3.53683">
        <ele>1168.62</ele>
        <time>2025-04-12T14:32:51Z</time>
      </trkpt>
      <trkpt lat="44.86009" lon="3.53679">
        <ele>1168.62</ele>
        <time>2025-04-12T14:32:50Z</time>
      </trkpt>
      <trkpt lat="44.86014" lon="3.53675">
        <ele>1168.14</ele>
        <time>2025-04-12T14:32:49Z</time>
      </trkpt>
      <trkpt lat="44.86017" lon="3.5367">
        <ele>1167.66</ele>
        <time>2025-04-12T14:32:48Z</time>
      </trkpt>
      <trkpt lat="44.8602" lon="3.53665">
        <ele>1167.18</ele>
        <time>2025-04-12T14:32:47Z</time>
      </trkpt>
      <trkpt lat="44.86023" lon="3.5366">
        <ele>1166.22</ele>
        <time>2025-04-12T14:32:46Z</time>
      </trkpt>
      <trkpt lat="44.86028" lon="3.5362">
        <ele>1161.41</ele>
        <time>2025-04-12T14:32:39Z</time>
      </trkpt>
      <trkpt lat="44.86025" lon="3.53518">
        <ele>1150.35</ele>
        <time>2025-04-12T14:32:23Z</time>
      </trkpt>
      <trkpt lat="44.86023" lon="3.53445">
        <ele>1147.95</ele>
        <time>2025-04-12T14:32:12Z</time>
      </trkpt>
      <trkpt lat="44.8602" lon="3.53391">
        <ele>1147.47</ele>
        <time>2025-04-12T14:31:50Z</time>
      </trkpt>
      <trkpt lat="44.8602" lon="3.53389">
        <ele>1147.47</ele>
        <time>2025-04-12T14:31:49Z</time>
      </trkpt>
      <trkpt lat="44.86022" lon="3.53386">
        <ele>1147.95</ele>
        <time>2025-04-12T14:31:47Z</time>
      </trkpt>
      <trkpt lat="44.86024" lon="3.53383">
        <ele>1147.95</ele>
        <time>2025-04-12T14:31:46Z</time>
      </trkpt>
      <trkpt lat="44.86025" lon="3.53381">
        <ele>1147.95</ele>
        <time>2025-04-12T14:31:45Z</time>
      </trkpt>
      <trkpt lat="44.86027" lon="3.5338">
        <ele>1147.95</ele>
        <time>2025-04-12T14:31:44Z</time>
      </trkpt>
      <trkpt lat="44.86029" lon="3.53379">
        <ele>1147.95</ele>
        <time>2025-04-12T14:31:43Z</time>
      </trkpt>
      <trkpt lat="44.86031" lon="3.53378">
        <ele>1147.47</ele>
        <time>2025-04-12T14:31:42Z</time>
      </trkpt>
      <trkpt lat="44.86034" lon="3.53375">
        <ele>1147.95</ele>
        <time>2025-04-12T14:31:40Z</time>
      </trkpt>
      <trkpt lat="44.8605" lon="3.53341">
        <ele>1147.47</ele>
        <time>2025-04-12T14:31:24Z</time>
      </trkpt>
      <trkpt lat="44.86069" lon="3.53321">
        <ele>1145.55</ele>
        <time>2025-04-12T14:31:09Z</time>
      </trkpt>
      <trkpt lat="44.86091" lon="3.53303">
        <ele>1145.07</ele>
        <time>2025-04-12T14:30:55Z</time>
      </trkpt>
      <trkpt lat="44.86101" lon="3.53291">
        <ele>1143.14</ele>
        <time>2025-04-12T14:30:47Z</time>
      </trkpt>
      <trkpt lat="44.86115" lon="3.53278">
        <ele>1141.7</ele>
        <time>2025-04-12T14:30:34Z</time>
      </trkpt>
      <trkpt lat="44.86117" lon="3.53273">
        <ele>1141.7</ele>
        <time>2025-04-12T14:30:31Z</time>
      </trkpt>
      <trkpt lat="44.86118" lon="3.53271">
        <ele>1141.7</ele>
        <time>2025-04-12T14:30:30Z</time>
      </trkpt>
      <trkpt lat="44.86129" lon="3.53251">
        <ele>1140.74</ele>
        <time>2025-04-12T14:30:17Z</time>
      </trkpt>
      <trkpt lat="44.86144" lon="3.53239">
        <ele>1139.3</ele>
        <time>2025-04-12T14:30:03Z</time>
      </trkpt>
      <trkpt lat="44.86157" lon="3.53232">
        <ele>1137.86</ele>
        <time>2025-04-12T14:29:51Z</time>
      </trkpt>
      <trkpt lat="44.86176" lon="3.53238">
        <ele>1131.13</ele>
        <time>2025-04-12T14:29:38Z</time>
      </trkpt>
      <trkpt lat="44.8619" lon="3.53242">
        <ele>1128.24</ele>
        <time>2025-04-12T14:29:28Z</time>
      </trkpt>
      <trkpt lat="44.862" lon="3.53246">
        <ele>1127.28</ele>
        <time>2025-04-12T14:29:21Z</time>
      </trkpt>
      <trkpt lat="44.86205" lon="3.53247">
        <ele>1126.32</ele>
        <time>2025-04-12T14:29:17Z</time>
      </trkpt>
      <trkpt lat="44.86216" lon="3.53256">
        <ele>1123.92</ele>
        <time>2025-04-12T14:29:04Z</time>
      </trkpt>
      <trkpt lat="44.86231" lon="3.53261">
        <ele>1120.07</ele>
        <time>2025-04-12T14:28:50Z</time>
      </trkpt>
      <trkpt lat="44.86235" lon="3.53259">
        <ele>1118.15</ele>
        <time>2025-04-12T14:28:47Z</time>
      </trkpt>
      <trkpt lat="44.86246" lon="3.53245">
        <ele>1110.46</ele>
        <time>2025-04-12T14:28:34Z</time>
      </trkpt>
      <trkpt lat="44.86248" lon="3.53241">
        <ele>1107.58</ele>
        <time>2025-04-12T14:28:30Z</time>
      </trkpt>
      <trkpt lat="44.86258" lon="3.53237">
        <ele>1104.21</ele>
        <time>2025-04-12T14:28:23Z</time>
      </trkpt>
      <trkpt lat="44.86265" lon="3.53246">
        <ele>1099.4</ele>
        <time>2025-04-12T14:28:16Z</time>
      </trkpt>
      <trkpt lat="44.86291" lon="3.53264">
        <ele>1099.4</ele>
        <time>2025-04-12T14:27:56Z</time>
      </trkpt>
      <trkpt lat="44.86293" lon="3.53265">
        <ele>1099.4</ele>
        <time>2025-04-12T14:27:55Z</time>
      </trkpt>
      <trkpt lat="44.86295" lon="3.53266">
        <ele>1099.4</ele>
        <time>2025-04-12T14:27:54Z</time>
      </trkpt>
      <trkpt lat="44.86296" lon="3.53267">
        <ele>1099.89</ele>
        <time>2025-04-12T14:27:53Z</time>
      </trkpt>
      <trkpt lat="44.86298" lon="3.53267">
        <ele>1099.89</ele>
        <time>2025-04-12T14:27:52Z</time>
      </trkpt>
      <trkpt lat="44.86299" lon="3.53266">
        <ele>1099.89</ele>
        <time>2025-04-12T14:27:51Z</time>
      </trkpt>
      <trkpt lat="44.86313" lon="3.53251">
        <ele>1101.33</ele>
        <time>2025-04-12T14:27:37Z</time>
      </trkpt>
      <trkpt lat="44.86314" lon="3.5325">
        <ele>1101.81</ele>
        <time>2025-04-12T14:27:36Z</time>
      </trkpt>
      <trkpt lat="44.86315" lon="3.53248">
        <ele>1101.81</ele>
        <time>2025-04-12T14:27:35Z</time>
      </trkpt>
      <trkpt lat="44.86316" lon="3.53246">
        <ele>1102.29</ele>
        <time>2025-04-12T14:27:34Z</time>
      </trkpt>
      <trkpt lat="44.86316" lon="3.53244">
        <ele>1102.77</ele>
        <time>2025-04-12T14:27:33Z</time>
      </trkpt>
      <trkpt lat="44.86317" lon="3.53243">
        <ele>1102.77</ele>
        <time>2025-04-12T14:27:32Z</time>
      </trkpt>
      <trkpt lat="44.86318" lon="3.53241">
        <ele>1102.77</ele>
        <time>2025-04-12T14:27:31Z</time>
      </trkpt>
      <trkpt lat="44.86318" lon="3.5324">
        <ele>1103.25</ele>
        <time>2025-04-12T14:27:30Z</time>
      </trkpt>
      <trkpt lat="44.86324" lon="3.53236">
        <ele>1102.29</ele>
        <time>2025-04-12T14:27:17Z</time>
      </trkpt>
      <trkpt lat="44.86337" lon="3.53224">
        <ele>1103.73</ele>
        <time>2025-04-12T14:27:03Z</time>
      </trkpt>
      <trkpt lat="44.86357" lon="3.53206">
        <ele>1104.21</ele>
        <time>2025-04-12T14:26:47Z</time>
      </trkpt>
      <trkpt lat="44.8637" lon="3.53181">
        <ele>1105.17</ele>
        <time>2025-04-12T14:26:33Z</time>
      </trkpt>
      <trkpt lat="44.86379" lon="3.53144">
        <ele>1107.1</ele>
        <time>2025-04-12T14:26:16Z</time>
      </trkpt>
      <trkpt lat="44.86395" lon="3.53113">
        <ele>1108.54</ele>
        <time>2025-04-12T14:26:00Z</time>
      </trkpt>
      <trkpt lat="44.86408" lon="3.53076">
        <ele>1110.46</ele>
        <time>2025-04-12T14:25:42Z</time>
      </trkpt>
      <trkpt lat="44.86416" lon="3.53038">
        <ele>1114.79</ele>
        <time>2025-04-12T14:25:26Z</time>
      </trkpt>
      <trkpt lat="44.86432" lon="3.53007">
        <ele>1119.11</ele>
        <time>2025-04-12T14:25:10Z</time>
      </trkpt>
      <trkpt lat="44.86443" lon="3.52967">
        <ele>1120.55</ele>
        <time>2025-04-12T14:24:53Z</time>
      </trkpt>
      <trkpt lat="44.86453" lon="3.5293">
        <ele>1122.48</ele>
        <time>2025-04-12T14:24:38Z</time>
      </trkpt>
      <trkpt lat="44.86454" lon="3.52927">
        <ele>1122.96</ele>
        <time>2025-04-12T14:24:37Z</time>
      </trkpt>
      <trkpt lat="44.86447" lon="3.5291">
        <ele>1125.36</ele>
        <time>2025-04-12T14:24:28Z</time>
      </trkpt>
      <trkpt lat="44.86431" lon="3.52881">
        <ele>1127.76</ele>
        <time>2025-04-12T14:24:14Z</time>
      </trkpt>
      <trkpt lat="44.86419" lon="3.52837">
        <ele>1132.09</ele>
        <time>2025-04-12T14:23:55Z</time>
      </trkpt>
      <trkpt lat="44.86422" lon="3.52816">
        <ele>1135.45</ele>
        <time>2025-04-12T14:23:45Z</time>
      </trkpt>
      <trkpt lat="44.86431" lon="3.52785">
        <ele>1140.26</ele>
        <time>2025-04-12T14:23:30Z</time>
      </trkpt>
      <trkpt lat="44.86432" lon="3.52784">
        <ele>1140.74</ele>
        <time>2025-04-12T14:23:29Z</time>
      </trkpt>
      <trkpt lat="44.86433" lon="3.52782">
        <ele>1140.74</ele>
        <time>2025-04-12T14:23:28Z</time>
      </trkpt>
      <trkpt lat="44.86434" lon="3.5278">
        <ele>1141.22</ele>
        <time>2025-04-12T14:23:27Z</time>
      </trkpt>
      <trkpt lat="44.86435" lon="3.52779">
        <ele>1141.22</ele>
        <time>2025-04-12T14:23:26Z</time>
      </trkpt>
      <trkpt lat="44.86436" lon="3.52778">
        <ele>1141.22</ele>
        <time>2025-04-12T14:23:25Z</time>
      </trkpt>
      <trkpt lat="44.86438" lon="3.52776">
        <ele>1141.7</ele>
        <time>2025-04-12T14:23:24Z</time>
      </trkpt>
      <trkpt lat="44.86453" lon="3.52754">
        <ele>1144.59</ele>
        <time>2025-04-12T14:23:08Z</time>
      </trkpt>
      <trkpt lat="44.86469" lon="3.5273">
        <ele>1146.51</ele>
        <time>2025-04-12T14:22:55Z</time>
      </trkpt>
      <trkpt lat="44.86489" lon="3.52707">
        <ele>1150.84</ele>
        <time>2025-04-12T14:22:39Z</time>
      </trkpt>
      <trkpt lat="44.86507" lon="3.52693">
        <ele>1156.12</ele>
        <time>2025-04-12T14:22:25Z</time>
      </trkpt>
      <trkpt lat="44.8653" lon="3.52672">
        <ele>1160.45</ele>
        <time>2025-04-12T14:22:07Z</time>
      </trkpt>
      <trkpt lat="44.86556" lon="3.52656">
        <ele>1164.29</ele>
        <time>2025-04-12T14:21:50Z</time>
      </trkpt>
      <trkpt lat="44.86584" lon="3.52642">
        <ele>1168.62</ele>
        <time>2025-04-12T14:21:33Z</time>
      </trkpt>
      <trkpt lat="44.86616" lon="3.52624">
        <ele>1171.02</ele>
        <time>2025-04-12T14:21:12Z</time>
      </trkpt>
      <trkpt lat="44.86643" lon="3.526">
        <ele>1173.43</ele>
        <time>2025-04-12T14:20:55Z</time>
      </trkpt>
      <trkpt lat="44.86666" lon="3.52577">
        <ele>1173.91</ele>
        <time>2025-04-12T14:20:38Z</time>
      </trkpt>
      <trkpt lat="44.86696" lon="3.52554">
        <ele>1172.95</ele>
        <time>2025-04-12T14:20:18Z</time>
      </trkpt>
      <trkpt lat="44.86724" lon="3.52541">
        <ele>1171.98</ele>
        <time>2025-04-12T14:20:00Z</time>
      </trkpt>
      <trkpt lat="44.86751" lon="3.52517">
        <ele>1172.47</ele>
        <time>2025-04-12T14:19:42Z</time>
      </trkpt>
      <trkpt lat="44.86748" lon="3.52475">
        <ele>1176.31</ele>
        <time>2025-04-12T14:19:22Z</time>
      </trkpt>
      <trkpt lat="44.86748" lon="3.52474">
        <ele>1176.31</ele>
        <time>2025-04-12T14:19:21Z</time>
      </trkpt>
      <trkpt lat="44.86748" lon="3.52472">
        <ele>1176.79</ele>
        <time>2025-04-12T14:19:20Z</time>
      </trkpt>
      <trkpt lat="44.86774" lon="3.52453">
        <ele>1175.35</ele>
        <time>2025-04-12T14:19:00Z</time>
      </trkpt>
      <trkpt lat="44.86775" lon="3.52452">
        <ele>1175.35</ele>
        <time>2025-04-12T14:18:59Z</time>
      </trkpt>
      <trkpt lat="44.86776" lon="3.52447">
        <ele>1172.95</ele>
        <time>2025-04-12T14:18:30Z</time>
      </trkpt>
      <trkpt lat="44.86789" lon="3.52453">
        <ele>1173.43</ele>
        <time>2025-04-12T14:18:16Z</time>
      </trkpt>
      <trkpt lat="44.8681" lon="3.5243">
        <ele>1176.31</ele>
        <time>2025-04-12T14:18:01Z</time>
      </trkpt>
      <trkpt lat="44.8683" lon="3.52393">
        <ele>1182.08</ele>
        <time>2025-04-12T14:17:41Z</time>
      </trkpt>
      <trkpt lat="44.86847" lon="3.52365">
        <ele>1184</ele>
        <time>2025-04-12T14:17:26Z</time>
      </trkpt>
      <trkpt lat="44.86869" lon="3.52335">
        <ele>1187.37</ele>
        <time>2025-04-12T14:17:08Z</time>
      </trkpt>
      <trkpt lat="44.86895" lon="3.52317">
        <ele>1189.77</ele>
        <time>2025-04-12T14:16:52Z</time>
      </trkpt>
      <trkpt lat="44.86928" lon="3.52301">
        <ele>1189.77</ele>
        <time>2025-04-12T14:16:30Z</time>
      </trkpt>
      <trkpt lat="44.86958" lon="3.52291">
        <ele>1188.81</ele>
        <time>2025-04-12T14:16:11Z</time>
      </trkpt>
      <trkpt lat="44.86996" lon="3.52272">
        <ele>1192.17</ele>
        <time>2025-04-12T14:15:47Z</time>
      </trkpt>
      <trkpt lat="44.87019" lon="3.52247">
        <ele>1192.17</ele>
        <time>2025-04-12T14:15:27Z</time>
      </trkpt>
      <trkpt lat="44.87035" lon="3.52223">
        <ele>1190.73</ele>
        <time>2025-04-12T14:15:11Z</time>
      </trkpt>
      <trkpt lat="44.87059" lon="3.52199">
        <ele>1189.29</ele>
        <time>2025-04-12T14:14:53Z</time>
      </trkpt>
      <trkpt lat="44.87088" lon="3.52171">
        <ele>1190.25</ele>
        <time>2025-04-12T14:14:33Z</time>
      </trkpt>
      <trkpt lat="44.87106" lon="3.52142">
        <ele>1193.61</ele>
        <time>2025-04-12T14:14:18Z</time>
      </trkpt>
      <trkpt lat="44.87123" lon="3.52108">
        <ele>1198.9</ele>
        <time>2025-04-12T14:14:02Z</time>
      </trkpt>
      <trkpt lat="44.87141" lon="3.52074">
        <ele>1201.79</ele>
        <time>2025-04-12T14:13:44Z</time>
      </trkpt>
      <trkpt lat="44.87156" lon="3.52028">
        <ele>1201.79</ele>
        <time>2025-04-12T14:13:24Z</time>
      </trkpt>
      <trkpt lat="44.87164" lon="3.51988">
        <ele>1202.75</ele>
        <time>2025-04-12T14:13:06Z</time>
      </trkpt>
      <trkpt lat="44.87171" lon="3.5195">
        <ele>1201.79</ele>
        <time>2025-04-12T14:12:50Z</time>
      </trkpt>
      <trkpt lat="44.87182" lon="3.5191">
        <ele>1199.38</ele>
        <time>2025-04-12T14:12:32Z</time>
      </trkpt>
      <trkpt lat="44.87187" lon="3.51871">
        <ele>1197.94</ele>
        <time>2025-04-12T14:12:16Z</time>
      </trkpt>
      <trkpt lat="44.87184" lon="3.51839">
        <ele>1199.38</ele>
        <time>2025-04-12T14:12:02Z</time>
      </trkpt>
      <trkpt lat="44.87179" lon="3.51804">
        <ele>1204.19</ele>
        <time>2025-04-12T14:11:47Z</time>
      </trkpt>
      <trkpt lat="44.87178" lon="3.51768">
        <ele>1208.51</ele>
        <time>2025-04-12T14:11:32Z</time>
      </trkpt>
      <trkpt lat="44.87182" lon="3.51734">
        <ele>1209.48</ele>
        <time>2025-04-12T14:11:16Z</time>
      </trkpt>
      <trkpt lat="44.87184" lon="3.51728">
        <ele>1209.48</ele>
        <time>2025-04-12T14:11:13Z</time>
      </trkpt>
      <trkpt lat="44.87181" lon="3.51688">
        <ele>1208.51</ele>
        <time>2025-04-12T14:10:56Z</time>
      </trkpt>
      <trkpt lat="44.87181" lon="3.51644">
        <ele>1207.07</ele>
        <time>2025-04-12T14:10:39Z</time>
      </trkpt>
      <trkpt lat="44.87184" lon="3.51611">
        <ele>1208.51</ele>
        <time>2025-04-12T14:10:25Z</time>
      </trkpt>
      <trkpt lat="44.87187" lon="3.51575">
        <ele>1211.88</ele>
        <time>2025-04-12T14:10:09Z</time>
      </trkpt>
      <trkpt lat="44.8719" lon="3.51537">
        <ele>1213.8</ele>
        <time>2025-04-12T14:09:53Z</time>
      </trkpt>
      <trkpt lat="44.87194" lon="3.51523">
        <ele>1213.32</ele>
        <time>2025-04-12T14:09:46Z</time>
      </trkpt>
      <trkpt lat="44.87205" lon="3.51492">
        <ele>1210.92</ele>
        <time>2025-04-12T14:09:31Z</time>
      </trkpt>
      <trkpt lat="44.87218" lon="3.51457">
        <ele>1206.59</ele>
        <time>2025-04-12T14:09:14Z</time>
      </trkpt>
      <trkpt lat="44.87229" lon="3.51424">
        <ele>1205.63</ele>
        <time>2025-04-12T14:08:58Z</time>
      </trkpt>
      <trkpt lat="44.87239" lon="3.51384">
        <ele>1204.19</ele>
        <time>2025-04-12T14:08:40Z</time>
      </trkpt>
      <trkpt lat="44.8725" lon="3.51346">
        <ele>1203.71</ele>
        <time>2025-04-12T14:08:23Z</time>
      </trkpt>
      <trkpt lat="44.87263" lon="3.51308">
        <ele>1201.79</ele>
        <time>2025-04-12T14:08:06Z</time>
      </trkpt>
      <trkpt lat="44.87269" lon="3.51297">
        <ele>1202.27</ele>
        <time>2025-04-12T14:08:00Z</time>
      </trkpt>
      <trkpt lat="44.87253" lon="3.51265">
        <ele>1203.71</ele>
        <time>2025-04-12T14:07:44Z</time>
      </trkpt>
      <trkpt lat="44.87234" lon="3.51236">
        <ele>1207.07</ele>
        <time>2025-04-12T14:07:28Z</time>
      </trkpt>
      <trkpt lat="44.87214" lon="3.51202">
        <ele>1209.96</ele>
        <time>2025-04-12T14:07:10Z</time>
      </trkpt>
      <trkpt lat="44.87201" lon="3.5117">
        <ele>1205.63</ele>
        <time>2025-04-12T14:06:56Z</time>
      </trkpt>
      <trkpt lat="44.87182" lon="3.51137">
        <ele>1203.71</ele>
        <time>2025-04-12T14:06:38Z</time>
      </trkpt>
      <trkpt lat="44.87178" lon="3.51131">
        <ele>1202.75</ele>
        <time>2025-04-12T14:06:34Z</time>
      </trkpt>
      <trkpt lat="44.87152" lon="3.51095">
        <ele>1194.58</ele>
        <time>2025-04-12T14:06:10Z</time>
      </trkpt>
      <trkpt lat="44.87133" lon="3.51061">
        <ele>1193.13</ele>
        <time>2025-04-12T14:05:49Z</time>
      </trkpt>
      <trkpt lat="44.87119" lon="3.51031">
        <ele>1195.54</ele>
        <time>2025-04-12T14:05:29Z</time>
      </trkpt>
      <trkpt lat="44.87096" lon="3.5099">
        <ele>1194.58</ele>
        <time>2025-04-12T14:05:03Z</time>
      </trkpt>
      <trkpt lat="44.87068" lon="3.50958">
        <ele>1193.61</ele>
        <time>2025-04-12T14:04:41Z</time>
      </trkpt>
      <trkpt lat="44.87045" lon="3.50935">
        <ele>1192.65</ele>
        <time>2025-04-12T14:04:23Z</time>
      </trkpt>
      <trkpt lat="44.87024" lon="3.50903">
        <ele>1188.33</ele>
        <time>2025-04-12T14:04:04Z</time>
      </trkpt>
      <trkpt lat="44.87005" lon="3.50857">
        <ele>1184.96</ele>
        <time>2025-04-12T14:03:41Z</time>
      </trkpt>
      <trkpt lat="44.86993" lon="3.50813">
        <ele>1183.04</ele>
        <time>2025-04-12T14:03:20Z</time>
      </trkpt>
      <trkpt lat="44.86975" lon="3.50769">
        <ele>1182.08</ele>
        <time>2025-04-12T14:02:59Z</time>
      </trkpt>
      <trkpt lat="44.86962" lon="3.50735">
        <ele>1184.48</ele>
        <time>2025-04-12T14:02:42Z</time>
      </trkpt>
      <trkpt lat="44.86951" lon="3.50695">
        <ele>1185.44</ele>
        <time>2025-04-12T14:02:23Z</time>
      </trkpt>
      <trkpt lat="44.86936" lon="3.50646">
        <ele>1179.67</ele>
        <time>2025-04-12T14:02:03Z</time>
      </trkpt>
      <trkpt lat="44.86932" lon="3.50617">
        <ele>1184.96</ele>
        <time>2025-04-12T14:01:49Z</time>
      </trkpt>
      <trkpt lat="44.86917" lon="3.50577">
        <ele>1186.88</ele>
        <time>2025-04-12T14:01:31Z</time>
      </trkpt>
      <trkpt lat="44.86903" lon="3.50545">
        <ele>1188.81</ele>
        <time>2025-04-12T14:01:15Z</time>
      </trkpt>
      <trkpt lat="44.86887" lon="3.5051">
        <ele>1186.4</ele>
        <time>2025-04-12T14:00:57Z</time>
      </trkpt>
      <trkpt lat="44.86874" lon="3.50469">
        <ele>1190.25</ele>
        <time>2025-04-12T14:00:35Z</time>
      </trkpt>
      <trkpt lat="44.86859" lon="3.50432">
        <ele>1194.09</ele>
        <time>2025-04-12T14:00:15Z</time>
      </trkpt>
      <trkpt lat="44.86845" lon="3.50398">
        <ele>1192.65</ele>
        <time>2025-04-12T13:59:56Z</time>
      </trkpt>
      <trkpt lat="44.86844" lon="3.50394">
        <ele>1192.17</ele>
        <time>2025-04-12T13:59:54Z</time>
      </trkpt>
      <trkpt lat="44.86837" lon="3.50353">
        <ele>1189.29</ele>
        <time>2025-04-12T13:59:33Z</time>
      </trkpt>
      <trkpt lat="44.86828" lon="3.50314">
        <ele>1182.08</ele>
        <time>2025-04-12T13:59:13Z</time>
      </trkpt>
      <trkpt lat="44.86816" lon="3.50274">
        <ele>1178.71</ele>
        <time>2025-04-12T13:58:55Z</time>
      </trkpt>
      <trkpt lat="44.86801" lon="3.50237">
        <ele>1174.87</ele>
        <time>2025-04-12T13:58:36Z</time>
      </trkpt>
      <trkpt lat="44.86782" lon="3.50206">
        <ele>1169.58</ele>
        <time>2025-04-12T13:58:16Z</time>
      </trkpt>
      <trkpt lat="44.86751" lon="3.50179">
        <ele>1165.74</ele>
        <time>2025-04-12T13:57:51Z</time>
      </trkpt>
      <trkpt lat="44.86728" lon="3.50157">
        <ele>1162.37</ele>
        <time>2025-04-12T13:57:33Z</time>
      </trkpt>
      <trkpt lat="44.86709" lon="3.5012">
        <ele>1159.97</ele>
        <time>2025-04-12T13:57:12Z</time>
      </trkpt>
      <trkpt lat="44.86692" lon="3.50081">
        <ele>1162.85</ele>
        <time>2025-04-12T13:56:49Z</time>
      </trkpt>
      <trkpt lat="44.86678" lon="3.50039">
        <ele>1166.22</ele>
        <time>2025-04-12T13:56:26Z</time>
      </trkpt>
      <trkpt lat="44.86666" lon="3.5">
        <ele>1168.62</ele>
        <time>2025-04-12T13:56:05Z</time>
      </trkpt>
      <trkpt lat="44.86653" lon="3.49954">
        <ele>1167.18</ele>
        <time>2025-04-12T13:55:41Z</time>
      </trkpt>
      <trkpt lat="44.86636" lon="3.49913">
        <ele>1165.26</ele>
        <time>2025-04-12T13:55:19Z</time>
      </trkpt>
      <trkpt lat="44.86617" lon="3.49878">
        <ele>1164.29</ele>
        <time>2025-04-12T13:54:56Z</time>
      </trkpt>
      <trkpt lat="44.8659" lon="3.49843">
        <ele>1161.41</ele>
        <time>2025-04-12T13:54:31Z</time>
      </trkpt>
      <trkpt lat="44.8657" lon="3.49809">
        <ele>1160.45</ele>
        <time>2025-04-12T13:54:10Z</time>
      </trkpt>
      <trkpt lat="44.86549" lon="3.49773">
        <ele>1158.05</ele>
        <time>2025-04-12T13:53:48Z</time>
      </trkpt>
      <trkpt lat="44.86525" lon="3.49742">
        <ele>1156.6</ele>
        <time>2025-04-12T13:53:28Z</time>
      </trkpt>
      <trkpt lat="44.86498" lon="3.49708">
        <ele>1156.6</ele>
        <time>2025-04-12T13:53:04Z</time>
      </trkpt>
      <trkpt lat="44.86471" lon="3.49671">
        <ele>1155.64</ele>
        <time>2025-04-12T13:52:40Z</time>
      </trkpt>
      <trkpt lat="44.86449" lon="3.49629">
        <ele>1151.32</ele>
        <time>2025-04-12T13:52:15Z</time>
      </trkpt>
      <trkpt lat="44.86431" lon="3.49593">
        <ele>1145.55</ele>
        <time>2025-04-12T13:51:53Z</time>
      </trkpt>
      <trkpt lat="44.86403" lon="3.49561">
        <ele>1138.82</ele>
        <time>2025-04-12T13:51:27Z</time>
      </trkpt>
      <trkpt lat="44.86381" lon="3.49537">
        <ele>1135.45</ele>
        <time>2025-04-12T13:51:09Z</time>
      </trkpt>
      <trkpt lat="44.86349" lon="3.49523">
        <ele>1132.57</ele>
        <time>2025-04-12T13:50:49Z</time>
      </trkpt>
      <trkpt lat="44.8632" lon="3.49515">
        <ele>1130.65</ele>
        <time>2025-04-12T13:50:29Z</time>
      </trkpt>
      <trkpt lat="44.86292" lon="3.49519">
        <ele>1127.76</ele>
        <time>2025-04-12T13:50:11Z</time>
      </trkpt>
      <trkpt lat="44.86264" lon="3.49508">
        <ele>1126.32</ele>
        <time>2025-04-12T13:49:51Z</time>
      </trkpt>
      <trkpt lat="44.86238" lon="3.495">
        <ele>1126.8</ele>
        <time>2025-04-12T13:49:33Z</time>
      </trkpt>
      <trkpt lat="44.86214" lon="3.49482">
        <ele>1126.8</ele>
        <time>2025-04-12T13:49:15Z</time>
      </trkpt>
      <trkpt lat="44.86194" lon="3.49439">
        <ele>1126.8</ele>
        <time>2025-04-12T13:48:53Z</time>
      </trkpt>
      <trkpt lat="44.86177" lon="3.49411">
        <ele>1127.76</ele>
        <time>2025-04-12T13:48:36Z</time>
      </trkpt>
      <trkpt lat="44.86149" lon="3.49387">
        <ele>1125.84</ele>
        <time>2025-04-12T13:48:16Z</time>
      </trkpt>
      <trkpt lat="44.86127" lon="3.49372">
        <ele>1123.44</ele>
        <time>2025-04-12T13:47:59Z</time>
      </trkpt>
      <trkpt lat="44.86097" lon="3.49343">
        <ele>1120.55</ele>
        <time>2025-04-12T13:47:38Z</time>
      </trkpt>
      <trkpt lat="44.86084" lon="3.49307">
        <ele>1123.44</ele>
        <time>2025-04-12T13:47:21Z</time>
      </trkpt>
      <trkpt lat="44.86072" lon="3.49273">
        <ele>1124.88</ele>
        <time>2025-04-12T13:47:02Z</time>
      </trkpt>
      <trkpt lat="44.86049" lon="3.49249">
        <ele>1122.96</ele>
        <time>2025-04-12T13:46:42Z</time>
      </trkpt>
      <trkpt lat="44.86019" lon="3.49218">
        <ele>1126.32</ele>
        <time>2025-04-12T13:46:18Z</time>
      </trkpt>
      <trkpt lat="44.85996" lon="3.49192">
        <ele>1126.32</ele>
        <time>2025-04-12T13:45:58Z</time>
      </trkpt>
      <trkpt lat="44.85963" lon="3.49164">
        <ele>1125.36</ele>
        <time>2025-04-12T13:45:34Z</time>
      </trkpt>
      <trkpt lat="44.85939" lon="3.49141">
        <ele>1127.28</ele>
        <time>2025-04-12T13:45:15Z</time>
      </trkpt>
      <trkpt lat="44.85944" lon="3.4911">
        <ele>1124.4</ele>
        <time>2025-04-12T13:45:00Z</time>
      </trkpt>
      <trkpt lat="44.85963" lon="3.49092">
        <ele>1120.55</ele>
        <time>2025-04-12T13:44:42Z</time>
      </trkpt>
      <trkpt lat="44.85967" lon="3.49087">
        <ele>1116.71</ele>
        <time>2025-04-12T13:44:24Z</time>
      </trkpt>
      <trkpt lat="44.85969" lon="3.49087">
        <ele>1114.79</ele>
        <time>2025-04-12T13:44:02Z</time>
      </trkpt>
      <trkpt lat="44.85971" lon="3.49087">
        <ele>1114.79</ele>
        <time>2025-04-12T13:43:44Z</time>
      </trkpt>
      <trkpt lat="44.85972" lon="3.49081">
        <ele>1116.71</ele>
        <time>2025-04-12T13:43:30Z</time>
      </trkpt>
      <trkpt lat="44.85985" lon="3.49068">
        <ele>1118.15</ele>
        <time>2025-04-12T13:43:14Z</time>
      </trkpt>
      <trkpt lat="44.86002" lon="3.49054">
        <ele>1121.03</ele>
        <time>2025-04-12T13:42:57Z</time>
      </trkpt>
      <trkpt lat="44.86006" lon="3.49049">
        <ele>1121.03</ele>
        <time>2025-04-12T13:42:52Z</time>
      </trkpt>
      <trkpt lat="44.86018" lon="3.49031">
        <ele>1123.44</ele>
        <time>2025-04-12T13:42:36Z</time>
      </trkpt>
      <trkpt lat="44.86026" lon="3.49009">
        <ele>1125.84</ele>
        <time>2025-04-12T13:42:22Z</time>
      </trkpt>
      <trkpt lat="44.86033" lon="3.48991">
        <ele>1129.21</ele>
        <time>2025-04-12T13:42:06Z</time>
      </trkpt>
      <trkpt lat="44.86037" lon="3.48973">
        <ele>1132.09</ele>
        <time>2025-04-12T13:41:53Z</time>
      </trkpt>
      <trkpt lat="44.86043" lon="3.48944">
        <ele>1134.49</ele>
        <time>2025-04-12T13:41:36Z</time>
      </trkpt>
      <trkpt lat="44.86052" lon="3.48924">
        <ele>1137.86</ele>
        <time>2025-04-12T13:41:20Z</time>
      </trkpt>
      <trkpt lat="44.86057" lon="3.48902">
        <ele>1141.22</ele>
        <time>2025-04-12T13:41:04Z</time>
      </trkpt>
      <trkpt lat="44.8606" lon="3.48897">
        <ele>1143.14</ele>
        <time>2025-04-12T13:40:45Z</time>
      </trkpt>
      <trkpt lat="44.86058" lon="3.48898">
        <ele>1143.14</ele>
        <time>2025-04-12T13:40:23Z</time>
      </trkpt>
      <trkpt lat="44.86058" lon="3.48898">
        <ele>1142.18</ele>
        <time>2025-04-12T13:40:06Z</time>
      </trkpt>
      <trkpt lat="44.86058" lon="3.48896">
        <ele>1141.7</ele>
        <time>2025-04-12T13:39:47Z</time>
      </trkpt>
      <trkpt lat="44.8606" lon="3.48892">
        <ele>1143.14</ele>
        <time>2025-04-12T13:39:34Z</time>
      </trkpt>
      <trkpt lat="44.86065" lon="3.48881">
        <ele>1144.11</ele>
        <time>2025-04-12T13:39:21Z</time>
      </trkpt>
      <trkpt lat="44.86075" lon="3.4886">
        <ele>1144.59</ele>
        <time>2025-04-12T13:39:03Z</time>
      </trkpt>
      <trkpt lat="44.86086" lon="3.48847">
        <ele>1144.59</ele>
        <time>2025-04-12T13:38:46Z</time>
      </trkpt>
      <trkpt lat="44.86089" lon="3.48845">
        <ele>1144.11</ele>
        <time>2025-04-12T13:38:25Z</time>
      </trkpt>
      <trkpt lat="44.86091" lon="3.48848">
        <ele>1140.26</ele>
        <time>2025-04-12T13:38:08Z</time>
      </trkpt>
      <trkpt lat="44.8609" lon="3.48849">
        <ele>1138.34</ele>
        <time>2025-04-12T13:37:47Z</time>
      </trkpt>
      <trkpt lat="44.86092" lon="3.4885">
        <ele>1134.49</ele>
        <time>2025-04-12T13:37:30Z</time>
      </trkpt>
      <trkpt lat="44.86093" lon="3.48852">
        <ele>1133.05</ele>
        <time>2025-04-12T13:37:13Z</time>
      </trkpt>
      <trkpt lat="44.86089" lon="3.48854">
        <ele>1136.9</ele>
        <time>2025-04-12T13:36:56Z</time>
      </trkpt>
      <trkpt lat="44.86086" lon="3.48872">
        <ele>1141.7</ele>
        <time>2025-04-12T13:36:39Z</time>
      </trkpt>
      <trkpt lat="44.86093" lon="3.48892">
        <ele>1144.59</ele>
        <time>2025-04-12T13:36:22Z</time>
      </trkpt>
      <trkpt lat="44.86105" lon="3.48876">
        <ele>1143.63</ele>
        <time>2025-04-12T13:36:06Z</time>
      </trkpt>
      <trkpt lat="44.86109" lon="3.4887">
        <ele>1144.11</ele>
        <time>2025-04-12T13:36:02Z</time>
      </trkpt>
      <trkpt lat="44.86118" lon="3.48859">
        <ele>1147.47</ele>
        <time>2025-04-12T13:35:52Z</time>
      </trkpt>
      <trkpt lat="44.8613" lon="3.48859">
        <ele>1146.99</ele>
        <time>2025-04-12T13:35:37Z</time>
      </trkpt>
      <trkpt lat="44.86136" lon="3.48878">
        <ele>1146.51</ele>
        <time>2025-04-12T13:35:19Z</time>
      </trkpt>
      <trkpt lat="44.86133" lon="3.48885">
        <ele>1146.51</ele>
        <time>2025-04-12T13:35:13Z</time>
      </trkpt>
      <trkpt lat="44.8613" lon="3.48892">
        <ele>1146.03</ele>
        <time>2025-04-12T13:34:54Z</time>
      </trkpt>
      <trkpt lat="44.86133" lon="3.48891">
        <ele>1146.51</ele>
        <time>2025-04-12T13:34:28Z</time>
      </trkpt>
      <trkpt lat="44.86133" lon="3.48887">
        <ele>1146.99</ele>
        <time>2025-04-12T13:33:57Z</time>
      </trkpt>
      <trkpt lat="44.86133" lon="3.48887">
        <ele>1146.99</ele>
        <time>2025-04-12T13:33:29Z</time>
      </trkpt>
      <trkpt lat="44.86133" lon="3.48887">
        <ele>1147.47</ele>
        <time>2025-04-12T13:33:07Z</time>
      </trkpt>
      <trkpt lat="44.86132" lon="3.48886">
        <ele>1147.47</ele>
        <time>2025-04-12T13:32:36Z</time>
      </trkpt>
      <trkpt lat="44.8613" lon="3.48885">
        <ele>1145.55</ele>
        <time>2025-04-12T13:32:16Z</time>
      </trkpt>
      <trkpt lat="44.86133" lon="3.48885">
        <ele>1144.11</ele>
        <time>2025-04-12T13:31:56Z</time>
      </trkpt>
      <trkpt lat="44.86131" lon="3.48885">
        <ele>1141.7</ele>
        <time>2025-04-12T13:31:40Z</time>
      </trkpt>
      <trkpt lat="44.86137" lon="3.48882">
        <ele>1144.11</ele>
        <time>2025-04-12T13:31:13Z</time>
      </trkpt>
      <trkpt lat="44.86135" lon="3.4888">
        <ele>1140.26</ele>
        <time>2025-04-12T13:30:43Z</time>
      </trkpt>
      <trkpt lat="44.86135" lon="3.4887">
        <ele>1134.49</ele>
        <time>2025-04-12T13:30:21Z</time>
      </trkpt>
      <trkpt lat="44.86143" lon="3.48861">
        <ele>1130.65</ele>
        <time>2025-04-12T13:30:00Z</time>
      </trkpt>
      <trkpt lat="44.86138" lon="3.4886">
        <ele>1132.09</ele>
        <time>2025-04-12T13:29:41Z</time>
      </trkpt>
      <trkpt lat="44.86126" lon="3.48896">
        <ele>1150.84</ele>
        <time>2025-04-12T11:39:59Z</time>
      </trkpt>
      <trkpt lat="44.86127" lon="3.48897">
        <ele>1150.35</ele>
        <time>2025-04-12T11:39:40Z</time>
      </trkpt>
      <trkpt lat="44.86127" lon="3.48895">
        <ele>1149.87</ele>
        <time>2025-04-12T11:39:26Z</time>
      </trkpt>
      <trkpt lat="44.86124" lon="3.48895">
        <ele>1149.87</ele>
        <time>2025-04-12T11:39:04Z</time>
      </trkpt>
      <trkpt lat="44.86124" lon="3.48898">
        <ele>1151.32</ele>
        <time>2025-04-12T11:38:42Z</time>
      </trkpt>
      <trkpt lat="44.86127" lon="3.48887">
        <ele>1151.8</ele>
        <time>2025-04-12T11:38:27Z</time>
      </trkpt>
      <trkpt lat="44.86127" lon="3.48887">
        <ele>1149.87</ele>
        <time>2025-04-12T11:38:08Z</time>
      </trkpt>
      <trkpt lat="44.86129" lon="3.48887">
        <ele>1151.32</ele>
        <time>2025-04-12T11:37:47Z</time>
      </trkpt>
      <trkpt lat="44.86127" lon="3.48886">
        <ele>1149.39</ele>
        <time>2025-04-12T11:37:29Z</time>
      </trkpt>
      <trkpt lat="44.86127" lon="3.48887">
        <ele>1149.39</ele>
        <time>2025-04-12T11:37:02Z</time>
      </trkpt>
      <trkpt lat="44.86127" lon="3.48885">
        <ele>1147.95</ele>
        <time>2025-04-12T11:36:48Z</time>
      </trkpt>
      <trkpt lat="44.86126" lon="3.48886">
        <ele>1146.51</ele>
        <time>2025-04-12T11:36:28Z</time>
      </trkpt>
      <trkpt lat="44.86128" lon="3.48888">
        <ele>1143.14</ele>
        <time>2025-04-12T11:36:06Z</time>
      </trkpt>
      <trkpt lat="44.86143" lon="3.48896">
        <ele>1146.51</ele>
        <time>2025-04-12T11:35:47Z</time>
      </trkpt>
      <trkpt lat="44.86142" lon="3.4891">
        <ele>1145.07</ele>
        <time>2025-04-12T11:35:33Z</time>
      </trkpt>
      <trkpt lat="44.86148" lon="3.48915">
        <ele>1144.59</ele>
        <time>2025-04-12T11:35:16Z</time>
      </trkpt>
      <trkpt lat="44.86153" lon="3.48921">
        <ele>1144.11</ele>
        <time>2025-04-12T11:34:58Z</time>
      </trkpt>
      <trkpt lat="44.86154" lon="3.48922">
        <ele>1144.11</ele>
        <time>2025-04-12T11:34:57Z</time>
      </trkpt>
      <trkpt lat="44.8614" lon="3.48926">
        <ele>1144.59</ele>
        <time>2025-04-12T11:34:42Z</time>
      </trkpt>
      <trkpt lat="44.86112" lon="3.48907">
        <ele>1142.18</ele>
        <time>2025-04-12T11:34:20Z</time>
      </trkpt>
      <trkpt lat="44.86111" lon="3.48906">
        <ele>1142.18</ele>
        <time>2025-04-12T11:34:19Z</time>
      </trkpt>
      <trkpt lat="44.8611" lon="3.48906">
        <ele>1142.18</ele>
        <time>2025-04-12T11:34:18Z</time>
      </trkpt>
      <trkpt lat="44.86109" lon="3.48904">
        <ele>1141.7</ele>
        <time>2025-04-12T11:34:12Z</time>
      </trkpt>
      <trkpt lat="44.86099" lon="3.48895">
        <ele>1140.26</ele>
        <time>2025-04-12T11:33:55Z</time>
      </trkpt>
      <trkpt lat="44.86088" lon="3.48866">
        <ele>1136.42</ele>
        <time>2025-04-12T11:33:36Z</time>
      </trkpt>
      <trkpt lat="44.86094" lon="3.48847">
        <ele>1134.97</ele>
        <time>2025-04-12T11:33:18Z</time>
      </trkpt>
      <trkpt lat="44.86093" lon="3.4885">
        <ele>1135.94</ele>
        <time>2025-04-12T11:32:42Z</time>
      </trkpt>
      <trkpt lat="44.86076" lon="3.48858">
        <ele>1132.09</ele>
        <time>2025-04-12T11:32:24Z</time>
      </trkpt>
      <trkpt lat="44.86061" lon="3.48901">
        <ele>1130.17</ele>
        <time>2025-04-12T11:32:02Z</time>
      </trkpt>
      <trkpt lat="44.86054" lon="3.48922">
        <ele>1126.32</ele>
        <time>2025-04-12T11:31:44Z</time>
      </trkpt>
      <trkpt lat="44.86037" lon="3.48966">
        <ele>1126.8</ele>
        <time>2025-04-12T11:31:21Z</time>
      </trkpt>
      <trkpt lat="44.86027" lon="3.48997">
        <ele>1123.92</ele>
        <time>2025-04-12T11:30:59Z</time>
      </trkpt>
      <trkpt lat="44.86014" lon="3.49034">
        <ele>1120.07</ele>
        <time>2025-04-12T11:30:40Z</time>
      </trkpt>
      <trkpt lat="44.85986" lon="3.49059">
        <ele>1118.63</ele>
        <time>2025-04-12T11:30:18Z</time>
      </trkpt>
      <trkpt lat="44.8596" lon="3.49088">
        <ele>1117.67</ele>
        <time>2025-04-12T11:29:56Z</time>
      </trkpt>
      <trkpt lat="44.85938" lon="3.49109">
        <ele>1119.59</ele>
        <time>2025-04-12T11:29:36Z</time>
      </trkpt>
      <trkpt lat="44.85902" lon="3.49115">
        <ele>1122.96</ele>
        <time>2025-04-12T11:29:15Z</time>
      </trkpt>
      <trkpt lat="44.85869" lon="3.49119">
        <ele>1124.4</ele>
        <time>2025-04-12T11:28:56Z</time>
      </trkpt>
      <trkpt lat="44.85834" lon="3.49126">
        <ele>1123.92</ele>
        <time>2025-04-12T11:28:34Z</time>
      </trkpt>
      <trkpt lat="44.858" lon="3.49131">
        <ele>1124.4</ele>
        <time>2025-04-12T11:28:13Z</time>
      </trkpt>
      <trkpt lat="44.85773" lon="3.49137">
        <ele>1125.36</ele>
        <time>2025-04-12T11:27:55Z</time>
      </trkpt>
      <trkpt lat="44.85748" lon="3.49149">
        <ele>1126.32</ele>
        <time>2025-04-12T11:27:38Z</time>
      </trkpt>
      <trkpt lat="44.85718" lon="3.49163">
        <ele>1126.32</ele>
        <time>2025-04-12T11:27:19Z</time>
      </trkpt>
      <trkpt lat="44.85685" lon="3.49175">
        <ele>1130.17</ele>
        <time>2025-04-12T11:26:57Z</time>
      </trkpt>
      <trkpt lat="44.85659" lon="3.49185">
        <ele>1134.49</ele>
        <time>2025-04-12T11:26:38Z</time>
      </trkpt>
      <trkpt lat="44.85625" lon="3.49203">
        <ele>1136.9</ele>
        <time>2025-04-12T11:26:14Z</time>
      </trkpt>
      <trkpt lat="44.85596" lon="3.49216">
        <ele>1139.3</ele>
        <time>2025-04-12T11:25:54Z</time>
      </trkpt>
      <trkpt lat="44.8557" lon="3.4923">
        <ele>1139.78</ele>
        <time>2025-04-12T11:25:36Z</time>
      </trkpt>
      <trkpt lat="44.85541" lon="3.4924">
        <ele>1141.7</ele>
        <time>2025-04-12T11:25:18Z</time>
      </trkpt>
      <trkpt lat="44.85509" lon="3.49254">
        <ele>1146.51</ele>
        <time>2025-04-12T11:24:57Z</time>
      </trkpt>
      <trkpt lat="44.85483" lon="3.49262">
        <ele>1151.8</ele>
        <time>2025-04-12T11:24:39Z</time>
      </trkpt>
      <trkpt lat="44.85457" lon="3.49284">
        <ele>1157.08</ele>
        <time>2025-04-12T11:24:21Z</time>
      </trkpt>
      <trkpt lat="44.85439" lon="3.49315">
        <ele>1163.81</ele>
        <time>2025-04-12T11:24:01Z</time>
      </trkpt>
      <trkpt lat="44.85441" lon="3.49357">
        <ele>1163.81</ele>
        <time>2025-04-12T11:23:41Z</time>
      </trkpt>
      <trkpt lat="44.85446" lon="3.49404">
        <ele>1163.33</ele>
        <time>2025-04-12T11:23:21Z</time>
      </trkpt>
      <trkpt lat="44.85438" lon="3.49446">
        <ele>1165.74</ele>
        <time>2025-04-12T11:23:03Z</time>
      </trkpt>
      <trkpt lat="44.85425" lon="3.49486">
        <ele>1167.18</ele>
        <time>2025-04-12T11:22:43Z</time>
      </trkpt>
      <trkpt lat="44.85415" lon="3.49524">
        <ele>1169.58</ele>
        <time>2025-04-12T11:22:25Z</time>
      </trkpt>
      <trkpt lat="44.85415" lon="3.49526">
        <ele>1169.58</ele>
        <time>2025-04-12T11:22:24Z</time>
      </trkpt>
      <trkpt lat="44.85412" lon="3.49543">
        <ele>1171.98</ele>
        <time>2025-04-12T11:22:15Z</time>
      </trkpt>
      <trkpt lat="44.85405" lon="3.49572">
        <ele>1171.02</ele>
        <time>2025-04-12T11:21:59Z</time>
      </trkpt>
      <trkpt lat="44.85382" lon="3.49584">
        <ele>1171.02</ele>
        <time>2025-04-12T11:21:42Z</time>
      </trkpt>
      <trkpt lat="44.85354" lon="3.4958">
        <ele>1171.98</ele>
        <time>2025-04-12T11:21:26Z</time>
      </trkpt>
      <trkpt lat="44.85328" lon="3.49576">
        <ele>1175.83</ele>
        <time>2025-04-12T11:21:11Z</time>
      </trkpt>
      <trkpt lat="44.85297" lon="3.49574">
        <ele>1177.75</ele>
        <time>2025-04-12T11:20:54Z</time>
      </trkpt>
      <trkpt lat="44.85268" lon="3.49566">
        <ele>1179.67</ele>
        <time>2025-04-12T11:20:38Z</time>
      </trkpt>
      <trkpt lat="44.85236" lon="3.49564">
        <ele>1181.12</ele>
        <time>2025-04-12T11:20:20Z</time>
      </trkpt>
      <trkpt lat="44.85205" lon="3.49568">
        <ele>1181.12</ele>
        <time>2025-04-12T11:20:02Z</time>
      </trkpt>
      <trkpt lat="44.85171" lon="3.49579">
        <ele>1180.64</ele>
        <time>2025-04-12T11:19:42Z</time>
      </trkpt>
      <trkpt lat="44.85134" lon="3.49591">
        <ele>1180.16</ele>
        <time>2025-04-12T11:19:20Z</time>
      </trkpt>
      <trkpt lat="44.85104" lon="3.49607">
        <ele>1180.16</ele>
        <time>2025-04-12T11:19:03Z</time>
      </trkpt>
      <trkpt lat="44.85089" lon="3.49637">
        <ele>1180.16</ele>
        <time>2025-04-12T11:18:47Z</time>
      </trkpt>
      <trkpt lat="44.8507" lon="3.49663">
        <ele>1181.6</ele>
        <time>2025-04-12T11:18:31Z</time>
      </trkpt>
      <trkpt lat="44.85039" lon="3.49666">
        <ele>1183.04</ele>
        <time>2025-04-12T11:18:13Z</time>
      </trkpt>
      <trkpt lat="44.85005" lon="3.49657">
        <ele>1183.04</ele>
        <time>2025-04-12T11:17:56Z</time>
      </trkpt>
      <trkpt lat="44.84982" lon="3.49668">
        <ele>1184</ele>
        <time>2025-04-12T11:17:41Z</time>
      </trkpt>
      <trkpt lat="44.84963" lon="3.49692">
        <ele>1186.88</ele>
        <time>2025-04-12T11:17:27Z</time>
      </trkpt>
      <trkpt lat="44.84944" lon="3.49714">
        <ele>1192.17</ele>
        <time>2025-04-12T11:17:13Z</time>
      </trkpt>
      <trkpt lat="44.84924" lon="3.49741">
        <ele>1196.98</ele>
        <time>2025-04-12T11:16:57Z</time>
      </trkpt>
      <trkpt lat="44.84923" lon="3.49742">
        <ele>1196.98</ele>
        <time>2025-04-12T11:16:56Z</time>
      </trkpt>
      <trkpt lat="44.84921" lon="3.49743">
        <ele>1197.46</ele>
        <time>2025-04-12T11:16:55Z</time>
      </trkpt>
      <trkpt lat="44.84913" lon="3.49741">
        <ele>1198.42</ele>
        <time>2025-04-12T11:16:50Z</time>
      </trkpt>
      <trkpt lat="44.84891" lon="3.49734">
        <ele>1201.3</ele>
        <time>2025-04-12T11:16:36Z</time>
      </trkpt>
      <trkpt lat="44.84863" lon="3.49732">
        <ele>1203.71</ele>
        <time>2025-04-12T11:16:19Z</time>
      </trkpt>
      <trkpt lat="44.84841" lon="3.49705">
        <ele>1206.11</ele>
        <time>2025-04-12T11:16:02Z</time>
      </trkpt>
      <trkpt lat="44.84817" lon="3.49677">
        <ele>1205.63</ele>
        <time>2025-04-12T11:15:43Z</time>
      </trkpt>
      <trkpt lat="44.84797" lon="3.49661">
        <ele>1205.15</ele>
        <time>2025-04-12T11:15:29Z</time>
      </trkpt>
      <trkpt lat="44.8477" lon="3.49683">
        <ele>1207.07</ele>
        <time>2025-04-12T11:15:12Z</time>
      </trkpt>
      <trkpt lat="44.84749" lon="3.49701">
        <ele>1210.92</ele>
        <time>2025-04-12T11:14:58Z</time>
      </trkpt>
      <trkpt lat="44.84724" lon="3.49726">
        <ele>1211.88</ele>
        <time>2025-04-12T11:14:40Z</time>
      </trkpt>
      <trkpt lat="44.847" lon="3.49748">
        <ele>1210.92</ele>
        <time>2025-04-12T11:14:24Z</time>
      </trkpt>
      <trkpt lat="44.84675" lon="3.49772">
        <ele>1209</ele>
        <time>2025-04-12T11:14:07Z</time>
      </trkpt>
      <trkpt lat="44.8467" lon="3.49776">
        <ele>1209</ele>
        <time>2025-04-12T11:14:03Z</time>
      </trkpt>
      <trkpt lat="44.84641" lon="3.49786">
        <ele>1210.44</ele>
        <time>2025-04-12T11:13:48Z</time>
      </trkpt>
      <trkpt lat="44.84612" lon="3.49794">
        <ele>1210.92</ele>
        <time>2025-04-12T11:13:34Z</time>
      </trkpt>
      <trkpt lat="44.84599" lon="3.49806">
        <ele>1212.84</ele>
        <time>2025-04-12T11:13:24Z</time>
      </trkpt>
      <trkpt lat="44.84572" lon="3.49821">
        <ele>1211.88</ele>
        <time>2025-04-12T11:13:07Z</time>
      </trkpt>
      <trkpt lat="44.84543" lon="3.49823">
        <ele>1210.92</ele>
        <time>2025-04-12T11:12:51Z</time>
      </trkpt>
      <trkpt lat="44.84518" lon="3.4983">
        <ele>1214.76</ele>
        <time>2025-04-12T11:12:37Z</time>
      </trkpt>
      <trkpt lat="44.84487" lon="3.49845">
        <ele>1221.49</ele>
        <time>2025-04-12T11:12:21Z</time>
      </trkpt>
      <trkpt lat="44.84481" lon="3.49848">
        <ele>1221.97</ele>
        <time>2025-04-12T11:12:17Z</time>
      </trkpt>
      <trkpt lat="44.84456" lon="3.49851">
        <ele>1221.01</ele>
        <time>2025-04-12T11:12:00Z</time>
      </trkpt>
      <trkpt lat="44.84434" lon="3.49843">
        <ele>1218.13</ele>
        <time>2025-04-12T11:11:43Z</time>
      </trkpt>
      <trkpt lat="44.844" lon="3.49836">
        <ele>1208.03</ele>
        <time>2025-04-12T11:11:25Z</time>
      </trkpt>
      <trkpt lat="44.84364" lon="3.49829">
        <ele>1205.63</ele>
        <time>2025-04-12T11:11:06Z</time>
      </trkpt>
      <trkpt lat="44.84343" lon="3.49819">
        <ele>1209</ele>
        <time>2025-04-12T11:10:44Z</time>
      </trkpt>
      <trkpt lat="44.84318" lon="3.49821">
        <ele>1212.36</ele>
        <time>2025-04-12T11:10:28Z</time>
      </trkpt>
      <trkpt lat="44.84305" lon="3.4982">
        <ele>1215.72</ele>
        <time>2025-04-12T11:10:07Z</time>
      </trkpt>
      <trkpt lat="44.84299" lon="3.49812">
        <ele>1217.65</ele>
        <time>2025-04-12T11:09:47Z</time>
      </trkpt>
      <trkpt lat="44.84298" lon="3.49811">
        <ele>1217.65</ele>
        <time>2025-04-12T11:09:46Z</time>
      </trkpt>
      <trkpt lat="44.84281" lon="3.49802">
        <ele>1217.65</ele>
        <time>2025-04-12T11:09:29Z</time>
      </trkpt>
      <trkpt lat="44.84275" lon="3.4976">
        <ele>1221.01</ele>
        <time>2025-04-12T11:09:08Z</time>
      </trkpt>
      <trkpt lat="44.84261" lon="3.49724">
        <ele>1221.49</ele>
        <time>2025-04-12T11:08:51Z</time>
      </trkpt>
      <trkpt lat="44.84244" lon="3.49685">
        <ele>1211.88</ele>
        <time>2025-04-12T11:08:33Z</time>
      </trkpt>
      <trkpt lat="44.84224" lon="3.49645">
        <ele>1206.11</ele>
        <time>2025-04-12T11:08:15Z</time>
      </trkpt>
      <trkpt lat="44.84208" lon="3.49609">
        <ele>1208.03</ele>
        <time>2025-04-12T11:07:57Z</time>
      </trkpt>
      <trkpt lat="44.84205" lon="3.496">
        <ele>1209.48</ele>
        <time>2025-04-12T11:07:52Z</time>
      </trkpt>
      <trkpt lat="44.8418" lon="3.49569">
        <ele>1215.24</ele>
        <time>2025-04-12T11:07:33Z</time>
      </trkpt>
      <trkpt lat="44.84173" lon="3.49548">
        <ele>1227.26</ele>
        <time>2025-04-12T11:07:17Z</time>
      </trkpt>
      <trkpt lat="44.84159" lon="3.49523">
        <ele>1233.03</ele>
        <time>2025-04-12T11:07:02Z</time>
      </trkpt>
      <trkpt lat="44.84122" lon="3.49511">
        <ele>1239.28</ele>
        <time>2025-04-12T11:06:46Z</time>
      </trkpt>
      <trkpt lat="44.84111" lon="3.49511">
        <ele>1244.56</ele>
        <time>2025-04-12T11:06:34Z</time>
      </trkpt>
      <trkpt lat="44.84104" lon="3.49509">
        <ele>1245.53</ele>
        <time>2025-04-12T11:06:28Z</time>
      </trkpt>
      <trkpt lat="44.84102" lon="3.4951">
        <ele>1246.01</ele>
        <time>2025-04-12T11:06:26Z</time>
      </trkpt>
      <trkpt lat="44.84077" lon="3.49523">
        <ele>1245.53</ele>
        <time>2025-04-12T11:06:11Z</time>
      </trkpt>
      <trkpt lat="44.84052" lon="3.49531">
        <ele>1247.45</ele>
        <time>2025-04-12T11:05:54Z</time>
      </trkpt>
      <trkpt lat="44.8403" lon="3.49545">
        <ele>1250.33</ele>
        <time>2025-04-12T11:05:36Z</time>
      </trkpt>
      <trkpt lat="44.84015" lon="3.49561">
        <ele>1253.22</ele>
        <time>2025-04-12T11:05:24Z</time>
      </trkpt>
      <trkpt lat="44.83987" lon="3.49567">
        <ele>1260.43</ele>
        <time>2025-04-12T11:05:05Z</time>
      </trkpt>
      <trkpt lat="44.83952" lon="3.49562">
        <ele>1263.31</ele>
        <time>2025-04-12T11:04:47Z</time>
      </trkpt>
      <trkpt lat="44.83933" lon="3.49555">
        <ele>1264.27</ele>
        <time>2025-04-12T11:04:34Z</time>
      </trkpt>
      <trkpt lat="44.83908" lon="3.49552">
        <ele>1266.67</ele>
        <time>2025-04-12T11:04:16Z</time>
      </trkpt>
      <trkpt lat="44.83883" lon="3.49549">
        <ele>1269.56</ele>
        <time>2025-04-12T11:03:57Z</time>
      </trkpt>
      <trkpt lat="44.83869" lon="3.49563">
        <ele>1272.92</ele>
        <time>2025-04-12T11:03:41Z</time>
      </trkpt>
      <trkpt lat="44.83845" lon="3.49562">
        <ele>1275.33</ele>
        <time>2025-04-12T11:03:26Z</time>
      </trkpt>
      <trkpt lat="44.8383" lon="3.49566">
        <ele>1278.21</ele>
        <time>2025-04-12T11:03:15Z</time>
      </trkpt>
      <trkpt lat="44.8381" lon="3.49567">
        <ele>1280.13</ele>
        <time>2025-04-12T11:03:02Z</time>
      </trkpt>
      <trkpt lat="44.83784" lon="3.49572">
        <ele>1282.54</ele>
        <time>2025-04-12T11:02:44Z</time>
      </trkpt>
      <trkpt lat="44.83782" lon="3.49573">
        <ele>1282.54</ele>
        <time>2025-04-12T11:02:43Z</time>
      </trkpt>
      <trkpt lat="44.83781" lon="3.49574">
        <ele>1282.54</ele>
        <time>2025-04-12T11:02:42Z</time>
      </trkpt>
      <trkpt lat="44.83778" lon="3.49575">
        <ele>1283.02</ele>
        <time>2025-04-12T11:02:40Z</time>
      </trkpt>
      <trkpt lat="44.83754" lon="3.49575">
        <ele>1283.5</ele>
        <time>2025-04-12T11:02:25Z</time>
      </trkpt>
      <trkpt lat="44.83724" lon="3.49569">
        <ele>1286.38</ele>
        <time>2025-04-12T11:02:08Z</time>
      </trkpt>
      <trkpt lat="44.83691" lon="3.49565">
        <ele>1292.15</ele>
        <time>2025-04-12T11:01:49Z</time>
      </trkpt>
      <trkpt lat="44.83666" lon="3.49559">
        <ele>1293.59</ele>
        <time>2025-04-12T11:01:32Z</time>
      </trkpt>
      <trkpt lat="44.83632" lon="3.49555">
        <ele>1293.59</ele>
        <time>2025-04-12T11:01:13Z</time>
      </trkpt>
      <trkpt lat="44.83601" lon="3.49551">
        <ele>1295.03</ele>
        <time>2025-04-12T11:00:56Z</time>
      </trkpt>
      <trkpt lat="44.83585" lon="3.49546">
        <ele>1291.67</ele>
        <time>2025-04-12T11:00:43Z</time>
      </trkpt>
      <trkpt lat="44.83555" lon="3.49549">
        <ele>1281.09</ele>
        <time>2025-04-12T11:00:27Z</time>
      </trkpt>
      <trkpt lat="44.83534" lon="3.49561">
        <ele>1272.44</ele>
        <time>2025-04-12T11:00:10Z</time>
      </trkpt>
      <trkpt lat="44.83532" lon="3.49565">
        <ele>1265.23</ele>
        <time>2025-04-12T10:59:43Z</time>
      </trkpt>
      <trkpt lat="44.83526" lon="3.49574">
        <ele>1265.23</ele>
        <time>2025-04-12T10:59:30Z</time>
      </trkpt>
      <trkpt lat="44.83525" lon="3.4959">
        <ele>1267.64</ele>
        <time>2025-04-12T10:59:18Z</time>
      </trkpt>
      <trkpt lat="44.83527" lon="3.49642">
        <ele>1256.1</ele>
        <time>2025-04-12T10:59:03Z</time>
      </trkpt>
      <trkpt lat="44.83527" lon="3.49648">
        <ele>1258.98</ele>
        <time>2025-04-12T10:58:59Z</time>
      </trkpt>
      <trkpt lat="44.83519" lon="3.49684">
        <ele>1267.64</ele>
        <time>2025-04-12T10:58:42Z</time>
      </trkpt>
      <trkpt lat="44.83514" lon="3.49703">
        <ele>1281.57</ele>
        <time>2025-04-12T10:58:26Z</time>
      </trkpt>
      <trkpt lat="44.83508" lon="3.49724">
        <ele>1291.19</ele>
        <time>2025-04-12T10:58:11Z</time>
      </trkpt>
      <trkpt lat="44.83503" lon="3.49747">
        <ele>1294.55</ele>
        <time>2025-04-12T10:57:59Z</time>
      </trkpt>
      <trkpt lat="44.83502" lon="3.49749">
        <ele>1295.03</ele>
        <time>2025-04-12T10:57:58Z</time>
      </trkpt>
      <trkpt lat="44.83501" lon="3.4975">
        <ele>1295.03</ele>
        <time>2025-04-12T10:57:57Z</time>
      </trkpt>
      <trkpt lat="44.835" lon="3.49754">
        <ele>1295.51</ele>
        <time>2025-04-12T10:57:55Z</time>
      </trkpt>
      <trkpt lat="44.835" lon="3.49756">
        <ele>1295.99</ele>
        <time>2025-04-12T10:57:54Z</time>
      </trkpt>
      <trkpt lat="44.83499" lon="3.49758">
        <ele>1296.48</ele>
        <time>2025-04-12T10:57:53Z</time>
      </trkpt>
      <trkpt lat="44.83499" lon="3.4976">
        <ele>1296.96</ele>
        <time>2025-04-12T10:57:52Z</time>
      </trkpt>
      <trkpt lat="44.83499" lon="3.49762">
        <ele>1297.92</ele>
        <time>2025-04-12T10:57:51Z</time>
      </trkpt>
      <trkpt lat="44.83499" lon="3.49764">
        <ele>1298.4</ele>
        <time>2025-04-12T10:57:50Z</time>
      </trkpt>
      <trkpt lat="44.83499" lon="3.49766">
        <ele>1298.88</ele>
        <time>2025-04-12T10:57:49Z</time>
      </trkpt>
      <trkpt lat="44.83503" lon="3.49782">
        <ele>1305.13</ele>
        <time>2025-04-12T10:57:38Z</time>
      </trkpt>
      <trkpt lat="44.83503" lon="3.49785">
        <ele>1305.61</ele>
        <time>2025-04-12T10:57:37Z</time>
      </trkpt>
      <trkpt lat="44.83502" lon="3.49793">
        <ele>1307.53</ele>
        <time>2025-04-12T10:57:33Z</time>
      </trkpt>
      <trkpt lat="44.835" lon="3.49815">
        <ele>1310.9</ele>
        <time>2025-04-12T10:57:21Z</time>
      </trkpt>
      <trkpt lat="44.83496" lon="3.49833">
        <ele>1316.66</ele>
        <time>2025-04-12T10:57:08Z</time>
      </trkpt>
      <trkpt lat="44.83495" lon="3.49864">
        <ele>1320.03</ele>
        <time>2025-04-12T10:56:53Z</time>
      </trkpt>
      <trkpt lat="44.83492" lon="3.49887">
        <ele>1326.28</ele>
        <time>2025-04-12T10:56:40Z</time>
      </trkpt>
      <trkpt lat="44.83492" lon="3.49896">
        <ele>1327.24</ele>
        <time>2025-04-12T10:56:35Z</time>
      </trkpt>
      <trkpt lat="44.8349" lon="3.4991">
        <ele>1327.72</ele>
        <time>2025-04-12T10:56:29Z</time>
      </trkpt>
      <trkpt lat="44.83489" lon="3.49913">
        <ele>1328.2</ele>
        <time>2025-04-12T10:56:28Z</time>
      </trkpt>
      <trkpt lat="44.83488" lon="3.49923">
        <ele>1330.12</ele>
        <time>2025-04-12T10:56:23Z</time>
      </trkpt>
      <trkpt lat="44.83486" lon="3.49943">
        <ele>1335.41</ele>
        <time>2025-04-12T10:56:11Z</time>
      </trkpt>
      <trkpt lat="44.83482" lon="3.49964">
        <ele>1341.66</ele>
        <time>2025-04-12T10:55:57Z</time>
      </trkpt>
      <trkpt lat="44.8348" lon="3.49993">
        <ele>1342.62</ele>
        <time>2025-04-12T10:55:42Z</time>
      </trkpt>
      <trkpt lat="44.83479" lon="3.5002">
        <ele>1341.18</ele>
        <time>2025-04-12T10:55:28Z</time>
      </trkpt>
      <trkpt lat="44.83478" lon="3.50031">
        <ele>1342.14</ele>
        <time>2025-04-12T10:55:23Z</time>
      </trkpt>
      <trkpt lat="44.83471" lon="3.50068">
        <ele>1345.5</ele>
        <time>2025-04-12T10:55:06Z</time>
      </trkpt>
      <trkpt lat="44.83464" lon="3.50092">
        <ele>1353.67</ele>
        <time>2025-04-12T10:54:52Z</time>
      </trkpt>
      <trkpt lat="44.83455" lon="3.50124">
        <ele>1362.33</ele>
        <time>2025-04-12T10:54:36Z</time>
      </trkpt>
      <trkpt lat="44.83447" lon="3.5015">
        <ele>1366.65</ele>
        <time>2025-04-12T10:54:23Z</time>
      </trkpt>
      <trkpt lat="44.83435" lon="3.50192">
        <ele>1369.05</ele>
        <time>2025-04-12T10:54:06Z</time>
      </trkpt>
      <trkpt lat="44.83417" lon="3.50212">
        <ele>1369.54</ele>
        <time>2025-04-12T10:53:51Z</time>
      </trkpt>
      <trkpt lat="44.834" lon="3.50228">
        <ele>1369.54</ele>
        <time>2025-04-12T10:53:37Z</time>
      </trkpt>
      <trkpt lat="44.83382" lon="3.50251">
        <ele>1369.54</ele>
        <time>2025-04-12T10:53:22Z</time>
      </trkpt>
      <trkpt lat="44.83361" lon="3.50266">
        <ele>1368.57</ele>
        <time>2025-04-12T10:53:08Z</time>
      </trkpt>
      <trkpt lat="44.83336" lon="3.50276">
        <ele>1367.61</ele>
        <time>2025-04-12T10:52:53Z</time>
      </trkpt>
      <trkpt lat="44.83312" lon="3.50288">
        <ele>1366.65</ele>
        <time>2025-04-12T10:52:37Z</time>
      </trkpt>
      <trkpt lat="44.83285" lon="3.50299">
        <ele>1366.17</ele>
        <time>2025-04-12T10:52:22Z</time>
      </trkpt>
      <trkpt lat="44.8327" lon="3.50302">
        <ele>1370.5</ele>
        <time>2025-04-12T10:52:07Z</time>
      </trkpt>
      <trkpt lat="44.83234" lon="3.503">
        <ele>1370.02</ele>
        <time>2025-04-12T10:51:50Z</time>
      </trkpt>
      <trkpt lat="44.83208" lon="3.50286">
        <ele>1372.9</ele>
        <time>2025-04-12T10:51:35Z</time>
      </trkpt>
      <trkpt lat="44.83193" lon="3.50281">
        <ele>1373.38</ele>
        <time>2025-04-12T10:51:23Z</time>
      </trkpt>
      <trkpt lat="44.83176" lon="3.50279">
        <ele>1373.38</ele>
        <time>2025-04-12T10:51:12Z</time>
      </trkpt>
      <trkpt lat="44.83142" lon="3.50281">
        <ele>1372.9</ele>
        <time>2025-04-12T10:50:58Z</time>
      </trkpt>
      <trkpt lat="44.83123" lon="3.50286">
        <ele>1373.86</ele>
        <time>2025-04-12T10:50:42Z</time>
      </trkpt>
      <trkpt lat="44.83108" lon="3.5029">
        <ele>1374.82</ele>
        <time>2025-04-12T10:50:30Z</time>
      </trkpt>
      <trkpt lat="44.83106" lon="3.5029">
        <ele>1374.82</ele>
        <time>2025-04-12T10:50:29Z</time>
      </trkpt>
      <trkpt lat="44.83097" lon="3.50293">
        <ele>1376.26</ele>
        <time>2025-04-12T10:50:23Z</time>
      </trkpt>
      <trkpt lat="44.83076" lon="3.503">
        <ele>1377.23</ele>
        <time>2025-04-12T10:50:10Z</time>
      </trkpt>
      <trkpt lat="44.83059" lon="3.50305">
        <ele>1378.19</ele>
        <time>2025-04-12T10:49:57Z</time>
      </trkpt>
      <trkpt lat="44.83048" lon="3.5031">
        <ele>1377.23</ele>
        <time>2025-04-12T10:49:47Z</time>
      </trkpt>
      <trkpt lat="44.8303" lon="3.50322">
        <ele>1374.34</ele>
        <time>2025-04-12T10:49:34Z</time>
      </trkpt>
      <trkpt lat="44.83006" lon="3.50331">
        <ele>1370.5</ele>
        <time>2025-04-12T10:49:18Z</time>
      </trkpt>
      <trkpt lat="44.82982" lon="3.5034">
        <ele>1365.21</ele>
        <time>2025-04-12T10:48:58Z</time>
      </trkpt>
      <trkpt lat="44.82952" lon="3.50344">
        <ele>1355.12</ele>
        <time>2025-04-12T10:48:40Z</time>
      </trkpt>
      <trkpt lat="44.82906" lon="3.5034">
        <ele>1351.75</ele>
        <time>2025-04-12T10:48:21Z</time>
      </trkpt>
      <trkpt lat="44.82899" lon="3.50321">
        <ele>1359.44</ele>
        <time>2025-04-12T10:48:05Z</time>
      </trkpt>
      <trkpt lat="44.82888" lon="3.50298">
        <ele>1361.84</ele>
        <time>2025-04-12T10:47:48Z</time>
      </trkpt>
      <trkpt lat="44.82851" lon="3.50263">
        <ele>1356.56</ele>
        <time>2025-04-12T10:47:27Z</time>
      </trkpt>
      <trkpt lat="44.82829" lon="3.50232">
        <ele>1358.48</ele>
        <time>2025-04-12T10:47:05Z</time>
      </trkpt>
      <trkpt lat="44.82798" lon="3.50197">
        <ele>1359.44</ele>
        <time>2025-04-12T10:46:44Z</time>
      </trkpt>
      <trkpt lat="44.82783" lon="3.50169">
        <ele>1366.65</ele>
        <time>2025-04-12T10:46:26Z</time>
      </trkpt>
      <trkpt lat="44.82766" lon="3.50143">
        <ele>1369.54</ele>
        <time>2025-04-12T10:46:11Z</time>
      </trkpt>
      <trkpt lat="44.82746" lon="3.50116">
        <ele>1368.57</ele>
        <time>2025-04-12T10:45:54Z</time>
      </trkpt>
      <trkpt lat="44.82742" lon="3.50109">
        <ele>1369.05</ele>
        <time>2025-04-12T10:45:50Z</time>
      </trkpt>
      <trkpt lat="44.8275" lon="3.5008">
        <ele>1370.02</ele>
        <time>2025-04-12T10:45:33Z</time>
      </trkpt>
      <trkpt lat="44.82751" lon="3.5008">
        <ele>1370.5</ele>
        <time>2025-04-12T10:45:32Z</time>
      </trkpt>
      <trkpt lat="44.82756" lon="3.50075">
        <ele>1371.46</ele>
        <time>2025-04-12T10:45:27Z</time>
      </trkpt>
      <trkpt lat="44.82779" lon="3.50046">
        <ele>1369.05</ele>
        <time>2025-04-12T10:45:08Z</time>
      </trkpt>
      <trkpt lat="44.82803" lon="3.5002">
        <ele>1370.02</ele>
        <time>2025-04-12T10:44:49Z</time>
      </trkpt>
      <trkpt lat="44.82832" lon="3.4999">
        <ele>1369.54</ele>
        <time>2025-04-12T10:44:26Z</time>
      </trkpt>
      <trkpt lat="44.82857" lon="3.49971">
        <ele>1367.13</ele>
        <time>2025-04-12T10:44:09Z</time>
      </trkpt>
      <trkpt lat="44.8288" lon="3.4995">
        <ele>1355.6</ele>
        <time>2025-04-12T10:43:52Z</time>
      </trkpt>
      <trkpt lat="44.82917" lon="3.49923">
        <ele>1346.94</ele>
        <time>2025-04-12T10:43:29Z</time>
      </trkpt>
      <trkpt lat="44.82941" lon="3.499">
        <ele>1351.27</ele>
        <time>2025-04-12T10:43:05Z</time>
      </trkpt>
      <trkpt lat="44.82967" lon="3.49856">
        <ele>1344.54</ele>
        <time>2025-04-12T10:42:42Z</time>
      </trkpt>
      <trkpt lat="44.82979" lon="3.49819">
        <ele>1340.7</ele>
        <time>2025-04-12T10:42:24Z</time>
      </trkpt>
      <trkpt lat="44.82983" lon="3.49778">
        <ele>1340.7</ele>
        <time>2025-04-12T10:42:02Z</time>
      </trkpt>
      <trkpt lat="44.82979" lon="3.49741">
        <ele>1333.97</ele>
        <time>2025-04-12T10:41:46Z</time>
      </trkpt>
      <trkpt lat="44.82979" lon="3.49708">
        <ele>1330.12</ele>
        <time>2025-04-12T10:41:32Z</time>
      </trkpt>
      <trkpt lat="44.82982" lon="3.49668">
        <ele>1328.68</ele>
        <time>2025-04-12T10:41:13Z</time>
      </trkpt>
      <trkpt lat="44.82982" lon="3.49666">
        <ele>1328.68</ele>
        <time>2025-04-12T10:41:12Z</time>
      </trkpt>
      <trkpt lat="44.82983" lon="3.49664">
        <ele>1328.68</ele>
        <time>2025-04-12T10:41:11Z</time>
      </trkpt>
      <trkpt lat="44.82983" lon="3.49661">
        <ele>1328.68</ele>
        <time>2025-04-12T10:41:10Z</time>
      </trkpt>
      <trkpt lat="44.82984" lon="3.49632">
        <ele>1326.28</ele>
        <time>2025-04-12T10:40:55Z</time>
      </trkpt>
      <trkpt lat="44.82985" lon="3.4963">
        <ele>1326.28</ele>
        <time>2025-04-12T10:40:54Z</time>
      </trkpt>
      <trkpt lat="44.82985" lon="3.49627">
        <ele>1326.28</ele>
        <time>2025-04-12T10:40:53Z</time>
      </trkpt>
      <trkpt lat="44.82985" lon="3.49625">
        <ele>1326.28</ele>
        <time>2025-04-12T10:40:52Z</time>
      </trkpt>
      <trkpt lat="44.82986" lon="3.49623">
        <ele>1326.28</ele>
        <time>2025-04-12T10:40:51Z</time>
      </trkpt>
      <trkpt lat="44.82988" lon="3.49621">
        <ele>1326.28</ele>
        <time>2025-04-12T10:40:50Z</time>
      </trkpt>
      <trkpt lat="44.82989" lon="3.49619">
        <ele>1326.76</ele>
        <time>2025-04-12T10:40:49Z</time>
      </trkpt>
      <trkpt lat="44.8299" lon="3.49617">
        <ele>1326.76</ele>
        <time>2025-04-12T10:40:48Z</time>
      </trkpt>
      <trkpt lat="44.82992" lon="3.49615">
        <ele>1326.76</ele>
        <time>2025-04-12T10:40:47Z</time>
      </trkpt>
      <trkpt lat="44.82993" lon="3.4961">
        <ele>1327.24</ele>
        <time>2025-04-12T10:40:45Z</time>
      </trkpt>
      <trkpt lat="44.83011" lon="3.49585">
        <ele>1326.28</ele>
        <time>2025-04-12T10:40:28Z</time>
      </trkpt>
      <trkpt lat="44.8304" lon="3.49561">
        <ele>1324.83</ele>
        <time>2025-04-12T10:40:06Z</time>
      </trkpt>
      <trkpt lat="44.83061" lon="3.49537">
        <ele>1323.87</ele>
        <time>2025-04-12T10:39:49Z</time>
      </trkpt>
      <trkpt lat="44.83075" lon="3.49501">
        <ele>1321.95</ele>
        <time>2025-04-12T10:39:30Z</time>
      </trkpt>
      <trkpt lat="44.83081" lon="3.49462">
        <ele>1319.07</ele>
        <time>2025-04-12T10:39:11Z</time>
      </trkpt>
      <trkpt lat="44.83082" lon="3.49459">
        <ele>1318.59</ele>
        <time>2025-04-12T10:39:10Z</time>
      </trkpt>
      <trkpt lat="44.83085" lon="3.4943">
        <ele>1317.14</ele>
        <time>2025-04-12T10:38:56Z</time>
      </trkpt>
      <trkpt lat="44.83082" lon="3.49391">
        <ele>1316.66</ele>
        <time>2025-04-12T10:38:38Z</time>
      </trkpt>
      <trkpt lat="44.83067" lon="3.49355">
        <ele>1316.18</ele>
        <time>2025-04-12T10:38:19Z</time>
      </trkpt>
      <trkpt lat="44.83049" lon="3.49319">
        <ele>1312.82</ele>
        <time>2025-04-12T10:38:00Z</time>
      </trkpt>
      <trkpt lat="44.83037" lon="3.49286">
        <ele>1310.9</ele>
        <time>2025-04-12T10:37:44Z</time>
      </trkpt>
      <trkpt lat="44.83024" lon="3.4925">
        <ele>1308.49</ele>
        <time>2025-04-12T10:37:27Z</time>
      </trkpt>
      <trkpt lat="44.83011" lon="3.49223">
        <ele>1307.05</ele>
        <time>2025-04-12T10:37:11Z</time>
      </trkpt>
      <trkpt lat="44.82994" lon="3.4919">
        <ele>1304.17</ele>
        <time>2025-04-12T10:36:53Z</time>
      </trkpt>
      <trkpt lat="44.82993" lon="3.49188">
        <ele>1304.17</ele>
        <time>2025-04-12T10:36:52Z</time>
      </trkpt>
      <trkpt lat="44.82976" lon="3.49164">
        <ele>1301.28</ele>
        <time>2025-04-12T10:36:37Z</time>
      </trkpt>
      <trkpt lat="44.82952" lon="3.4914">
        <ele>1298.88</ele>
        <time>2025-04-12T10:36:18Z</time>
      </trkpt>
      <trkpt lat="44.82921" lon="3.49118">
        <ele>1297.44</ele>
        <time>2025-04-12T10:35:56Z</time>
      </trkpt>
      <trkpt lat="44.82891" lon="3.49104">
        <ele>1296.48</ele>
        <time>2025-04-12T10:35:36Z</time>
      </trkpt>
      <trkpt lat="44.82866" lon="3.49094">
        <ele>1295.51</ele>
        <time>2025-04-12T10:35:20Z</time>
      </trkpt>
      <trkpt lat="44.8284" lon="3.49083">
        <ele>1297.44</ele>
        <time>2025-04-12T10:35:02Z</time>
      </trkpt>
      <trkpt lat="44.82813" lon="3.49072">
        <ele>1297.44</ele>
        <time>2025-04-12T10:34:45Z</time>
      </trkpt>
      <trkpt lat="44.82787" lon="3.49063">
        <ele>1300.32</ele>
        <time>2025-04-12T10:34:28Z</time>
      </trkpt>
      <trkpt lat="44.82764" lon="3.49081">
        <ele>1302.24</ele>
        <time>2025-04-12T10:34:11Z</time>
      </trkpt>
      <trkpt lat="44.82741" lon="3.49105">
        <ele>1302.72</ele>
        <time>2025-04-12T10:33:52Z</time>
      </trkpt>
      <trkpt lat="44.82711" lon="3.49123">
        <ele>1303.69</ele>
        <time>2025-04-12T10:33:30Z</time>
      </trkpt>
      <trkpt lat="44.82682" lon="3.49117">
        <ele>1303.69</ele>
        <time>2025-04-12T10:33:11Z</time>
      </trkpt>
      <trkpt lat="44.82656" lon="3.49108">
        <ele>1301.28</ele>
        <time>2025-04-12T10:32:53Z</time>
      </trkpt>
      <trkpt lat="44.82624" lon="3.49097">
        <ele>1300.32</ele>
        <time>2025-04-12T10:32:32Z</time>
      </trkpt>
      <trkpt lat="44.82591" lon="3.49078">
        <ele>1298.88</ele>
        <time>2025-04-12T10:32:11Z</time>
      </trkpt>
      <trkpt lat="44.82555" lon="3.49058">
        <ele>1296.96</ele>
        <time>2025-04-12T10:31:48Z</time>
      </trkpt>
      <trkpt lat="44.82522" lon="3.49038">
        <ele>1296.48</ele>
        <time>2025-04-12T10:31:27Z</time>
      </trkpt>
      <trkpt lat="44.82492" lon="3.4902">
        <ele>1295.99</ele>
        <time>2025-04-12T10:31:07Z</time>
      </trkpt>
      <trkpt lat="44.82472" lon="3.48982">
        <ele>1296.96</ele>
        <time>2025-04-12T10:30:46Z</time>
      </trkpt>
      <trkpt lat="44.8246" lon="3.48951">
        <ele>1298.4</ele>
        <time>2025-04-12T10:30:30Z</time>
      </trkpt>
      <trkpt lat="44.82451" lon="3.48916">
        <ele>1300.8</ele>
        <time>2025-04-12T10:30:13Z</time>
      </trkpt>
      <trkpt lat="44.8245" lon="3.48872">
        <ele>1300.32</ele>
        <time>2025-04-12T10:29:54Z</time>
      </trkpt>
      <trkpt lat="44.82449" lon="3.48825">
        <ele>1300.8</ele>
        <time>2025-04-12T10:29:33Z</time>
      </trkpt>
      <trkpt lat="44.8245" lon="3.48779">
        <ele>1300.32</ele>
        <time>2025-04-12T10:29:14Z</time>
      </trkpt>
      <trkpt lat="44.82443" lon="3.48752">
        <ele>1298.88</ele>
        <time>2025-04-12T10:28:58Z</time>
      </trkpt>
      <trkpt lat="44.82404" lon="3.4875">
        <ele>1295.99</ele>
        <time>2025-04-12T10:28:32Z</time>
      </trkpt>
      <trkpt lat="44.82371" lon="3.48757">
        <ele>1294.07</ele>
        <time>2025-04-12T10:28:11Z</time>
      </trkpt>
      <trkpt lat="44.82345" lon="3.48757">
        <ele>1295.51</ele>
        <time>2025-04-12T10:27:53Z</time>
      </trkpt>
      <trkpt lat="44.82319" lon="3.48748">
        <ele>1298.4</ele>
        <time>2025-04-12T10:27:37Z</time>
      </trkpt>
      <trkpt lat="44.82319" lon="3.48711">
        <ele>1304.65</ele>
        <time>2025-04-12T10:27:21Z</time>
      </trkpt>
      <trkpt lat="44.8232" lon="3.4868">
        <ele>1306.09</ele>
        <time>2025-04-12T10:27:07Z</time>
      </trkpt>
      <trkpt lat="44.82324" lon="3.48634">
        <ele>1305.61</ele>
        <time>2025-04-12T10:26:50Z</time>
      </trkpt>
      <trkpt lat="44.82332" lon="3.48574">
        <ele>1307.53</ele>
        <time>2025-04-12T10:26:35Z</time>
      </trkpt>
      <trkpt lat="44.82338" lon="3.48502">
        <ele>1307.05</ele>
        <time>2025-04-12T10:26:20Z</time>
      </trkpt>
      <trkpt lat="44.82338" lon="3.48448">
        <ele>1309.93</ele>
        <time>2025-04-12T10:26:06Z</time>
      </trkpt>
      <trkpt lat="44.82338" lon="3.48439">
        <ele>1310.41</ele>
        <time>2025-04-12T10:26:01Z</time>
      </trkpt>
      <trkpt lat="44.82336" lon="3.48404">
        <ele>1308.49</ele>
        <time>2025-04-12T10:25:44Z</time>
      </trkpt>
      <trkpt lat="44.82327" lon="3.48371">
        <ele>1305.61</ele>
        <time>2025-04-12T10:25:28Z</time>
      </trkpt>
      <trkpt lat="44.82316" lon="3.48343">
        <ele>1305.61</ele>
        <time>2025-04-12T10:25:12Z</time>
      </trkpt>
      <trkpt lat="44.82315" lon="3.48341">
        <ele>1305.61</ele>
        <time>2025-04-12T10:25:11Z</time>
      </trkpt>
      <trkpt lat="44.82312" lon="3.4833">
        <ele>1305.13</ele>
        <time>2025-04-12T10:25:06Z</time>
      </trkpt>
      <trkpt lat="44.82291" lon="3.483">
        <ele>1300.8</ele>
        <time>2025-04-12T10:24:49Z</time>
      </trkpt>
      <trkpt lat="44.82273" lon="3.48267">
        <ele>1302.24</ele>
        <time>2025-04-12T10:24:30Z</time>
      </trkpt>
      <trkpt lat="44.82271" lon="3.48265">
        <ele>1302.24</ele>
        <time>2025-04-12T10:24:29Z</time>
      </trkpt>
      <trkpt lat="44.82273" lon="3.48256">
        <ele>1306.09</ele>
        <time>2025-04-12T10:24:13Z</time>
      </trkpt>
      <trkpt lat="44.82272" lon="3.48256">
        <ele>1309.45</ele>
        <time>2025-04-12T10:23:54Z</time>
      </trkpt>
      <trkpt lat="44.82268" lon="3.4826">
        <ele>1311.38</ele>
        <time>2025-04-12T10:23:37Z</time>
      </trkpt>
      <trkpt lat="44.82261" lon="3.48254">
        <ele>1312.82</ele>
        <time>2025-04-12T10:23:19Z</time>
      </trkpt>
      <trkpt lat="44.82265" lon="3.48265">
        <ele>1312.82</ele>
        <time>2025-04-12T10:23:00Z</time>
      </trkpt>
      <trkpt lat="44.82265" lon="3.48282">
        <ele>1306.09</ele>
        <time>2025-04-12T10:22:42Z</time>
      </trkpt>
      <trkpt lat="44.82278" lon="3.48278">
        <ele>1309.45</ele>
        <time>2025-04-12T10:21:44Z</time>
      </trkpt>
      <trkpt lat="44.82268" lon="3.48268">
        <ele>1305.61</ele>
        <time>2025-04-12T10:21:30Z</time>
      </trkpt>
      <trkpt lat="44.82263" lon="3.48261">
        <ele>1303.2</ele>
        <time>2025-04-12T10:21:10Z</time>
      </trkpt>
      <trkpt lat="44.82262" lon="3.48253">
        <ele>1300.8</ele>
        <time>2025-04-12T10:20:58Z</time>
      </trkpt>
      <trkpt lat="44.82261" lon="3.48252">
        <ele>1301.28</ele>
        <time>2025-04-12T10:20:57Z</time>
      </trkpt>
      <trkpt lat="44.82264" lon="3.48248">
        <ele>1302.24</ele>
        <time>2025-04-12T10:20:36Z</time>
      </trkpt>
      <trkpt lat="44.82256" lon="3.48248">
        <ele>1307.53</ele>
        <time>2025-04-12T10:20:15Z</time>
      </trkpt>
      <trkpt lat="44.82232" lon="3.48219">
        <ele>1308.49</ele>
        <time>2025-04-12T10:19:52Z</time>
      </trkpt>
      <trkpt lat="44.82221" lon="3.4821">
        <ele>1307.05</ele>
        <time>2025-04-12T10:19:44Z</time>
      </trkpt>
      <trkpt lat="44.82206" lon="3.48186">
        <ele>1305.61</ele>
        <time>2025-04-12T10:19:25Z</time>
      </trkpt>
      <trkpt lat="44.822" lon="3.48135">
        <ele>1304.65</ele>
        <time>2025-04-12T10:19:01Z</time>
      </trkpt>
      <trkpt lat="44.82197" lon="3.48088">
        <ele>1301.76</ele>
        <time>2025-04-12T10:18:41Z</time>
      </trkpt>
      <trkpt lat="44.82196" lon="3.48085">
        <ele>1302.72</ele>
        <time>2025-04-12T10:18:40Z</time>
      </trkpt>
      <trkpt lat="44.82185" lon="3.48072">
        <ele>1307.53</ele>
        <time>2025-04-12T10:18:29Z</time>
      </trkpt>
      <trkpt lat="44.82167" lon="3.48057">
        <ele>1313.78</ele>
        <time>2025-04-12T10:18:12Z</time>
      </trkpt>
      <trkpt lat="44.8215" lon="3.48043">
        <ele>1319.55</ele>
        <time>2025-04-12T10:17:56Z</time>
      </trkpt>
      <trkpt lat="44.82124" lon="3.48028">
        <ele>1322.91</ele>
        <time>2025-04-12T10:17:38Z</time>
      </trkpt>
      <trkpt lat="44.82104" lon="3.48016">
        <ele>1327.72</ele>
        <time>2025-04-12T10:17:25Z</time>
      </trkpt>
      <trkpt lat="44.82076" lon="3.48008">
        <ele>1331.08</ele>
        <time>2025-04-12T10:17:07Z</time>
      </trkpt>
      <trkpt lat="44.8206" lon="3.48009">
        <ele>1335.89</ele>
        <time>2025-04-12T10:16:51Z</time>
      </trkpt>
      <trkpt lat="44.8204" lon="3.48024">
        <ele>1339.73</ele>
        <time>2025-04-12T10:16:36Z</time>
      </trkpt>
      <trkpt lat="44.82015" lon="3.48019">
        <ele>1345.5</ele>
        <time>2025-04-12T10:16:17Z</time>
      </trkpt>
      <trkpt lat="44.81985" lon="3.48004">
        <ele>1352.23</ele>
        <time>2025-04-12T10:15:59Z</time>
      </trkpt>
      <trkpt lat="44.81972" lon="3.47996">
        <ele>1354.15</ele>
        <time>2025-04-12T10:15:43Z</time>
      </trkpt>
      <trkpt lat="44.81948" lon="3.47983">
        <ele>1355.12</ele>
        <time>2025-04-12T10:15:25Z</time>
      </trkpt>
      <trkpt lat="44.81932" lon="3.47978">
        <ele>1353.67</ele>
        <time>2025-04-12T10:15:13Z</time>
      </trkpt>
      <trkpt lat="44.81902" lon="3.47966">
        <ele>1353.67</ele>
        <time>2025-04-12T10:14:54Z</time>
      </trkpt>
      <trkpt lat="44.81899" lon="3.47964">
        <ele>1354.15</ele>
        <time>2025-04-12T10:14:53Z</time>
      </trkpt>
      <trkpt lat="44.81877" lon="3.47957">
        <ele>1354.15</ele>
        <time>2025-04-12T10:14:36Z</time>
      </trkpt>
      <trkpt lat="44.81851" lon="3.47947">
        <ele>1356.08</ele>
        <time>2025-04-12T10:14:18Z</time>
      </trkpt>
      <trkpt lat="44.81827" lon="3.47938">
        <ele>1357.52</ele>
        <time>2025-04-12T10:14:00Z</time>
      </trkpt>
      <trkpt lat="44.81821" lon="3.47942">
        <ele>1361.36</ele>
        <time>2025-04-12T10:13:31Z</time>
      </trkpt>
      <trkpt lat="44.81827" lon="3.47933">
        <ele>1365.69</ele>
        <time>2025-04-12T10:13:03Z</time>
      </trkpt>
      <trkpt lat="44.81829" lon="3.47929">
        <ele>1363.77</ele>
        <time>2025-04-12T10:12:35Z</time>
      </trkpt>
      <trkpt lat="44.81823" lon="3.4793">
        <ele>1362.81</ele>
        <time>2025-04-12T10:12:18Z</time>
      </trkpt>
      <trkpt lat="44.81798" lon="3.47921">
        <ele>1362.33</ele>
        <time>2025-04-12T10:12:03Z</time>
      </trkpt>
      <trkpt lat="44.81774" lon="3.47912">
        <ele>1360.88</ele>
        <time>2025-04-12T10:11:46Z</time>
      </trkpt>
      <trkpt lat="44.81752" lon="3.479">
        <ele>1359.92</ele>
        <time>2025-04-12T10:11:30Z</time>
      </trkpt>
      <trkpt lat="44.81727" lon="3.47895">
        <ele>1359.44</ele>
        <time>2025-04-12T10:11:16Z</time>
      </trkpt>
      <trkpt lat="44.81725" lon="3.47894">
        <ele>1359.44</ele>
        <time>2025-04-12T10:11:15Z</time>
      </trkpt>
      <trkpt lat="44.81723" lon="3.47893">
        <ele>1359.44</ele>
        <time>2025-04-12T10:11:14Z</time>
      </trkpt>
      <trkpt lat="44.81718" lon="3.4789">
        <ele>1359.44</ele>
        <time>2025-04-12T10:11:10Z</time>
      </trkpt>
      <trkpt lat="44.81693" lon="3.4788">
        <ele>1359.92</ele>
        <time>2025-04-12T10:10:54Z</time>
      </trkpt>
      <trkpt lat="44.81669" lon="3.47869">
        <ele>1362.33</ele>
        <time>2025-04-12T10:10:37Z</time>
      </trkpt>
      <trkpt lat="44.81646" lon="3.47863">
        <ele>1366.17</ele>
        <time>2025-04-12T10:10:23Z</time>
      </trkpt>
      <trkpt lat="44.8162" lon="3.47854">
        <ele>1367.61</ele>
        <time>2025-04-12T10:10:07Z</time>
      </trkpt>
      <trkpt lat="44.8159" lon="3.4784">
        <ele>1370.02</ele>
        <time>2025-04-12T10:09:52Z</time>
      </trkpt>
      <trkpt lat="44.8157" lon="3.47831">
        <ele>1371.94</ele>
        <time>2025-04-12T10:09:39Z</time>
      </trkpt>
      <trkpt lat="44.81546" lon="3.47821">
        <ele>1373.86</ele>
        <time>2025-04-12T10:09:24Z</time>
      </trkpt>
      <trkpt lat="44.81524" lon="3.47813">
        <ele>1374.34</ele>
        <time>2025-04-12T10:09:10Z</time>
      </trkpt>
      <trkpt lat="44.81504" lon="3.47806">
        <ele>1379.63</ele>
        <time>2025-04-12T10:08:56Z</time>
      </trkpt>
      <trkpt lat="44.81492" lon="3.47801">
        <ele>1380.11</ele>
        <time>2025-04-12T10:08:48Z</time>
      </trkpt>
      <trkpt lat="44.81491" lon="3.47801">
        <ele>1380.11</ele>
        <time>2025-04-12T10:08:47Z</time>
      </trkpt>
      <trkpt lat="44.81489" lon="3.47801">
        <ele>1380.59</ele>
        <time>2025-04-12T10:08:46Z</time>
      </trkpt>
      <trkpt lat="44.81477" lon="3.47796">
        <ele>1379.63</ele>
        <time>2025-04-12T10:08:37Z</time>
      </trkpt>
      <trkpt lat="44.81475" lon="3.47795">
        <ele>1379.63</ele>
        <time>2025-04-12T10:08:36Z</time>
      </trkpt>
      <trkpt lat="44.81474" lon="3.47795">
        <ele>1379.15</ele>
        <time>2025-04-12T10:08:35Z</time>
      </trkpt>
      <trkpt lat="44.81473" lon="3.47793">
        <ele>1379.15</ele>
        <time>2025-04-12T10:08:34Z</time>
      </trkpt>
      <trkpt lat="44.81472" lon="3.47791">
        <ele>1379.15</ele>
        <time>2025-04-12T10:08:33Z</time>
      </trkpt>
      <trkpt lat="44.81469" lon="3.47784">
        <ele>1380.11</ele>
        <time>2025-04-12T10:08:30Z</time>
      </trkpt>
      <trkpt lat="44.81468" lon="3.47781">
        <ele>1380.11</ele>
        <time>2025-04-12T10:08:29Z</time>
      </trkpt>
      <trkpt lat="44.81496" lon="3.47731">
        <ele>1380.11</ele>
        <time>2025-04-12T10:08:12Z</time>
      </trkpt>
      <trkpt lat="44.81524" lon="3.47689">
        <ele>1378.67</ele>
        <time>2025-04-12T10:08:00Z</time>
      </trkpt>
      <trkpt lat="44.81557" lon="3.47673">
        <ele>1373.38</ele>
        <time>2025-04-12T10:07:48Z</time>
      </trkpt>
      <trkpt lat="44.81562" lon="3.47673">
        <ele>1371.46</ele>
        <time>2025-04-12T10:07:47Z</time>
      </trkpt>
      <trkpt lat="44.81569" lon="3.47675">
        <ele>1371.46</ele>
        <time>2025-04-12T10:07:45Z</time>
      </trkpt>
      <trkpt lat="44.81639" lon="3.47671">
        <ele>1384.92</ele>
        <time>2025-04-12T10:07:44Z</time>
      </trkpt>
      <trkpt lat="44.81643" lon="3.47671">
        <ele>1384.44</ele>
        <time>2025-04-12T10:07:43Z</time>
      </trkpt>
      <trkpt lat="44.81647" lon="3.4767">
        <ele>1384.44</ele>
        <time>2025-04-12T10:07:42Z</time>
      </trkpt>
      <trkpt lat="44.81649" lon="3.47669">
        <ele>1384.44</ele>
        <time>2025-04-12T10:07:41Z</time>
      </trkpt>
      <trkpt lat="44.81678" lon="3.47656">
        <ele>1384.92</ele>
        <time>2025-04-12T10:07:27Z</time>
      </trkpt>
      <trkpt lat="44.8172" lon="3.47626">
        <ele>1385.88</ele>
        <time>2025-04-12T10:07:14Z</time>
      </trkpt>
      <trkpt lat="44.81723" lon="3.47623">
        <ele>1385.88</ele>
        <time>2025-04-12T10:07:13Z</time>
      </trkpt>
      <trkpt lat="44.81789" lon="3.47578">
        <ele>1395.97</ele>
        <time>2025-04-12T10:07:00Z</time>
      </trkpt>
      <trkpt lat="44.81821" lon="3.4755">
        <ele>1394.53</ele>
        <time>2025-04-12T10:06:47Z</time>
      </trkpt>
      <trkpt lat="44.81822" lon="3.47547">
        <ele>1394.05</ele>
        <time>2025-04-12T10:06:46Z</time>
      </trkpt>
      <trkpt lat="44.81833" lon="3.47542">
        <ele>1394.05</ele>
        <time>2025-04-12T10:06:43Z</time>
      </trkpt>
      <trkpt lat="44.81838" lon="3.47519">
        <ele>1382.51</ele>
        <time>2025-04-12T10:06:25Z</time>
      </trkpt>
      <trkpt lat="44.81852" lon="3.47503">
        <ele>1376.75</ele>
        <time>2025-04-12T10:06:05Z</time>
      </trkpt>
      <trkpt lat="44.81894" lon="3.47482">
        <ele>1384.44</ele>
        <time>2025-04-12T10:05:47Z</time>
      </trkpt>
      <trkpt lat="44.81918" lon="3.47467">
        <ele>1384.44</ele>
        <time>2025-04-12T10:05:31Z</time>
      </trkpt>
      <trkpt lat="44.81937" lon="3.47446">
        <ele>1380.11</ele>
        <time>2025-04-12T10:05:14Z</time>
      </trkpt>
      <trkpt lat="44.81948" lon="3.47419">
        <ele>1375.78</ele>
        <time>2025-04-12T10:04:59Z</time>
      </trkpt>
      <trkpt lat="44.8196" lon="3.47388">
        <ele>1370.98</ele>
        <time>2025-04-12T10:04:39Z</time>
      </trkpt>
      <trkpt lat="44.81977" lon="3.47357">
        <ele>1365.21</ele>
        <time>2025-04-12T10:04:20Z</time>
      </trkpt>
      <trkpt lat="44.81988" lon="3.47331">
        <ele>1364.25</ele>
        <time>2025-04-12T10:04:08Z</time>
      </trkpt>
      <trkpt lat="44.82002" lon="3.47293">
        <ele>1359.92</ele>
        <time>2025-04-12T10:03:52Z</time>
      </trkpt>
      <trkpt lat="44.82018" lon="3.47255">
        <ele>1361.84</ele>
        <time>2025-04-12T10:03:44Z</time>
      </trkpt>
      <trkpt lat="44.82026" lon="3.47264">
        <ele>1370.98</ele>
        <time>2025-04-12T10:03:28Z</time>
      </trkpt>
      <trkpt lat="44.82028" lon="3.47274">
        <ele>1369.05</ele>
        <time>2025-04-12T10:03:13Z</time>
      </trkpt>
      <trkpt lat="44.82031" lon="3.4726">
        <ele>1368.09</ele>
        <time>2025-04-12T10:02:54Z</time>
      </trkpt>
      <trkpt lat="44.82013" lon="3.47245">
        <ele>1360.4</ele>
        <time>2025-04-12T10:02:34Z</time>
      </trkpt>
      <trkpt lat="44.82026" lon="3.47192">
        <ele>1346.46</ele>
        <time>2025-04-12T10:02:15Z</time>
      </trkpt>
      <trkpt lat="44.82013" lon="3.47171">
        <ele>1341.66</ele>
        <time>2025-04-12T10:01:59Z</time>
      </trkpt>
      <trkpt lat="44.82014" lon="3.47169">
        <ele>1341.18</ele>
        <time>2025-04-12T10:01:58Z</time>
      </trkpt>
      <trkpt lat="44.82014" lon="3.47166">
        <ele>1340.7</ele>
        <time>2025-04-12T10:01:57Z</time>
      </trkpt>
      <trkpt lat="44.82014" lon="3.47163">
        <ele>1340.22</ele>
        <time>2025-04-12T10:01:56Z</time>
      </trkpt>
      <trkpt lat="44.82014" lon="3.4716">
        <ele>1340.22</ele>
        <time>2025-04-12T10:01:55Z</time>
      </trkpt>
      <trkpt lat="44.82015" lon="3.47156">
        <ele>1339.25</ele>
        <time>2025-04-12T10:01:54Z</time>
      </trkpt>
      <trkpt lat="44.82017" lon="3.47152">
        <ele>1338.29</ele>
        <time>2025-04-12T10:01:53Z</time>
      </trkpt>
      <trkpt lat="44.82019" lon="3.4715">
        <ele>1337.33</ele>
        <time>2025-04-12T10:01:47Z</time>
      </trkpt>
      <trkpt lat="44.82032" lon="3.47149">
        <ele>1336.37</ele>
        <time>2025-04-12T10:01:32Z</time>
      </trkpt>
      <trkpt lat="44.82026" lon="3.47149">
        <ele>1337.81</ele>
        <time>2025-04-12T10:01:12Z</time>
      </trkpt>
      <trkpt lat="44.82017" lon="3.47153">
        <ele>1338.29</ele>
        <time>2025-04-12T10:00:57Z</time>
      </trkpt>
      <trkpt lat="44.81996" lon="3.47168">
        <ele>1339.25</ele>
        <time>2025-04-12T10:00:40Z</time>
      </trkpt>
      <trkpt lat="44.81995" lon="3.47169">
        <ele>1339.25</ele>
        <time>2025-04-12T10:00:39Z</time>
      </trkpt>
      <trkpt lat="44.81994" lon="3.47171">
        <ele>1339.25</ele>
        <time>2025-04-12T10:00:38Z</time>
      </trkpt>
      <trkpt lat="44.81992" lon="3.47173">
        <ele>1339.73</ele>
        <time>2025-04-12T10:00:37Z</time>
      </trkpt>
      <trkpt lat="44.8199" lon="3.47174">
        <ele>1340.22</ele>
        <time>2025-04-12T10:00:36Z</time>
      </trkpt>
      <trkpt lat="44.81988" lon="3.47176">
        <ele>1340.22</ele>
        <time>2025-04-12T10:00:35Z</time>
      </trkpt>
      <trkpt lat="44.81986" lon="3.47177">
        <ele>1340.7</ele>
        <time>2025-04-12T10:00:34Z</time>
      </trkpt>
      <trkpt lat="44.81982" lon="3.4718">
        <ele>1340.7</ele>
        <time>2025-04-12T10:00:32Z</time>
      </trkpt>
      <trkpt lat="44.81955" lon="3.472">
        <ele>1344.06</ele>
        <time>2025-04-12T10:00:13Z</time>
      </trkpt>
      <trkpt lat="44.81954" lon="3.47201">
        <ele>1344.06</ele>
        <time>2025-04-12T10:00:12Z</time>
      </trkpt>
      <trkpt lat="44.81952" lon="3.47202">
        <ele>1344.06</ele>
        <time>2025-04-12T10:00:11Z</time>
      </trkpt>
      <trkpt lat="44.8195" lon="3.47203">
        <ele>1344.54</ele>
        <time>2025-04-12T10:00:10Z</time>
      </trkpt>
      <trkpt lat="44.81948" lon="3.47204">
        <ele>1345.02</ele>
        <time>2025-04-12T10:00:09Z</time>
      </trkpt>
      <trkpt lat="44.81933" lon="3.47216">
        <ele>1347.91</ele>
        <time>2025-04-12T09:59:56Z</time>
      </trkpt>
      <trkpt lat="44.81912" lon="3.47237">
        <ele>1351.75</ele>
        <time>2025-04-12T09:59:37Z</time>
      </trkpt>
      <trkpt lat="44.81892" lon="3.4726">
        <ele>1356.08</ele>
        <time>2025-04-12T09:59:20Z</time>
      </trkpt>
      <trkpt lat="44.81871" lon="3.47271">
        <ele>1361.36</ele>
        <time>2025-04-12T09:59:04Z</time>
      </trkpt>
      <trkpt lat="44.81846" lon="3.47296">
        <ele>1366.17</ele>
        <time>2025-04-12T09:58:44Z</time>
      </trkpt>
      <trkpt lat="44.81824" lon="3.47309">
        <ele>1366.65</ele>
        <time>2025-04-12T09:58:29Z</time>
      </trkpt>
      <trkpt lat="44.81809" lon="3.47326">
        <ele>1365.21</ele>
        <time>2025-04-12T09:58:14Z</time>
      </trkpt>
      <trkpt lat="44.81785" lon="3.47344">
        <ele>1363.77</ele>
        <time>2025-04-12T09:57:56Z</time>
      </trkpt>
      <trkpt lat="44.81763" lon="3.47358">
        <ele>1364.73</ele>
        <time>2025-04-12T09:57:40Z</time>
      </trkpt>
      <trkpt lat="44.81741" lon="3.47382">
        <ele>1367.13</ele>
        <time>2025-04-12T09:57:21Z</time>
      </trkpt>
      <trkpt lat="44.81717" lon="3.47404">
        <ele>1368.09</ele>
        <time>2025-04-12T09:57:05Z</time>
      </trkpt>
      <trkpt lat="44.81716" lon="3.47406">
        <ele>1368.57</ele>
        <time>2025-04-12T09:57:04Z</time>
      </trkpt>
      <trkpt lat="44.81715" lon="3.47407">
        <ele>1368.57</ele>
        <time>2025-04-12T09:57:03Z</time>
      </trkpt>
      <trkpt lat="44.81714" lon="3.47409">
        <ele>1368.09</ele>
        <time>2025-04-12T09:57:02Z</time>
      </trkpt>
      <trkpt lat="44.81712" lon="3.47411">
        <ele>1368.09</ele>
        <time>2025-04-12T09:57:01Z</time>
      </trkpt>
      <trkpt lat="44.81708" lon="3.47417">
        <ele>1367.61</ele>
        <time>2025-04-12T09:56:58Z</time>
      </trkpt>
      <trkpt lat="44.81691" lon="3.47427">
        <ele>1367.61</ele>
        <time>2025-04-12T09:56:40Z</time>
      </trkpt>
      <trkpt lat="44.81669" lon="3.47447">
        <ele>1366.17</ele>
        <time>2025-04-12T09:56:24Z</time>
      </trkpt>
      <trkpt lat="44.81648" lon="3.47468">
        <ele>1365.21</ele>
        <time>2025-04-12T09:56:09Z</time>
      </trkpt>
      <trkpt lat="44.81637" lon="3.47481">
        <ele>1365.21</ele>
        <time>2025-04-12T09:55:57Z</time>
      </trkpt>
      <trkpt lat="44.81635" lon="3.47482">
        <ele>1365.21</ele>
        <time>2025-04-12T09:55:56Z</time>
      </trkpt>
      <trkpt lat="44.81631" lon="3.47485">
        <ele>1365.69</ele>
        <time>2025-04-12T09:55:52Z</time>
      </trkpt>
      <trkpt lat="44.81609" lon="3.47513">
        <ele>1366.17</ele>
        <time>2025-04-12T09:55:35Z</time>
      </trkpt>
      <trkpt lat="44.81582" lon="3.47544">
        <ele>1366.17</ele>
        <time>2025-04-12T09:55:15Z</time>
      </trkpt>
      <trkpt lat="44.81561" lon="3.47562">
        <ele>1365.69</ele>
        <time>2025-04-12T09:55:02Z</time>
      </trkpt>
      <trkpt lat="44.8154" lon="3.47581">
        <ele>1362.81</ele>
        <time>2025-04-12T09:54:47Z</time>
      </trkpt>
      <trkpt lat="44.8152" lon="3.47602">
        <ele>1362.81</ele>
        <time>2025-04-12T09:54:29Z</time>
      </trkpt>
      <trkpt lat="44.81497" lon="3.47625">
        <ele>1361.36</ele>
        <time>2025-04-12T09:54:13Z</time>
      </trkpt>
      <trkpt lat="44.81492" lon="3.47631">
        <ele>1361.84</ele>
        <time>2025-04-12T09:54:09Z</time>
      </trkpt>
      <trkpt lat="44.81465" lon="3.47659">
        <ele>1362.33</ele>
        <time>2025-04-12T09:53:50Z</time>
      </trkpt>
      <trkpt lat="44.81442" lon="3.47681">
        <ele>1364.73</ele>
        <time>2025-04-12T09:53:34Z</time>
      </trkpt>
      <trkpt lat="44.81418" lon="3.47701">
        <ele>1367.61</ele>
        <time>2025-04-12T09:53:16Z</time>
      </trkpt>
      <trkpt lat="44.81393" lon="3.47724">
        <ele>1373.86</ele>
        <time>2025-04-12T09:52:58Z</time>
      </trkpt>
      <trkpt lat="44.81367" lon="3.47744">
        <ele>1374.82</ele>
        <time>2025-04-12T09:52:43Z</time>
      </trkpt>
      <trkpt lat="44.8133" lon="3.47759">
        <ele>1374.34</ele>
        <time>2025-04-12T09:52:23Z</time>
      </trkpt>
      <trkpt lat="44.81299" lon="3.47765">
        <ele>1378.19</ele>
        <time>2025-04-12T09:52:05Z</time>
      </trkpt>
      <trkpt lat="44.81269" lon="3.47771">
        <ele>1378.67</ele>
        <time>2025-04-12T09:51:47Z</time>
      </trkpt>
      <trkpt lat="44.81246" lon="3.4777">
        <ele>1380.11</ele>
        <time>2025-04-12T09:51:30Z</time>
      </trkpt>
      <trkpt lat="44.81214" lon="3.47773">
        <ele>1384.92</ele>
        <time>2025-04-12T09:51:11Z</time>
      </trkpt>
      <trkpt lat="44.81185" lon="3.47779">
        <ele>1389.72</ele>
        <time>2025-04-12T09:50:50Z</time>
      </trkpt>
      <trkpt lat="44.81162" lon="3.47789">
        <ele>1397.89</ele>
        <time>2025-04-12T09:50:31Z</time>
      </trkpt>
      <trkpt lat="44.81145" lon="3.47796">
        <ele>1401.26</ele>
        <time>2025-04-12T09:50:19Z</time>
      </trkpt>
      <trkpt lat="44.81121" lon="3.47809">
        <ele>1405.1</ele>
        <time>2025-04-12T09:50:02Z</time>
      </trkpt>
      <trkpt lat="44.81097" lon="3.47813">
        <ele>1414.24</ele>
        <time>2025-04-12T09:49:46Z</time>
      </trkpt>
      <trkpt lat="44.81075" lon="3.47819">
        <ele>1422.41</ele>
        <time>2025-04-12T09:49:26Z</time>
      </trkpt>
      <trkpt lat="44.81049" lon="3.47818">
        <ele>1427.21</ele>
        <time>2025-04-12T09:49:07Z</time>
      </trkpt>
      <trkpt lat="44.81031" lon="3.47821">
        <ele>1431.06</ele>
        <time>2025-04-12T09:48:49Z</time>
      </trkpt>
      <trkpt lat="44.81013" lon="3.4783">
        <ele>1434.42</ele>
        <time>2025-04-12T09:48:34Z</time>
      </trkpt>
      <trkpt lat="44.81" lon="3.47848">
        <ele>1437.79</ele>
        <time>2025-04-12T09:48:17Z</time>
      </trkpt>
      <trkpt lat="44.80998" lon="3.4785">
        <ele>1437.79</ele>
        <time>2025-04-12T09:48:16Z</time>
      </trkpt>
      <trkpt lat="44.80996" lon="3.47851">
        <ele>1438.27</ele>
        <time>2025-04-12T09:48:15Z</time>
      </trkpt>
      <trkpt lat="44.80994" lon="3.47851">
        <ele>1438.27</ele>
        <time>2025-04-12T09:48:14Z</time>
      </trkpt>
      <trkpt lat="44.80992" lon="3.47851">
        <ele>1438.27</ele>
        <time>2025-04-12T09:48:13Z</time>
      </trkpt>
      <trkpt lat="44.80989" lon="3.47844">
        <ele>1437.31</ele>
        <time>2025-04-12T09:48:08Z</time>
      </trkpt>
      <trkpt lat="44.80988" lon="3.47839">
        <ele>1436.83</ele>
        <time>2025-04-12T09:48:04Z</time>
      </trkpt>
      <trkpt lat="44.80985" lon="3.47841">
        <ele>1437.79</ele>
        <time>2025-04-12T09:47:47Z</time>
      </trkpt>
      <trkpt lat="44.80965" lon="3.47875">
        <ele>1440.67</ele>
        <time>2025-04-12T09:47:29Z</time>
      </trkpt>
      <trkpt lat="44.80943" lon="3.47904">
        <ele>1439.23</ele>
        <time>2025-04-12T09:47:11Z</time>
      </trkpt>
      <trkpt lat="44.80924" lon="3.47932">
        <ele>1434.91</ele>
        <time>2025-04-12T09:46:55Z</time>
      </trkpt>
      <trkpt lat="44.80905" lon="3.47965">
        <ele>1432.5</ele>
        <time>2025-04-12T09:46:35Z</time>
      </trkpt>
      <trkpt lat="44.80894" lon="3.47993">
        <ele>1429.62</ele>
        <time>2025-04-12T09:46:20Z</time>
      </trkpt>
      <trkpt lat="44.80881" lon="3.48023">
        <ele>1425.29</ele>
        <time>2025-04-12T09:46:04Z</time>
      </trkpt>
      <trkpt lat="44.80868" lon="3.48056">
        <ele>1420.49</ele>
        <time>2025-04-12T09:45:47Z</time>
      </trkpt>
      <trkpt lat="44.80855" lon="3.48081">
        <ele>1415.2</ele>
        <time>2025-04-12T09:45:33Z</time>
      </trkpt>
      <trkpt lat="44.80841" lon="3.48112">
        <ele>1407.51</ele>
        <time>2025-04-12T09:45:17Z</time>
      </trkpt>
      <trkpt lat="44.8083" lon="3.48139">
        <ele>1403.66</ele>
        <time>2025-04-12T09:45:03Z</time>
      </trkpt>
      <trkpt lat="44.80815" lon="3.48172">
        <ele>1400.78</ele>
        <time>2025-04-12T09:44:47Z</time>
      </trkpt>
      <trkpt lat="44.80801" lon="3.48202">
        <ele>1397.89</ele>
        <time>2025-04-12T09:44:32Z</time>
      </trkpt>
      <trkpt lat="44.80786" lon="3.48238">
        <ele>1393.57</ele>
        <time>2025-04-12T09:44:17Z</time>
      </trkpt>
      <trkpt lat="44.80773" lon="3.48273">
        <ele>1391.17</ele>
        <time>2025-04-12T09:44:02Z</time>
      </trkpt>
      <trkpt lat="44.80765" lon="3.483">
        <ele>1388.76</ele>
        <time>2025-04-12T09:43:48Z</time>
      </trkpt>
      <trkpt lat="44.80754" lon="3.48333">
        <ele>1389.24</ele>
        <time>2025-04-12T09:43:33Z</time>
      </trkpt>
      <trkpt lat="44.80731" lon="3.48397">
        <ele>1390.68</ele>
        <time>2025-04-12T09:43:20Z</time>
      </trkpt>
      <trkpt lat="44.8073" lon="3.48404">
        <ele>1391.17</ele>
        <time>2025-04-12T09:43:19Z</time>
      </trkpt>
      <trkpt lat="44.80729" lon="3.48411">
        <ele>1391.17</ele>
        <time>2025-04-12T09:43:18Z</time>
      </trkpt>
      <trkpt lat="44.80728" lon="3.4842">
        <ele>1391.17</ele>
        <time>2025-04-12T09:43:17Z</time>
      </trkpt>
      <trkpt lat="44.80728" lon="3.48429">
        <ele>1391.17</ele>
        <time>2025-04-12T09:43:16Z</time>
      </trkpt>
      <trkpt lat="44.80729" lon="3.48437">
        <ele>1391.65</ele>
        <time>2025-04-12T09:43:15Z</time>
      </trkpt>
      <trkpt lat="44.8075" lon="3.48497">
        <ele>1393.09</ele>
        <time>2025-04-12T09:43:06Z</time>
      </trkpt>
      <trkpt lat="44.80755" lon="3.48512">
        <ele>1393.57</ele>
        <time>2025-04-12T09:43:04Z</time>
      </trkpt>
      <trkpt lat="44.80758" lon="3.4852">
        <ele>1393.57</ele>
        <time>2025-04-12T09:43:03Z</time>
      </trkpt>
      <trkpt lat="44.80761" lon="3.48527">
        <ele>1393.57</ele>
        <time>2025-04-12T09:43:02Z</time>
      </trkpt>
      <trkpt lat="44.80783" lon="3.48594">
        <ele>1394.05</ele>
        <time>2025-04-12T09:42:51Z</time>
      </trkpt>
      <trkpt lat="44.80785" lon="3.48599">
        <ele>1394.53</ele>
        <time>2025-04-12T09:42:50Z</time>
      </trkpt>
      <trkpt lat="44.80792" lon="3.48616">
        <ele>1395.01</ele>
        <time>2025-04-12T09:42:47Z</time>
      </trkpt>
      <trkpt lat="44.808" lon="3.48645">
        <ele>1395.49</ele>
        <time>2025-04-12T09:42:43Z</time>
      </trkpt>
      <trkpt lat="44.80802" lon="3.48653">
        <ele>1395.49</ele>
        <time>2025-04-12T09:42:42Z</time>
      </trkpt>
      <trkpt lat="44.80806" lon="3.48667">
        <ele>1395.49</ele>
        <time>2025-04-12T09:42:40Z</time>
      </trkpt>
      <trkpt lat="44.80816" lon="3.48715">
        <ele>1396.45</ele>
        <time>2025-04-12T09:42:34Z</time>
      </trkpt>
      <trkpt lat="44.80818" lon="3.48722">
        <ele>1396.45</ele>
        <time>2025-04-12T09:42:33Z</time>
      </trkpt>
      <trkpt lat="44.8082" lon="3.48729">
        <ele>1396.93</ele>
        <time>2025-04-12T09:42:32Z</time>
      </trkpt>
      <trkpt lat="44.80833" lon="3.48754">
        <ele>1398.37</ele>
        <time>2025-04-12T09:42:28Z</time>
      </trkpt>
      <trkpt lat="44.80836" lon="3.4876">
        <ele>1398.86</ele>
        <time>2025-04-12T09:42:27Z</time>
      </trkpt>
      <trkpt lat="44.80848" lon="3.48776">
        <ele>1400.3</ele>
        <time>2025-04-12T09:42:24Z</time>
      </trkpt>
      <trkpt lat="44.80873" lon="3.48805">
        <ele>1403.66</ele>
        <time>2025-04-12T09:42:18Z</time>
      </trkpt>
      <trkpt lat="44.80876" lon="3.4881">
        <ele>1404.62</ele>
        <time>2025-04-12T09:42:17Z</time>
      </trkpt>
      <trkpt lat="44.8088" lon="3.48815">
        <ele>1405.1</ele>
        <time>2025-04-12T09:42:16Z</time>
      </trkpt>
      <trkpt lat="44.80883" lon="3.48822">
        <ele>1406.07</ele>
        <time>2025-04-12T09:42:15Z</time>
      </trkpt>
      <trkpt lat="44.80885" lon="3.48828">
        <ele>1406.55</ele>
        <time>2025-04-12T09:42:14Z</time>
      </trkpt>
      <trkpt lat="44.80886" lon="3.48836">
        <ele>1407.03</ele>
        <time>2025-04-12T09:42:13Z</time>
      </trkpt>
      <trkpt lat="44.80888" lon="3.48844">
        <ele>1407.51</ele>
        <time>2025-04-12T09:42:12Z</time>
      </trkpt>
      <trkpt lat="44.80888" lon="3.48853">
        <ele>1407.99</ele>
        <time>2025-04-12T09:42:11Z</time>
      </trkpt>
      <trkpt lat="44.80887" lon="3.48861">
        <ele>1408.47</ele>
        <time>2025-04-12T09:42:10Z</time>
      </trkpt>
      <trkpt lat="44.80886" lon="3.48869">
        <ele>1408.95</ele>
        <time>2025-04-12T09:42:09Z</time>
      </trkpt>
      <trkpt lat="44.80874" lon="3.48914">
        <ele>1412.31</ele>
        <time>2025-04-12T09:42:03Z</time>
      </trkpt>
      <trkpt lat="44.80863" lon="3.48946">
        <ele>1415.2</ele>
        <time>2025-04-12T09:41:58Z</time>
      </trkpt>
      <trkpt lat="44.80837" lon="3.49046">
        <ele>1428.18</ele>
        <time>2025-04-12T09:41:45Z</time>
      </trkpt>
      <trkpt lat="44.80806" lon="3.49149">
        <ele>1459.42</ele>
        <time>2025-04-12T09:41:33Z</time>
      </trkpt>
      <trkpt lat="44.80803" lon="3.49162">
        <ele>1464.71</ele>
        <time>2025-04-12T09:41:32Z</time>
      </trkpt>
      <trkpt lat="44.808" lon="3.4917">
        <ele>1467.59</ele>
        <time>2025-04-12T09:41:31Z</time>
      </trkpt>
      <trkpt lat="44.80798" lon="3.49177">
        <ele>1472.4</ele>
        <time>2025-04-12T09:41:30Z</time>
      </trkpt>
      <trkpt lat="44.80799" lon="3.49186">
        <ele>1474.8</ele>
        <time>2025-04-12T09:41:29Z</time>
      </trkpt>
      <trkpt lat="44.80802" lon="3.49194">
        <ele>1475.28</ele>
        <time>2025-04-12T09:41:28Z</time>
      </trkpt>
      <trkpt lat="44.80849" lon="3.49253">
        <ele>1489.7</ele>
        <time>2025-04-12T09:41:18Z</time>
      </trkpt>
      <trkpt lat="44.80876" lon="3.49277">
        <ele>1493.55</ele>
        <time>2025-04-12T09:41:13Z</time>
      </trkpt>
      <trkpt lat="44.80916" lon="3.49315">
        <ele>1504.12</ele>
        <time>2025-04-12T09:41:04Z</time>
      </trkpt>
      <trkpt lat="44.80943" lon="3.49331">
        <ele>1504.6</ele>
        <time>2025-04-12T09:40:54Z</time>
      </trkpt>
      <trkpt lat="44.80971" lon="3.49346">
        <ele>1495.95</ele>
        <time>2025-04-12T09:40:38Z</time>
      </trkpt>
      <trkpt lat="44.81002" lon="3.49352">
        <ele>1481.05</ele>
        <time>2025-04-12T09:40:21Z</time>
      </trkpt>
      <trkpt lat="44.81032" lon="3.49343">
        <ele>1465.67</ele>
        <time>2025-04-12T09:40:02Z</time>
      </trkpt>
      <trkpt lat="44.81062" lon="3.49345">
        <ele>1455.57</ele>
        <time>2025-04-12T09:39:49Z</time>
      </trkpt>
      <trkpt lat="44.81083" lon="3.49346">
        <ele>1446.44</ele>
        <time>2025-04-12T09:39:35Z</time>
      </trkpt>
      <trkpt lat="44.81107" lon="3.49342">
        <ele>1437.79</ele>
        <time>2025-04-12T09:39:20Z</time>
      </trkpt>
      <trkpt lat="44.81131" lon="3.49335">
        <ele>1429.62</ele>
        <time>2025-04-12T09:39:06Z</time>
      </trkpt>
      <trkpt lat="44.81166" lon="3.49332">
        <ele>1422.89</ele>
        <time>2025-04-12T09:38:48Z</time>
      </trkpt>
      <trkpt lat="44.81202" lon="3.49334">
        <ele>1417.6</ele>
        <time>2025-04-12T09:38:31Z</time>
      </trkpt>
      <trkpt lat="44.81219" lon="3.49324">
        <ele>1415.2</ele>
        <time>2025-04-12T09:38:20Z</time>
      </trkpt>
      <trkpt lat="44.81244" lon="3.49329">
        <ele>1418.08</ele>
        <time>2025-04-12T09:38:04Z</time>
      </trkpt>
      <trkpt lat="44.81245" lon="3.4933">
        <ele>1419.04</ele>
        <time>2025-04-12T09:38:03Z</time>
      </trkpt>
      <trkpt lat="44.81248" lon="3.49329">
        <ele>1419.52</ele>
        <time>2025-04-12T09:38:02Z</time>
      </trkpt>
      <trkpt lat="44.8125" lon="3.49328">
        <ele>1419.52</ele>
        <time>2025-04-12T09:38:01Z</time>
      </trkpt>
      <trkpt lat="44.81253" lon="3.49327">
        <ele>1419.52</ele>
        <time>2025-04-12T09:38:00Z</time>
      </trkpt>
      <trkpt lat="44.81275" lon="3.4932">
        <ele>1420.97</ele>
        <time>2025-04-12T09:37:47Z</time>
      </trkpt>
      <trkpt lat="44.8131" lon="3.49305">
        <ele>1424.33</ele>
        <time>2025-04-12T09:37:27Z</time>
      </trkpt>
      <trkpt lat="44.8135" lon="3.49294">
        <ele>1425.77</ele>
        <time>2025-04-12T09:37:11Z</time>
      </trkpt>
      <trkpt lat="44.81377" lon="3.49278">
        <ele>1424.81</ele>
        <time>2025-04-12T09:36:54Z</time>
      </trkpt>
      <trkpt lat="44.81403" lon="3.49273">
        <ele>1421.45</ele>
        <time>2025-04-12T09:36:36Z</time>
      </trkpt>
      <trkpt lat="44.81405" lon="3.49271">
        <ele>1421.93</ele>
        <time>2025-04-12T09:36:35Z</time>
      </trkpt>
      <trkpt lat="44.81406" lon="3.49268">
        <ele>1422.41</ele>
        <time>2025-04-12T09:36:34Z</time>
      </trkpt>
      <trkpt lat="44.81408" lon="3.49265">
        <ele>1423.37</ele>
        <time>2025-04-12T09:36:33Z</time>
      </trkpt>
      <trkpt lat="44.81409" lon="3.49261">
        <ele>1425.77</ele>
        <time>2025-04-12T09:36:32Z</time>
      </trkpt>
      <trkpt lat="44.81421" lon="3.49248">
        <ele>1426.25</ele>
        <time>2025-04-12T09:36:24Z</time>
      </trkpt>
      <trkpt lat="44.81443" lon="3.49236">
        <ele>1419.52</ele>
        <time>2025-04-12T09:36:08Z</time>
      </trkpt>
      <trkpt lat="44.81469" lon="3.49229">
        <ele>1412.79</ele>
        <time>2025-04-12T09:35:52Z</time>
      </trkpt>
      <trkpt lat="44.81495" lon="3.49234">
        <ele>1407.51</ele>
        <time>2025-04-12T09:35:35Z</time>
      </trkpt>
      <trkpt lat="44.81506" lon="3.49231">
        <ele>1405.1</ele>
        <time>2025-04-12T09:35:25Z</time>
      </trkpt>
      <trkpt lat="44.81535" lon="3.49233">
        <ele>1400.78</ele>
        <time>2025-04-12T09:35:07Z</time>
      </trkpt>
      <trkpt lat="44.8156" lon="3.49246">
        <ele>1398.37</ele>
        <time>2025-04-12T09:34:51Z</time>
      </trkpt>
      <trkpt lat="44.81591" lon="3.49258">
        <ele>1397.89</ele>
        <time>2025-04-12T09:34:35Z</time>
      </trkpt>
      <trkpt lat="44.81619" lon="3.49272">
        <ele>1397.89</ele>
        <time>2025-04-12T09:34:16Z</time>
      </trkpt>
      <trkpt lat="44.81646" lon="3.49281">
        <ele>1400.3</ele>
        <time>2025-04-12T09:34:06Z</time>
      </trkpt>
      <trkpt lat="44.81649" lon="3.49283">
        <ele>1400.78</ele>
        <time>2025-04-12T09:34:05Z</time>
      </trkpt>
      <trkpt lat="44.81653" lon="3.49285">
        <ele>1400.78</ele>
        <time>2025-04-12T09:34:04Z</time>
      </trkpt>
      <trkpt lat="44.81656" lon="3.49286">
        <ele>1400.78</ele>
        <time>2025-04-12T09:34:03Z</time>
      </trkpt>
      <trkpt lat="44.8166" lon="3.49286">
        <ele>1400.78</ele>
        <time>2025-04-12T09:34:02Z</time>
      </trkpt>
      <trkpt lat="44.8169" lon="3.49298">
        <ele>1400.3</ele>
        <time>2025-04-12T09:33:55Z</time>
      </trkpt>
      <trkpt lat="44.81726" lon="3.49322">
        <ele>1401.26</ele>
        <time>2025-04-12T09:33:44Z</time>
      </trkpt>
      <trkpt lat="44.81742" lon="3.49374">
        <ele>1406.55</ele>
        <time>2025-04-12T09:33:32Z</time>
      </trkpt>
      <trkpt lat="44.81743" lon="3.4938">
        <ele>1407.51</ele>
        <time>2025-04-12T09:33:31Z</time>
      </trkpt>
      <trkpt lat="44.8173" lon="3.49424">
        <ele>1408.47</ele>
        <time>2025-04-12T09:33:22Z</time>
      </trkpt>
      <trkpt lat="44.81719" lon="3.49438">
        <ele>1408.47</ele>
        <time>2025-04-12T09:33:18Z</time>
      </trkpt>
      <trkpt lat="44.81691" lon="3.49472">
        <ele>1408.95</ele>
        <time>2025-04-12T09:33:07Z</time>
      </trkpt>
      <trkpt lat="44.81682" lon="3.49545">
        <ele>1415.2</ele>
        <time>2025-04-12T09:32:54Z</time>
      </trkpt>
      <trkpt lat="44.81723" lon="3.49654">
        <ele>1421.45</ele>
        <time>2025-04-12T09:32:39Z</time>
      </trkpt>
      <trkpt lat="44.81733" lon="3.4967">
        <ele>1420.97</ele>
        <time>2025-04-12T09:32:38Z</time>
      </trkpt>
      <trkpt lat="44.81754" lon="3.49675">
        <ele>1420</ele>
        <time>2025-04-12T09:32:27Z</time>
      </trkpt>
      <trkpt lat="44.81817" lon="3.49642">
        <ele>1419.04</ele>
        <time>2025-04-12T09:32:13Z</time>
      </trkpt>
      <trkpt lat="44.81819" lon="3.49642">
        <ele>1419.04</ele>
        <time>2025-04-12T09:32:12Z</time>
      </trkpt>
      <trkpt lat="44.8182" lon="3.49642">
        <ele>1419.04</ele>
        <time>2025-04-12T09:32:11Z</time>
      </trkpt>
      <trkpt lat="44.81822" lon="3.49641">
        <ele>1419.04</ele>
        <time>2025-04-12T09:32:10Z</time>
      </trkpt>
      <trkpt lat="44.81824" lon="3.49641">
        <ele>1419.04</ele>
        <time>2025-04-12T09:32:09Z</time>
      </trkpt>
      <trkpt lat="44.81826" lon="3.4964">
        <ele>1419.04</ele>
        <time>2025-04-12T09:32:08Z</time>
      </trkpt>
      <trkpt lat="44.81829" lon="3.4964">
        <ele>1419.04</ele>
        <time>2025-04-12T09:32:07Z</time>
      </trkpt>
      <trkpt lat="44.81831" lon="3.49641">
        <ele>1419.04</ele>
        <time>2025-04-12T09:32:06Z</time>
      </trkpt>
      <trkpt lat="44.81834" lon="3.49643">
        <ele>1419.04</ele>
        <time>2025-04-12T09:32:05Z</time>
      </trkpt>
      <trkpt lat="44.81837" lon="3.49645">
        <ele>1419.04</ele>
        <time>2025-04-12T09:32:04Z</time>
      </trkpt>
      <trkpt lat="44.8184" lon="3.49647">
        <ele>1418.56</ele>
        <time>2025-04-12T09:32:03Z</time>
      </trkpt>
      <trkpt lat="44.81844" lon="3.49651">
        <ele>1418.56</ele>
        <time>2025-04-12T09:32:02Z</time>
      </trkpt>
      <trkpt lat="44.81879" lon="3.49652">
        <ele>1417.6</ele>
        <time>2025-04-12T09:31:51Z</time>
      </trkpt>
      <trkpt lat="44.81916" lon="3.49635">
        <ele>1417.12</ele>
        <time>2025-04-12T09:31:36Z</time>
      </trkpt>
      <trkpt lat="44.81946" lon="3.49629">
        <ele>1417.6</ele>
        <time>2025-04-12T09:31:21Z</time>
      </trkpt>
      <trkpt lat="44.81985" lon="3.49652">
        <ele>1417.6</ele>
        <time>2025-04-12T09:31:07Z</time>
      </trkpt>
      <trkpt lat="44.82019" lon="3.49677">
        <ele>1420.49</ele>
        <time>2025-04-12T09:30:52Z</time>
      </trkpt>
      <trkpt lat="44.82022" lon="3.49679">
        <ele>1420.97</ele>
        <time>2025-04-12T09:30:51Z</time>
      </trkpt>
      <trkpt lat="44.82024" lon="3.4968">
        <ele>1421.45</ele>
        <time>2025-04-12T09:30:50Z</time>
      </trkpt>
      <trkpt lat="44.82026" lon="3.49683">
        <ele>1422.41</ele>
        <time>2025-04-12T09:30:49Z</time>
      </trkpt>
      <trkpt lat="44.82027" lon="3.49685">
        <ele>1422.41</ele>
        <time>2025-04-12T09:30:48Z</time>
      </trkpt>
      <trkpt lat="44.82029" lon="3.49687">
        <ele>1422.89</ele>
        <time>2025-04-12T09:30:47Z</time>
      </trkpt>
      <trkpt lat="44.82048" lon="3.49704">
        <ele>1426.73</ele>
        <time>2025-04-12T09:30:34Z</time>
      </trkpt>
      <trkpt lat="44.82067" lon="3.49725">
        <ele>1433.94</ele>
        <time>2025-04-12T09:30:19Z</time>
      </trkpt>
      <trkpt lat="44.82096" lon="3.49758">
        <ele>1441.15</ele>
        <time>2025-04-12T09:30:01Z</time>
      </trkpt>
      <trkpt lat="44.82122" lon="3.49768">
        <ele>1432.02</ele>
        <time>2025-04-12T09:29:42Z</time>
      </trkpt>
      <trkpt lat="44.82147" lon="3.49794">
        <ele>1430.1</ele>
        <time>2025-04-12T09:29:25Z</time>
      </trkpt>
      <trkpt lat="44.82176" lon="3.49816">
        <ele>1428.66</ele>
        <time>2025-04-12T09:29:09Z</time>
      </trkpt>
      <trkpt lat="44.82195" lon="3.4983">
        <ele>1422.89</ele>
        <time>2025-04-12T09:28:53Z</time>
      </trkpt>
      <trkpt lat="44.82211" lon="3.49842">
        <ele>1418.08</ele>
        <time>2025-04-12T09:28:38Z</time>
      </trkpt>
      <trkpt lat="44.82213" lon="3.49844">
        <ele>1417.6</ele>
        <time>2025-04-12T09:28:37Z</time>
      </trkpt>
      <trkpt lat="44.82215" lon="3.49845">
        <ele>1417.12</ele>
        <time>2025-04-12T09:28:36Z</time>
      </trkpt>
      <trkpt lat="44.82226" lon="3.4987">
        <ele>1414.24</ele>
        <time>2025-04-12T09:28:23Z</time>
      </trkpt>
      <trkpt lat="44.82228" lon="3.49874">
        <ele>1414.24</ele>
        <time>2025-04-12T09:28:21Z</time>
      </trkpt>
      <trkpt lat="44.82237" lon="3.49912">
        <ele>1411.83</ele>
        <time>2025-04-12T09:28:04Z</time>
      </trkpt>
      <trkpt lat="44.82242" lon="3.49941">
        <ele>1406.55</ele>
        <time>2025-04-12T09:27:48Z</time>
      </trkpt>
      <trkpt lat="44.82243" lon="3.49943">
        <ele>1406.07</ele>
        <time>2025-04-12T09:27:47Z</time>
      </trkpt>
      <trkpt lat="44.82243" lon="3.49945">
        <ele>1405.58</ele>
        <time>2025-04-12T09:27:46Z</time>
      </trkpt>
      <trkpt lat="44.82243" lon="3.49947">
        <ele>1405.1</ele>
        <time>2025-04-12T09:27:45Z</time>
      </trkpt>
      <trkpt lat="44.82243" lon="3.49949">
        <ele>1405.1</ele>
        <time>2025-04-12T09:27:44Z</time>
      </trkpt>
      <trkpt lat="44.82243" lon="3.49951">
        <ele>1405.1</ele>
        <time>2025-04-12T09:27:43Z</time>
      </trkpt>
      <trkpt lat="44.82246" lon="3.49971">
        <ele>1404.62</ele>
        <time>2025-04-12T09:27:35Z</time>
      </trkpt>
      <trkpt lat="44.82246" lon="3.49978">
        <ele>1405.1</ele>
        <time>2025-04-12T09:27:32Z</time>
      </trkpt>
      <trkpt lat="44.82251" lon="3.50015">
        <ele>1406.55</ele>
        <time>2025-04-12T09:27:15Z</time>
      </trkpt>
      <trkpt lat="44.82251" lon="3.50041">
        <ele>1404.62</ele>
        <time>2025-04-12T09:27:01Z</time>
      </trkpt>
      <trkpt lat="44.82252" lon="3.50075">
        <ele>1402.7</ele>
        <time>2025-04-12T09:26:45Z</time>
      </trkpt>
      <trkpt lat="44.82255" lon="3.50103">
        <ele>1399.82</ele>
        <time>2025-04-12T09:26:31Z</time>
      </trkpt>
      <trkpt lat="44.82272" lon="3.50149">
        <ele>1395.49</ele>
        <time>2025-04-12T09:26:14Z</time>
      </trkpt>
      <trkpt lat="44.82283" lon="3.50173">
        <ele>1394.05</ele>
        <time>2025-04-12T09:26:00Z</time>
      </trkpt>
      <trkpt lat="44.82306" lon="3.50212">
        <ele>1397.89</ele>
        <time>2025-04-12T09:25:43Z</time>
      </trkpt>
      <trkpt lat="44.82326" lon="3.50248">
        <ele>1406.55</ele>
        <time>2025-04-12T09:25:28Z</time>
      </trkpt>
      <trkpt lat="44.82344" lon="3.50264">
        <ele>1406.07</ele>
        <time>2025-04-12T09:25:13Z</time>
      </trkpt>
      <trkpt lat="44.82376" lon="3.50289">
        <ele>1406.07</ele>
        <time>2025-04-12T09:24:54Z</time>
      </trkpt>
      <trkpt lat="44.82379" lon="3.50291">
        <ele>1405.58</ele>
        <time>2025-04-12T09:24:53Z</time>
      </trkpt>
      <trkpt lat="44.82386" lon="3.50292">
        <ele>1405.1</ele>
        <time>2025-04-12T09:24:49Z</time>
      </trkpt>
      <trkpt lat="44.82389" lon="3.50291">
        <ele>1404.62</ele>
        <time>2025-04-12T09:24:47Z</time>
      </trkpt>
      <trkpt lat="44.82417" lon="3.50298">
        <ele>1402.22</ele>
        <time>2025-04-12T09:24:31Z</time>
      </trkpt>
      <trkpt lat="44.82427" lon="3.50298">
        <ele>1400.78</ele>
        <time>2025-04-12T09:24:24Z</time>
      </trkpt>
      <trkpt lat="44.82461" lon="3.50315">
        <ele>1397.41</ele>
        <time>2025-04-12T09:24:06Z</time>
      </trkpt>
      <trkpt lat="44.82491" lon="3.50313">
        <ele>1393.57</ele>
        <time>2025-04-12T09:23:48Z</time>
      </trkpt>
      <trkpt lat="44.82507" lon="3.5031">
        <ele>1391.17</ele>
        <time>2025-04-12T09:23:35Z</time>
      </trkpt>
      <trkpt lat="44.82546" lon="3.50332">
        <ele>1388.28</ele>
        <time>2025-04-12T09:23:20Z</time>
      </trkpt>
      <trkpt lat="44.82548" lon="3.50333">
        <ele>1388.28</ele>
        <time>2025-04-12T09:23:19Z</time>
      </trkpt>
      <trkpt lat="44.8255" lon="3.50333">
        <ele>1387.8</ele>
        <time>2025-04-12T09:23:18Z</time>
      </trkpt>
      <trkpt lat="44.82553" lon="3.50332">
        <ele>1385.88</ele>
        <time>2025-04-12T09:23:00Z</time>
      </trkpt>
      <trkpt lat="44.82552" lon="3.50351">
        <ele>1385.4</ele>
        <time>2025-04-12T09:22:46Z</time>
      </trkpt>
      <trkpt lat="44.8253" lon="3.50383">
        <ele>1385.4</ele>
        <time>2025-04-12T09:22:28Z</time>
      </trkpt>
      <trkpt lat="44.82512" lon="3.50399">
        <ele>1384.44</ele>
        <time>2025-04-12T09:22:14Z</time>
      </trkpt>
      <trkpt lat="44.8251" lon="3.504">
        <ele>1384.44</ele>
        <time>2025-04-12T09:22:13Z</time>
      </trkpt>
      <trkpt lat="44.82491" lon="3.50417">
        <ele>1391.65</ele>
        <time>2025-04-12T09:22:02Z</time>
      </trkpt>
      <trkpt lat="44.82474" lon="3.50422">
        <ele>1391.17</ele>
        <time>2025-04-12T09:21:50Z</time>
      </trkpt>
      <trkpt lat="44.82453" lon="3.50444">
        <ele>1393.57</ele>
        <time>2025-04-12T09:21:34Z</time>
      </trkpt>
      <trkpt lat="44.8243" lon="3.50478">
        <ele>1399.82</ele>
        <time>2025-04-12T09:21:15Z</time>
      </trkpt>
      <trkpt lat="44.82418" lon="3.50511">
        <ele>1398.37</ele>
        <time>2025-04-12T09:20:57Z</time>
      </trkpt>
      <trkpt lat="44.82418" lon="3.50513">
        <ele>1398.37</ele>
        <time>2025-04-12T09:20:56Z</time>
      </trkpt>
      <trkpt lat="44.82418" lon="3.50523">
        <ele>1398.86</ele>
        <time>2025-04-12T09:20:51Z</time>
      </trkpt>
      <trkpt lat="44.82406" lon="3.50554">
        <ele>1398.37</ele>
        <time>2025-04-12T09:20:36Z</time>
      </trkpt>
      <trkpt lat="44.82404" lon="3.50581">
        <ele>1395.49</ele>
        <time>2025-04-12T09:20:21Z</time>
      </trkpt>
      <trkpt lat="44.82403" lon="3.50612">
        <ele>1391.65</ele>
        <time>2025-04-12T09:20:06Z</time>
      </trkpt>
      <trkpt lat="44.82409" lon="3.50636">
        <ele>1386.36</ele>
        <time>2025-04-12T09:19:53Z</time>
      </trkpt>
      <trkpt lat="44.82417" lon="3.50654">
        <ele>1379.15</ele>
        <time>2025-04-12T09:19:39Z</time>
      </trkpt>
      <trkpt lat="44.82417" lon="3.50656">
        <ele>1378.67</ele>
        <time>2025-04-12T09:19:38Z</time>
      </trkpt>
      <trkpt lat="44.82418" lon="3.50658">
        <ele>1378.19</ele>
        <time>2025-04-12T09:19:37Z</time>
      </trkpt>
      <trkpt lat="44.8242" lon="3.50669">
        <ele>1374.82</ele>
        <time>2025-04-12T09:19:30Z</time>
      </trkpt>
      <trkpt lat="44.8242" lon="3.50704">
        <ele>1372.42</ele>
        <time>2025-04-12T09:19:13Z</time>
      </trkpt>
      <trkpt lat="44.82419" lon="3.50707">
        <ele>1372.42</ele>
        <time>2025-04-12T09:19:12Z</time>
      </trkpt>
      <trkpt lat="44.82419" lon="3.5071">
        <ele>1371.94</ele>
        <time>2025-04-12T09:19:11Z</time>
      </trkpt>
      <trkpt lat="44.82418" lon="3.50713">
        <ele>1371.94</ele>
        <time>2025-04-12T09:19:10Z</time>
      </trkpt>
      <trkpt lat="44.82417" lon="3.50716">
        <ele>1371.94</ele>
        <time>2025-04-12T09:19:09Z</time>
      </trkpt>
      <trkpt lat="44.82415" lon="3.50729">
        <ele>1370.98</ele>
        <time>2025-04-12T09:19:04Z</time>
      </trkpt>
      <trkpt lat="44.8242" lon="3.50733">
        <ele>1370.02</ele>
        <time>2025-04-12T09:18:59Z</time>
      </trkpt>
      <trkpt lat="44.82435" lon="3.50761">
        <ele>1365.69</ele>
        <time>2025-04-12T09:18:42Z</time>
      </trkpt>
      <trkpt lat="44.82436" lon="3.508">
        <ele>1365.69</ele>
        <time>2025-04-12T09:18:24Z</time>
      </trkpt>
      <trkpt lat="44.82423" lon="3.50832">
        <ele>1366.65</ele>
        <time>2025-04-12T09:18:07Z</time>
      </trkpt>
      <trkpt lat="44.82408" lon="3.50869">
        <ele>1367.61</ele>
        <time>2025-04-12T09:17:48Z</time>
      </trkpt>
      <trkpt lat="44.82392" lon="3.50909">
        <ele>1366.17</ele>
        <time>2025-04-12T09:17:28Z</time>
      </trkpt>
      <trkpt lat="44.82374" lon="3.50937">
        <ele>1366.17</ele>
        <time>2025-04-12T09:17:12Z</time>
      </trkpt>
      <trkpt lat="44.82363" lon="3.50962">
        <ele>1367.13</ele>
        <time>2025-04-12T09:16:56Z</time>
      </trkpt>
      <trkpt lat="44.82361" lon="3.50979">
        <ele>1366.65</ele>
        <time>2025-04-12T09:16:42Z</time>
      </trkpt>
      <trkpt lat="44.82363" lon="3.5102">
        <ele>1367.61</ele>
        <time>2025-04-12T09:16:26Z</time>
      </trkpt>
      <trkpt lat="44.82376" lon="3.51063">
        <ele>1369.05</ele>
        <time>2025-04-12T09:16:07Z</time>
      </trkpt>
      <trkpt lat="44.82383" lon="3.5108">
        <ele>1368.09</ele>
        <time>2025-04-12T09:15:57Z</time>
      </trkpt>
      <trkpt lat="44.82388" lon="3.51088">
        <ele>1367.61</ele>
        <time>2025-04-12T09:15:53Z</time>
      </trkpt>
      <trkpt lat="44.82396" lon="3.51102">
        <ele>1366.17</ele>
        <time>2025-04-12T09:15:43Z</time>
      </trkpt>
      <trkpt lat="44.82397" lon="3.51103">
        <ele>1366.17</ele>
        <time>2025-04-12T09:15:42Z</time>
      </trkpt>
      <trkpt lat="44.82416" lon="3.51123">
        <ele>1364.73</ele>
        <time>2025-04-12T09:15:26Z</time>
      </trkpt>
      <trkpt lat="44.8244" lon="3.51144">
        <ele>1355.12</ele>
        <time>2025-04-12T09:15:07Z</time>
      </trkpt>
      <trkpt lat="44.82445" lon="3.51183">
        <ele>1317.14</ele>
        <time>2025-04-12T09:14:47Z</time>
      </trkpt>
      <trkpt lat="44.82457" lon="3.51213">
        <ele>1315.7</ele>
        <time>2025-04-12T09:14:27Z</time>
      </trkpt>
      <trkpt lat="44.82468" lon="3.51249">
        <ele>1311.38</ele>
        <time>2025-04-12T09:14:09Z</time>
      </trkpt>
      <trkpt lat="44.82469" lon="3.51259">
        <ele>1310.9</ele>
        <time>2025-04-12T09:14:03Z</time>
      </trkpt>
      <trkpt lat="44.82478" lon="3.5128">
        <ele>1308.97</ele>
        <time>2025-04-12T09:13:40Z</time>
      </trkpt>
      <trkpt lat="44.82503" lon="3.51291">
        <ele>1305.61</ele>
        <time>2025-04-12T09:13:18Z</time>
      </trkpt>
      <trkpt lat="44.82532" lon="3.51291">
        <ele>1301.76</ele>
        <time>2025-04-12T09:13:00Z</time>
      </trkpt>
      <trkpt lat="44.82558" lon="3.5129">
        <ele>1298.88</ele>
        <time>2025-04-12T09:12:42Z</time>
      </trkpt>
      <trkpt lat="44.8259" lon="3.51302">
        <ele>1294.07</ele>
        <time>2025-04-12T09:12:17Z</time>
      </trkpt>
      <trkpt lat="44.82618" lon="3.51302">
        <ele>1290.71</ele>
        <time>2025-04-12T09:11:59Z</time>
      </trkpt>
      <trkpt lat="44.8265" lon="3.5131">
        <ele>1283.02</ele>
        <time>2025-04-12T09:11:36Z</time>
      </trkpt>
      <trkpt lat="44.82656" lon="3.51301">
        <ele>1281.57</ele>
        <time>2025-04-12T09:11:30Z</time>
      </trkpt>
      <trkpt lat="44.82678" lon="3.51292">
        <ele>1278.69</ele>
        <time>2025-04-12T09:11:14Z</time>
      </trkpt>
      <trkpt lat="44.82701" lon="3.51309">
        <ele>1271.96</ele>
        <time>2025-04-12T09:10:54Z</time>
      </trkpt>
      <trkpt lat="44.82725" lon="3.51318">
        <ele>1265.23</ele>
        <time>2025-04-12T09:10:31Z</time>
      </trkpt>
      <trkpt lat="44.82746" lon="3.51343">
        <ele>1255.62</ele>
        <time>2025-04-12T09:10:13Z</time>
      </trkpt>
      <trkpt lat="44.82762" lon="3.51343">
        <ele>1254.66</ele>
        <time>2025-04-12T09:09:53Z</time>
      </trkpt>
      <trkpt lat="44.82794" lon="3.51341">
        <ele>1255.14</ele>
        <time>2025-04-12T09:09:36Z</time>
      </trkpt>
      <trkpt lat="44.82824" lon="3.51327">
        <ele>1255.62</ele>
        <time>2025-04-12T09:09:21Z</time>
      </trkpt>
      <trkpt lat="44.82826" lon="3.51327">
        <ele>1256.1</ele>
        <time>2025-04-12T09:09:20Z</time>
      </trkpt>
      <trkpt lat="44.82854" lon="3.51334">
        <ele>1255.62</ele>
        <time>2025-04-12T09:08:59Z</time>
      </trkpt>
      <trkpt lat="44.82856" lon="3.51335">
        <ele>1255.62</ele>
        <time>2025-04-12T09:08:58Z</time>
      </trkpt>
      <trkpt lat="44.82857" lon="3.51336">
        <ele>1255.62</ele>
        <time>2025-04-12T09:08:57Z</time>
      </trkpt>
      <trkpt lat="44.82859" lon="3.51338">
        <ele>1255.62</ele>
        <time>2025-04-12T09:08:56Z</time>
      </trkpt>
      <trkpt lat="44.82885" lon="3.51376">
        <ele>1254.18</ele>
        <time>2025-04-12T09:08:31Z</time>
      </trkpt>
      <trkpt lat="44.82902" lon="3.51426">
        <ele>1251.77</ele>
        <time>2025-04-12T09:08:07Z</time>
      </trkpt>
      <trkpt lat="44.82913" lon="3.51486">
        <ele>1249.85</ele>
        <time>2025-04-12T09:07:43Z</time>
      </trkpt>
      <trkpt lat="44.82927" lon="3.5153">
        <ele>1249.37</ele>
        <time>2025-04-12T09:07:22Z</time>
      </trkpt>
      <trkpt lat="44.82939" lon="3.51579">
        <ele>1248.89</ele>
        <time>2025-04-12T09:06:58Z</time>
      </trkpt>
      <trkpt lat="44.82953" lon="3.51608">
        <ele>1247.93</ele>
        <time>2025-04-12T09:06:37Z</time>
      </trkpt>
      <trkpt lat="44.82957" lon="3.51619">
        <ele>1247.93</ele>
        <time>2025-04-12T09:06:10Z</time>
      </trkpt>
      <trkpt lat="44.82963" lon="3.5165">
        <ele>1246.49</ele>
        <time>2025-04-12T09:05:49Z</time>
      </trkpt>
      <trkpt lat="44.82979" lon="3.51699">
        <ele>1244.56</ele>
        <time>2025-04-12T09:05:25Z</time>
      </trkpt>
      <trkpt lat="44.82988" lon="3.51738">
        <ele>1243.6</ele>
        <time>2025-04-12T09:05:07Z</time>
      </trkpt>
      <trkpt lat="44.83001" lon="3.51791">
        <ele>1241.68</ele>
        <time>2025-04-12T09:04:43Z</time>
      </trkpt>
      <trkpt lat="44.83009" lon="3.51835">
        <ele>1241.2</ele>
        <time>2025-04-12T09:04:22Z</time>
      </trkpt>
      <trkpt lat="44.83018" lon="3.51925">
        <ele>1240.72</ele>
        <time>2025-04-12T09:03:59Z</time>
      </trkpt>
      <trkpt lat="44.83031" lon="3.52">
        <ele>1240.24</ele>
        <time>2025-04-12T09:03:34Z</time>
      </trkpt>
      <trkpt lat="44.83032" lon="3.52004">
        <ele>1240.24</ele>
        <time>2025-04-12T09:03:33Z</time>
      </trkpt>
      <trkpt lat="44.83037" lon="3.52035">
        <ele>1240.24</ele>
        <time>2025-04-12T09:03:23Z</time>
      </trkpt>
      <trkpt lat="44.83053" lon="3.52089">
        <ele>1240.72</ele>
        <time>2025-04-12T09:03:01Z</time>
      </trkpt>
      <trkpt lat="44.83109" lon="3.5207">
        <ele>1240.72</ele>
        <time>2025-04-12T09:02:28Z</time>
      </trkpt>
      <trkpt lat="44.83112" lon="3.52069">
        <ele>1240.72</ele>
        <time>2025-04-12T09:02:27Z</time>
      </trkpt>
      <trkpt lat="44.83114" lon="3.52067">
        <ele>1240.72</ele>
        <time>2025-04-12T09:02:26Z</time>
      </trkpt>
      <trkpt lat="44.83117" lon="3.52066">
        <ele>1240.72</ele>
        <time>2025-04-12T09:02:25Z</time>
      </trkpt>
      <trkpt lat="44.83119" lon="3.52066">
        <ele>1240.72</ele>
        <time>2025-04-12T09:02:24Z</time>
      </trkpt>
      <trkpt lat="44.83121" lon="3.52065">
        <ele>1240.72</ele>
        <time>2025-04-12T09:02:23Z</time>
      </trkpt>
      <trkpt lat="44.83123" lon="3.52065">
        <ele>1240.72</ele>
        <time>2025-04-12T09:02:22Z</time>
      </trkpt>
      <trkpt lat="44.83125" lon="3.52065">
        <ele>1240.72</ele>
        <time>2025-04-12T09:02:21Z</time>
      </trkpt>
      <trkpt lat="44.83127" lon="3.52065">
        <ele>1240.72</ele>
        <time>2025-04-12T09:02:20Z</time>
      </trkpt>
      <trkpt lat="44.83129" lon="3.52066">
        <ele>1240.72</ele>
        <time>2025-04-12T09:02:19Z</time>
      </trkpt>
      <trkpt lat="44.83154" lon="3.52101">
        <ele>1240.72</ele>
        <time>2025-04-12T09:01:56Z</time>
      </trkpt>
      <trkpt lat="44.83175" lon="3.521">
        <ele>1240.72</ele>
        <time>2025-04-12T09:01:45Z</time>
      </trkpt>
      <trkpt lat="44.83224" lon="3.52122">
        <ele>1240.72</ele>
        <time>2025-04-12T09:01:22Z</time>
      </trkpt>
      <trkpt lat="44.83234" lon="3.52138">
        <ele>1241.2</ele>
        <time>2025-04-12T09:01:11Z</time>
      </trkpt>
      <trkpt lat="44.83236" lon="3.52176">
        <ele>1240.72</ele>
        <time>2025-04-12T09:00:51Z</time>
      </trkpt>
      <trkpt lat="44.83239" lon="3.52185">
        <ele>1240.72</ele>
        <time>2025-04-12T09:00:45Z</time>
      </trkpt>
      <trkpt lat="44.8327" lon="3.52209">
        <ele>1241.2</ele>
        <time>2025-04-12T09:00:26Z</time>
      </trkpt>
      <trkpt lat="44.83272" lon="3.52211">
        <ele>1241.2</ele>
        <time>2025-04-12T09:00:25Z</time>
      </trkpt>
      <trkpt lat="44.83272" lon="3.52212">
        <ele>1241.2</ele>
        <time>2025-04-12T09:00:24Z</time>
      </trkpt>
      <trkpt lat="44.83276" lon="3.52219">
        <ele>1241.2</ele>
        <time>2025-04-12T09:00:18Z</time>
      </trkpt>
      <trkpt lat="44.83306" lon="3.52252">
        <ele>1241.2</ele>
        <time>2025-04-12T08:59:57Z</time>
      </trkpt>
      <trkpt lat="44.83327" lon="3.52289">
        <ele>1240.72</ele>
        <time>2025-04-12T08:59:36Z</time>
      </trkpt>
      <trkpt lat="44.83362" lon="3.52314">
        <ele>1240.24</ele>
        <time>2025-04-12T08:59:13Z</time>
      </trkpt>
      <trkpt lat="44.83393" lon="3.52349">
        <ele>1239.76</ele>
        <time>2025-04-12T08:58:50Z</time>
      </trkpt>
      <trkpt lat="44.83417" lon="3.52385">
        <ele>1238.8</ele>
        <time>2025-04-12T08:58:31Z</time>
      </trkpt>
      <trkpt lat="44.83438" lon="3.52392">
        <ele>1238.8</ele>
        <time>2025-04-12T08:58:13Z</time>
      </trkpt>
      <trkpt lat="44.83461" lon="3.52413">
        <ele>1238.8</ele>
        <time>2025-04-12T08:57:54Z</time>
      </trkpt>
      <trkpt lat="44.83491" lon="3.52456">
        <ele>1238.8</ele>
        <time>2025-04-12T08:57:39Z</time>
      </trkpt>
      <trkpt lat="44.83558" lon="3.52532">
        <ele>1238.32</ele>
        <time>2025-04-12T08:57:21Z</time>
      </trkpt>
      <trkpt lat="44.83623" lon="3.52604">
        <ele>1238.32</ele>
        <time>2025-04-12T08:57:04Z</time>
      </trkpt>
      <trkpt lat="44.83646" lon="3.52651">
        <ele>1238.32</ele>
        <time>2025-04-12T08:56:57Z</time>
      </trkpt>
      <trkpt lat="44.83653" lon="3.52662">
        <ele>1238.32</ele>
        <time>2025-04-12T08:56:55Z</time>
      </trkpt>
      <trkpt lat="44.83727" lon="3.52739">
        <ele>1238.32</ele>
        <time>2025-04-12T08:56:35Z</time>
      </trkpt>
      <trkpt lat="44.83794" lon="3.52811">
        <ele>1237.35</ele>
        <time>2025-04-12T08:56:17Z</time>
      </trkpt>
      <trkpt lat="44.83832" lon="3.52867">
        <ele>1234.95</ele>
        <time>2025-04-12T08:56:03Z</time>
      </trkpt>
      <trkpt lat="44.83874" lon="3.52917">
        <ele>1231.59</ele>
        <time>2025-04-12T08:55:47Z</time>
      </trkpt>
      <trkpt lat="44.83865" lon="3.52969">
        <ele>1229.18</ele>
        <time>2025-04-12T08:55:37Z</time>
      </trkpt>
      <trkpt lat="44.83843" lon="3.53034">
        <ele>1223.42</ele>
        <time>2025-04-12T08:55:24Z</time>
      </trkpt>
      <trkpt lat="44.83848" lon="3.53114">
        <ele>1219.09</ele>
        <time>2025-04-12T08:55:08Z</time>
      </trkpt>
      <trkpt lat="44.83842" lon="3.53178">
        <ele>1213.32</ele>
        <time>2025-04-12T08:54:53Z</time>
      </trkpt>
      <trkpt lat="44.83814" lon="3.53264">
        <ele>1209</ele>
        <time>2025-04-12T08:54:38Z</time>
      </trkpt>
      <trkpt lat="44.83783" lon="3.53363">
        <ele>1222.93</ele>
        <time>2025-04-12T08:54:23Z</time>
      </trkpt>
      <trkpt lat="44.83769" lon="3.53443">
        <ele>1218.61</ele>
        <time>2025-04-12T08:54:07Z</time>
      </trkpt>
      <trkpt lat="44.83745" lon="3.53528">
        <ele>1217.17</ele>
        <time>2025-04-12T08:53:50Z</time>
      </trkpt>
      <trkpt lat="44.83716" lon="3.53597">
        <ele>1217.17</ele>
        <time>2025-04-12T08:53:35Z</time>
      </trkpt>
      <trkpt lat="44.83697" lon="3.5365">
        <ele>1220.05</ele>
        <time>2025-04-12T08:53:20Z</time>
      </trkpt>
      <trkpt lat="44.83684" lon="3.53692">
        <ele>1218.13</ele>
        <time>2025-04-12T08:53:09Z</time>
      </trkpt>
      <trkpt lat="44.83681" lon="3.53699">
        <ele>1218.13</ele>
        <time>2025-04-12T08:53:08Z</time>
      </trkpt>
      <trkpt lat="44.83651" lon="3.53752">
        <ele>1218.13</ele>
        <time>2025-04-12T08:52:53Z</time>
      </trkpt>
      <trkpt lat="44.83632" lon="3.53802">
        <ele>1217.65</ele>
        <time>2025-04-12T08:52:29Z</time>
      </trkpt>
      <trkpt lat="44.83621" lon="3.53827">
        <ele>1217.65</ele>
        <time>2025-04-12T08:52:10Z</time>
      </trkpt>
      <trkpt lat="44.83598" lon="3.53856">
        <ele>1217.65</ele>
        <time>2025-04-12T08:51:49Z</time>
      </trkpt>
      <trkpt lat="44.83577" lon="3.53888">
        <ele>1218.13</ele>
        <time>2025-04-12T08:51:33Z</time>
      </trkpt>
      <trkpt lat="44.83586" lon="3.53932">
        <ele>1218.13</ele>
        <time>2025-04-12T08:51:13Z</time>
      </trkpt>
      <trkpt lat="44.83613" lon="3.5397">
        <ele>1215.72</ele>
        <time>2025-04-12T08:50:52Z</time>
      </trkpt>
      <trkpt lat="44.8363" lon="3.54009">
        <ele>1221.01</ele>
        <time>2025-04-12T08:50:33Z</time>
      </trkpt>
      <trkpt lat="44.83647" lon="3.54067">
        <ele>1207.55</ele>
        <time>2025-04-12T08:50:15Z</time>
      </trkpt>
      <trkpt lat="44.83685" lon="3.54079">
        <ele>1208.51</ele>
        <time>2025-04-12T08:49:51Z</time>
      </trkpt>
      <trkpt lat="44.83725" lon="3.54119">
        <ele>1209</ele>
        <time>2025-04-12T08:49:24Z</time>
      </trkpt>
      <trkpt lat="44.83757" lon="3.54138">
        <ele>1209</ele>
        <time>2025-04-12T08:49:03Z</time>
      </trkpt>
      <trkpt lat="44.83797" lon="3.54137">
        <ele>1209</ele>
        <time>2025-04-12T08:48:40Z</time>
      </trkpt>
      <trkpt lat="44.83829" lon="3.54122">
        <ele>1209</ele>
        <time>2025-04-12T08:48:19Z</time>
      </trkpt>
      <trkpt lat="44.83877" lon="3.54095">
        <ele>1205.15</ele>
        <time>2025-04-12T08:47:57Z</time>
      </trkpt>
      <trkpt lat="44.8388" lon="3.54094">
        <ele>1205.15</ele>
        <time>2025-04-12T08:47:56Z</time>
      </trkpt>
      <trkpt lat="44.83882" lon="3.54094">
        <ele>1205.15</ele>
        <time>2025-04-12T08:47:55Z</time>
      </trkpt>
      <trkpt lat="44.83906" lon="3.54119">
        <ele>1204.67</ele>
        <time>2025-04-12T08:47:33Z</time>
      </trkpt>
      <trkpt lat="44.83939" lon="3.54149">
        <ele>1201.79</ele>
        <time>2025-04-12T08:47:10Z</time>
      </trkpt>
      <trkpt lat="44.83968" lon="3.54175">
        <ele>1200.34</ele>
        <time>2025-04-12T08:46:49Z</time>
      </trkpt>
      <trkpt lat="44.83984" lon="3.54216">
        <ele>1198.42</ele>
        <time>2025-04-12T08:46:29Z</time>
      </trkpt>
      <trkpt lat="44.83994" lon="3.54262">
        <ele>1192.65</ele>
        <time>2025-04-12T08:46:04Z</time>
      </trkpt>
      <trkpt lat="44.8401" lon="3.54311">
        <ele>1182.08</ele>
        <time>2025-04-12T08:45:39Z</time>
      </trkpt>
      <trkpt lat="44.84014" lon="3.54356">
        <ele>1178.23</ele>
        <time>2025-04-12T08:45:19Z</time>
      </trkpt>
      <trkpt lat="44.84023" lon="3.54396">
        <ele>1179.67</ele>
        <time>2025-04-12T08:44:59Z</time>
      </trkpt>
      <trkpt lat="44.84046" lon="3.54434">
        <ele>1172.47</ele>
        <time>2025-04-12T08:44:37Z</time>
      </trkpt>
      <trkpt lat="44.84052" lon="3.54436">
        <ele>1168.14</ele>
        <time>2025-04-12T08:44:31Z</time>
      </trkpt>
      <trkpt lat="44.84082" lon="3.54435">
        <ele>1146.99</ele>
        <time>2025-04-12T08:44:10Z</time>
      </trkpt>
      <trkpt lat="44.84113" lon="3.54434">
        <ele>1144.59</ele>
        <time>2025-04-12T08:43:51Z</time>
      </trkpt>
      <trkpt lat="44.84143" lon="3.54427">
        <ele>1140.74</ele>
        <time>2025-04-12T08:43:30Z</time>
      </trkpt>
      <trkpt lat="44.84176" lon="3.54421">
        <ele>1134.49</ele>
        <time>2025-04-12T08:43:09Z</time>
      </trkpt>
      <trkpt lat="44.842" lon="3.54436">
        <ele>1130.17</ele>
        <time>2025-04-12T08:42:51Z</time>
      </trkpt>
      <trkpt lat="44.84242" lon="3.54447">
        <ele>1126.32</ele>
        <time>2025-04-12T08:42:30Z</time>
      </trkpt>
      <trkpt lat="44.84248" lon="3.54447">
        <ele>1125.84</ele>
        <time>2025-04-12T08:42:26Z</time>
      </trkpt>
      <trkpt lat="44.8427" lon="3.54464">
        <ele>1124.88</ele>
        <time>2025-04-12T08:42:06Z</time>
      </trkpt>
      <trkpt lat="44.84272" lon="3.54465">
        <ele>1124.88</ele>
        <time>2025-04-12T08:42:05Z</time>
      </trkpt>
      <trkpt lat="44.84277" lon="3.54496">
        <ele>1115.75</ele>
        <time>2025-04-12T08:41:47Z</time>
      </trkpt>
      <trkpt lat="44.84274" lon="3.54536">
        <ele>1113.82</ele>
        <time>2025-04-12T08:41:26Z</time>
      </trkpt>
      <trkpt lat="44.84281" lon="3.54594">
        <ele>1102.77</ele>
        <time>2025-04-12T08:41:02Z</time>
      </trkpt>
      <trkpt lat="44.84289" lon="3.54659">
        <ele>1098.92</ele>
        <time>2025-04-12T08:40:37Z</time>
      </trkpt>
      <trkpt lat="44.84301" lon="3.54712">
        <ele>1092.68</ele>
        <time>2025-04-12T08:40:14Z</time>
      </trkpt>
      <trkpt lat="44.84308" lon="3.54766">
        <ele>1084.99</ele>
        <time>2025-04-12T08:39:49Z</time>
      </trkpt>
      <trkpt lat="44.84302" lon="3.54818">
        <ele>1076.81</ele>
        <time>2025-04-12T08:39:29Z</time>
      </trkpt>
      <trkpt lat="44.84295" lon="3.54864">
        <ele>1060.95</ele>
        <time>2025-04-12T08:39:13Z</time>
      </trkpt>
      <trkpt lat="44.84295" lon="3.54895">
        <ele>1060.47</ele>
        <time>2025-04-12T08:38:53Z</time>
      </trkpt>
      <trkpt lat="44.84297" lon="3.54938">
        <ele>1048.45</ele>
        <time>2025-04-12T08:38:30Z</time>
      </trkpt>
      <trkpt lat="44.84297" lon="3.54984">
        <ele>1031.63</ele>
        <time>2025-04-12T08:38:07Z</time>
      </trkpt>
      <trkpt lat="44.843" lon="3.55029">
        <ele>1015.29</ele>
        <time>2025-04-12T08:37:45Z</time>
      </trkpt>
      <trkpt lat="44.84301" lon="3.55032">
        <ele>1015.29</ele>
        <time>2025-04-12T08:37:44Z</time>
      </trkpt>
      <trkpt lat="44.843" lon="3.55042">
        <ele>1016.73</ele>
        <time>2025-04-12T08:37:38Z</time>
      </trkpt>
      <trkpt lat="44.84295" lon="3.55084">
        <ele>1013.37</ele>
        <time>2025-04-12T08:37:18Z</time>
      </trkpt>
      <trkpt lat="44.84294" lon="3.55117">
        <ele>1013.85</ele>
        <time>2025-04-12T08:36:59Z</time>
      </trkpt>
      <trkpt lat="44.84295" lon="3.55157">
        <ele>1018.65</ele>
        <time>2025-04-12T08:36:37Z</time>
      </trkpt>
      <trkpt lat="44.84294" lon="3.55195">
        <ele>1026.34</ele>
        <time>2025-04-12T08:36:15Z</time>
      </trkpt>
      <trkpt lat="44.84291" lon="3.55239">
        <ele>1020.58</ele>
        <time>2025-04-12T08:35:54Z</time>
      </trkpt>
      <trkpt lat="44.84284" lon="3.55282">
        <ele>1022.5</ele>
        <time>2025-04-12T08:35:33Z</time>
      </trkpt>
      <trkpt lat="44.8428" lon="3.55325">
        <ele>1023.94</ele>
        <time>2025-04-12T08:35:08Z</time>
      </trkpt>
      <trkpt lat="44.84277" lon="3.55371">
        <ele>1049.9</ele>
        <time>2025-04-12T08:34:45Z</time>
      </trkpt>
      <trkpt lat="44.84277" lon="3.55384">
        <ele>1155.1</ele>
      </trkpt>
      <trkpt lat="44.84273" lon="3.55409">
        <ele>1153.2</ele>
      </trkpt>
      <trkpt lat="44.84267" lon="3.55428">
        <ele>1152</ele>
      </trkpt>
      <trkpt lat="44.84255" lon="3.55458">
        <ele>1150.7</ele>
      </trkpt>
      <trkpt lat="44.84245" lon="3.55481">
        <ele>1149.3</ele>
      </trkpt>
      <trkpt lat="44.84239" lon="3.55487">
        <ele>1148.7</ele>
      </trkpt>
      <trkpt lat="44.84234" lon="3.5549">
        <ele>1148.2</ele>
        <extensions>
          <visugpx:TrkExtension xmlns:visugpx="https://www.visugpx.com/editgpx/">
            <visugpx:node>1</visugpx:node>
            </visugpx:TrkExtension>
        </extensions>
      </trkpt>
      <trkpt lat="44.84233" lon="3.55491">
        <ele>1148.1</ele>
      </trkpt>
      <trkpt lat="44.84235" lon="3.55499">
        <ele>1148</ele>
      </trkpt>
      <trkpt lat="44.8424" lon="3.55511">
        <ele>1147.6</ele>
      </trkpt>
      <trkpt lat="44.84255" lon="3.55544">
        <ele>1146.6</ele>
      </trkpt>
      <trkpt lat="44.84265" lon="3.55569">
        <ele>1146.1</ele>
      </trkpt>
      <trkpt lat="44.84273" lon="3.55584">
        <ele>1146.4</ele>
      </trkpt>
      <trkpt lat="44.84284" lon="3.55601">
        <ele>1146</ele>
      </trkpt>
      <trkpt lat="44.84306" lon="3.55631">
        <ele>1145.6</ele>
      </trkpt>
      <trkpt lat="44.84323" lon="3.5565">
        <ele>1144.6</ele>
      </trkpt>
      <trkpt lat="44.84337" lon="3.55662">
        <ele>1144.1</ele>
      </trkpt>
      <trkpt lat="44.84346" lon="3.55667">
        <ele>1144</ele>
      </trkpt>
      <trkpt lat="44.84366" lon="3.55676">
        <ele>1142.9</ele>
      </trkpt>
      <trkpt lat="44.84374" lon="3.55684">
        <ele>1141.9</ele>
      </trkpt>
      <trkpt lat="44.84391" lon="3.55709">
        <ele>1141.1</ele>
      </trkpt>
      <trkpt lat="44.84399" lon="3.55722">
        <ele>1141.4</ele>
      </trkpt>
      <trkpt lat="44.84403" lon="3.55731">
        <ele>1141.8</ele>
      </trkpt>
      <trkpt lat="44.84405" lon="3.5574">
        <ele>1142.2</ele>
      </trkpt>
      <trkpt lat="44.84409" lon="3.55746">
        <ele>1142.6</ele>
      </trkpt>
      <trkpt lat="44.84407" lon="3.55748">
        <ele>1142.6</ele>
        <extensions>
          <visugpx:TrkExtension xmlns:visugpx="https://www.visugpx.com/editgpx/">
            <visugpx:node>2</visugpx:node>
            </visugpx:TrkExtension>
        </extensions>
      </trkpt>
      <trkpt lat="44.84409" lon="3.55746">
        <ele>1142.6</ele>
      </trkpt>
      <trkpt lat="44.84414" lon="3.55747">
        <ele>1142.8</ele>
      </trkpt>
      <trkpt lat="44.84419" lon="3.55746">
        <ele>1143</ele>
      </trkpt>
      <trkpt lat="44.84442" lon="3.55729">
        <ele>1143.8</ele>
      </trkpt>
      <trkpt lat="44.84475" lon="3.55706">
        <ele>1145.1</ele>
      </trkpt>
      <trkpt lat="44.84482" lon="3.55703">
        <ele>1145.4</ele>
      </trkpt>
      <trkpt lat="44.84486" lon="3.55704">
        <ele>1145.5</ele>
      </trkpt>
      <trkpt lat="44.84488" lon="3.55699">
        <ele>1145.6</ele>
      </trkpt>
      <trkpt lat="44.84495" lon="3.55693">
        <ele>1145.9</ele>
      </trkpt>
      <trkpt lat="44.84521" lon="3.55678">
        <ele>1147.3</ele>
      </trkpt>
      <trkpt lat="44.84578" lon="3.55643">
        <ele>1149</ele>
      </trkpt>
      <trkpt lat="44.84623" lon="3.55615">
        <ele>1150.4</ele>
      </trkpt>
      <trkpt lat="44.84651" lon="3.556">
        <ele>1151.4</ele>
      </trkpt>
      <trkpt lat="44.8466" lon="3.55596">
        <ele>1151.5</ele>
      </trkpt>
      <trkpt lat="44.84669" lon="3.55595">
        <ele>1151.7</ele>
      </trkpt>
      <trkpt lat="44.84704" lon="3.55594">
        <ele>1153.7</ele>
      </trkpt>
      <trkpt lat="44.84733" lon="3.55598">
        <ele>1155.8</ele>
      </trkpt>
      <trkpt lat="44.84765" lon="3.55603">
        <ele>1158.1</ele>
      </trkpt>
      <trkpt lat="44.84806" lon="3.55613">
        <ele>1159.9</ele>
      </trkpt>
      <trkpt lat="44.84825" lon="3.55618">
        <ele>1159.9</ele>
      </trkpt>
      <trkpt lat="44.84844" lon="3.55619">
        <ele>1160</ele>
      </trkpt>
      <trkpt lat="44.84862" lon="3.55618">
        <ele>1160</ele>
      </trkpt>
      <trkpt lat="44.84888" lon="3.55612">
        <ele>1160</ele>
      </trkpt>
      <trkpt lat="44.84894" lon="3.5561">
        <ele>1160</ele>
        <extensions>
          <visugpx:TrkExtension xmlns:visugpx="https://www.visugpx.com/editgpx/">
            <visugpx:node>3</visugpx:node>
            </visugpx:TrkExtension>
        </extensions>
      </trkpt>
      <trkpt lat="44.8492" lon="3.556">
        <ele>1159.8</ele>
      </trkpt>
      <trkpt lat="44.84964" lon="3.55586">
        <ele>1157.6</ele>
      </trkpt>
      <trkpt lat="44.84988" lon="3.55578">
        <ele>1155.9</ele>
      </trkpt>
      <trkpt lat="44.84999" lon="3.55571">
        <ele>1155.1</ele>
      </trkpt>
      <trkpt lat="44.85009" lon="3.55562">
        <ele>1154.7</ele>
      </trkpt>
      <trkpt lat="44.85017" lon="3.55551">
        <ele>1154.5</ele>
      </trkpt>
      <trkpt lat="44.8503" lon="3.55533">
        <ele>1153.9</ele>
      </trkpt>
      <trkpt lat="44.85042" lon="3.55519">
        <ele>1154</ele>
      </trkpt>
      <trkpt lat="44.85052" lon="3.55511">
        <ele>1154.3</ele>
      </trkpt>
      <trkpt lat="44.85066" lon="3.55508">
        <ele>1154.4</ele>
      </trkpt>
      <trkpt lat="44.85074" lon="3.55503">
        <ele>1154.8</ele>
      </trkpt>
      <trkpt lat="44.85077" lon="3.555">
        <ele>1155</ele>
      </trkpt>
      <trkpt lat="44.85078" lon="3.55504">
        <ele>1154.7</ele>
      </trkpt>
      <trkpt lat="44.85083" lon="3.55506">
        <ele>1154.6</ele>
      </trkpt>
      <trkpt lat="44.8509" lon="3.5551">
        <ele>1154.3</ele>
      </trkpt>
      <trkpt lat="44.851" lon="3.5551">
        <ele>1154.3</ele>
      </trkpt>
      <trkpt lat="44.85118" lon="3.55506">
        <ele>1154.9</ele>
      </trkpt>
      <trkpt lat="44.85134" lon="3.55526">
        <ele>1154.7</ele>
      </trkpt>
      <trkpt lat="44.85147" lon="3.55542">
        <ele>1154.9</ele>
      </trkpt>
      <trkpt lat="44.85156" lon="3.55551">
        <ele>1155.3</ele>
      </trkpt>
      <trkpt lat="44.8517" lon="3.5556">
        <ele>1155.7</ele>
      </trkpt>
      <trkpt lat="44.85179" lon="3.55568">
        <ele>1155.5</ele>
      </trkpt>
      <trkpt lat="44.85193" lon="3.55583">
        <ele>1155.9</ele>
      </trkpt>
      <trkpt lat="44.85204" lon="3.55597">
        <ele>1155.8</ele>
      </trkpt>
      <trkpt lat="44.85213" lon="3.55607">
        <ele>1156.3</ele>
      </trkpt>
      <trkpt lat="44.85224" lon="3.55617">
        <ele>1157.3</ele>
      </trkpt>
      <trkpt lat="44.85243" lon="3.55633">
        <ele>1159.3</ele>
      </trkpt>
      <trkpt lat="44.85258" lon="3.55647">
        <ele>1160.1</ele>
      </trkpt>
      <trkpt lat="44.85269" lon="3.55656">
        <ele>1160.5</ele>
      </trkpt>
      <trkpt lat="44.85276" lon="3.55662">
        <ele>1160.9</ele>
      </trkpt>
      <trkpt lat="44.85285" lon="3.55674">
        <ele>1161.6</ele>
      </trkpt>
      <trkpt lat="44.85295" lon="3.5569">
        <ele>1162.5</ele>
      </trkpt>
      <trkpt lat="44.85312" lon="3.55719">
        <ele>1163.6</ele>
      </trkpt>
      <trkpt lat="44.85332" lon="3.55758">
        <ele>1164.9</ele>
      </trkpt>
      <trkpt lat="44.85345" lon="3.5578">
        <ele>1165.3</ele>
      </trkpt>
      <trkpt lat="44.85361" lon="3.55801">
        <ele>1166.5</ele>
      </trkpt>
      <trkpt lat="44.85379" lon="3.55828">
        <ele>1168.9</ele>
      </trkpt>
      <trkpt lat="44.85393" lon="3.55847">
        <ele>1170.4</ele>
      </trkpt>
      <trkpt lat="44.85403" lon="3.55857">
        <ele>1170.7</ele>
      </trkpt>
      <trkpt lat="44.85412" lon="3.55863">
        <ele>1171.5</ele>
      </trkpt>
      <trkpt lat="44.85433" lon="3.55875">
        <ele>1173.5</ele>
      </trkpt>
      <trkpt lat="44.85462" lon="3.55889">
        <ele>1175.9</ele>
      </trkpt>
      <trkpt lat="44.85486" lon="3.55904">
        <ele>1177</ele>
      </trkpt>
      <trkpt lat="44.8551" lon="3.55921">
        <ele>1177</ele>
      </trkpt>
      <trkpt lat="44.85531" lon="3.55928">
        <ele>1176.7</ele>
      </trkpt>
      <trkpt lat="44.85558" lon="3.55938">
        <ele>1174.5</ele>
      </trkpt>
      <trkpt lat="44.85587" lon="3.55951">
        <ele>1171.8</ele>
      </trkpt>
      <trkpt lat="44.85602" lon="3.55959">
        <ele>1170.2</ele>
      </trkpt>
      <trkpt lat="44.85621" lon="3.55975">
        <ele>1167.6</ele>
      </trkpt>
      <trkpt lat="44.85644" lon="3.55997">
        <ele>1164.5</ele>
      </trkpt>
      <trkpt lat="44.85674" lon="3.56026">
        <ele>1161.2</ele>
      </trkpt>
      <trkpt lat="44.85675" lon="3.56027">
        <ele>1161.1</ele>
        <extensions>
          <visugpx:TrkExtension xmlns:visugpx="https://www.visugpx.com/editgpx/">
            <visugpx:node>4</visugpx:node>
            </visugpx:TrkExtension>
        </extensions>
      </trkpt>
      <trkpt lat="44.85685" lon="3.56035">
        <ele>1159.4</ele>
      </trkpt>
      <trkpt lat="44.85691" lon="3.56039">
        <ele>1158.3</ele>
      </trkpt>
      <trkpt lat="44.85698" lon="3.56041">
        <ele>1157.3</ele>
      </trkpt>
      <trkpt lat="44.85712" lon="3.56044">
        <ele>1155.6</ele>
      </trkpt>
      <trkpt lat="44.85722" lon="3.56046">
        <ele>1154.4</ele>
      </trkpt>
      <trkpt lat="44.85741" lon="3.56059">
        <ele>1153</ele>
      </trkpt>
      <trkpt lat="44.85761" lon="3.56074">
        <ele>1150.9</ele>
      </trkpt>
      <trkpt lat="44.85772" lon="3.56081">
        <ele>1150.1</ele>
      </trkpt>
      <trkpt lat="44.8578" lon="3.56089">
        <ele>1148.8</ele>
      </trkpt>
      <trkpt lat="44.8579" lon="3.56103">
        <ele>1146.1</ele>
      </trkpt>
      <trkpt lat="44.85801" lon="3.56121">
        <ele>1143</ele>
      </trkpt>
      <trkpt lat="44.85808" lon="3.56135">
        <ele>1140.7</ele>
      </trkpt>
      <trkpt lat="44.85816" lon="3.56146">
        <ele>1138.5</ele>
      </trkpt>
      <trkpt lat="44.85829" lon="3.56156">
        <ele>1135.9</ele>
      </trkpt>
      <trkpt lat="44.8584" lon="3.56166">
        <ele>1132.7</ele>
      </trkpt>
      <trkpt lat="44.85859" lon="3.56187">
        <ele>1128.3</ele>
      </trkpt>
      <trkpt lat="44.85873" lon="3.56199">
        <ele>1125.7</ele>
      </trkpt>
      <trkpt lat="44.85884" lon="3.56205">
        <ele>1124.2</ele>
      </trkpt>
      <trkpt lat="44.85896" lon="3.56206">
        <ele>1122.8</ele>
      </trkpt>
      <trkpt lat="44.85914" lon="3.56206">
        <ele>1120.3</ele>
      </trkpt>
      <trkpt lat="44.85937" lon="3.56205">
        <ele>1116.2</ele>
      </trkpt>
      <trkpt lat="44.85962" lon="3.56207">
        <ele>1111.8</ele>
      </trkpt>
      <trkpt lat="44.85982" lon="3.56212">
        <ele>1108</ele>
      </trkpt>
      <trkpt lat="44.86005" lon="3.56213">
        <ele>1104.8</ele>
      </trkpt>
      <trkpt lat="44.86021" lon="3.56216">
        <ele>1101.5</ele>
      </trkpt>
      <trkpt lat="44.86046" lon="3.5622">
        <ele>1096.9</ele>
      </trkpt>
      <trkpt lat="44.86058" lon="3.56225">
        <ele>1094.7</ele>
      </trkpt>
      <trkpt lat="44.86072" lon="3.56237">
        <ele>1093</ele>
      </trkpt>
      <trkpt lat="44.86097" lon="3.56256">
        <ele>1089.2</ele>
      </trkpt>
      <trkpt lat="44.86124" lon="3.56279">
        <ele>1086</ele>
      </trkpt>
      <trkpt lat="44.86134" lon="3.56287">
        <ele>1085</ele>
      </trkpt>
      <trkpt lat="44.86143" lon="3.56291">
        <ele>1084.1</ele>
      </trkpt>
      <trkpt lat="44.86154" lon="3.56292">
        <ele>1082.9</ele>
      </trkpt>
      <trkpt lat="44.86163" lon="3.56295">
        <ele>1081.8</ele>
      </trkpt>
      <trkpt lat="44.86177" lon="3.56302">
        <ele>1080.7</ele>
      </trkpt>
      <trkpt lat="44.86192" lon="3.56312">
        <ele>1079.6</ele>
      </trkpt>
      <trkpt lat="44.86226" lon="3.5634">
        <ele>1077.5</ele>
      </trkpt>
      <trkpt lat="44.86248" lon="3.56358">
        <ele>1075.3</ele>
      </trkpt>
      <trkpt lat="44.8625" lon="3.5636">
        <ele>1075</ele>
      </trkpt>
      <trkpt lat="44.8626" lon="3.56368">
        <ele>1074.5</ele>
      </trkpt>
      <trkpt lat="44.86275" lon="3.56365">
        <ele>1074.1</ele>
      </trkpt>
      <trkpt lat="44.86289" lon="3.56364">
        <ele>1073.6</ele>
        <extensions>
          <visugpx:TrkExtension xmlns:visugpx="https://www.visugpx.com/editgpx/">
            <visugpx:node>5</visugpx:node>
            </visugpx:TrkExtension>
        </extensions>
      </trkpt>
    </trkseg>
  </trk>
</gpx>